Provisional Data: Marsh Creek near Blanchard, PA


Please select a monitoring station.
Please select start date.
Please select start date.

Toggle Unit: C/F Toggle Unit: C/F
Sample Time Temperature (C) Temperature (F) Specific Conductivity (mS/cm) pH   Turbidity (NTU+) DO (mg/L)
4/13/2022 12:00:00 AM 12.03 53.654 0.083 7.3 6.27 10.13
4/13/2022 12:15:00 AM 11.91 53.438 0.083 7.3 6.56 10.17
4/13/2022 12:30:00 AM 11.79 53.222 0.083 7.3 6.06 10.19
4/13/2022 12:45:00 AM 11.67 53.006 0.083 7.27 6.38 10.22
4/13/2022 1:00:00 AM 11.55 52.79 0.083 7.29 6.87 10.24
4/13/2022 1:15:00 AM 11.44 52.592 0.083 7.3 5.99 10.28
4/13/2022 1:30:00 AM 11.33 52.394 0.083 7.3 6.09 10.3
4/13/2022 1:45:00 AM 11.22 52.196 0.084 7.29 6.17 10.33
4/13/2022 2:00:00 AM 11.11 51.998 0.083 7.26 6.79 10.37
4/13/2022 2:15:00 AM 11 51.8 0.084 7.28 7.23 10.4
4/13/2022 2:30:00 AM 10.9 51.62 0.084 7.31 6.32 10.42
4/13/2022 2:45:00 AM 10.79 51.422 0.084 7.31 6.49 10.45
4/13/2022 3:00:00 AM 10.68 51.224 0.084 7.29 6.55 10.48
4/13/2022 3:15:00 AM 10.58 51.044 0.084 7.22 6.47 10.51
4/13/2022 3:30:00 AM 10.49 50.882 0.084 7.31 5.97 10.54
4/13/2022 3:45:00 AM 10.4 50.72 0.084 7.3 5.74 10.56
4/13/2022 4:00:00 AM 10.3 50.54 0.084 7.3 6.12 10.58
4/13/2022 4:15:00 AM 10.2 50.36 0.084 7.31 6.55 10.62
4/13/2022 4:30:00 AM 10.12 50.216 0.084 7.3 6.21 10.64
4/13/2022 4:45:00 AM 10.04 50.072 0.084 7.24 5.91 10.67
4/13/2022 5:00:00 AM 9.97 49.946 0.084 7.25 6.06 10.7
4/13/2022 5:15:00 AM 9.9 49.82 0.084 7.3 6.18 10.72
4/13/2022 5:30:00 AM 9.84 49.712 0.084 7.32 6.06 10.74
4/13/2022 5:45:00 AM 9.78 49.604 0.084 7.32 6.61 10.76
4/13/2022 6:00:00 AM 9.72 49.496 0.085 7.31 6.33 10.78
4/13/2022 6:15:00 AM 9.67 49.406 0.085 7.25 5.95 10.81
4/13/2022 6:30:00 AM 9.62 49.316 0.085 7.32 6.74 10.82
4/13/2022 6:45:00 AM 9.56 49.208 0.085 7.27 5.96 10.84
4/13/2022 7:00:00 AM 9.5 49.1 0.085 7.31 6.27 10.87
4/13/2022 7:15:00 AM 9.45 49.01 0.085 7.33 6.28 10.93
4/13/2022 7:30:00 AM 9.41 48.938 0.085 7.34 6.27 10.99
4/13/2022 7:45:00 AM 9.37 48.866 0.085 7.29 5.79 11.06
4/13/2022 8:00:00 AM 9.33 48.794 0.085 7.37 6.08 11.13
4/13/2022 8:15:00 AM 9.32 48.776 0.085 7.39 5.72 11.2
4/13/2022 8:30:00 AM 9.32 48.776 0.085 7.33 5.71 11.29
4/13/2022 8:45:00 AM 9.33 48.794 0.084 7.44 5.76 11.38
4/13/2022 9:00:00 AM 9.37 48.866 0.084 7.46 5.23 11.46
4/13/2022 9:15:00 AM 9.43 48.974 0.084 7.48 5.63 11.55
4/13/2022 9:30:00 AM 9.54 49.172 0.084 7.47 5.06 11.64
4/13/2022 9:45:00 AM 9.6 49.28 0.084 7.54 5.03 11.7
4/13/2022 10:00:00 AM 9.66 49.388 0.084 7.57 4.94 11.76
4/13/2022 10:15:00 AM 9.82 49.676 0.084 7.6 4.96 11.8
4/13/2022 10:30:00 AM 9.94 49.892 0.084 7.61 4.9 11.85
4/13/2022 10:45:00 AM 10.09 50.162 0.084 7.67 4.78 11.9
4/13/2022 11:00:00 AM 10.31 50.558 0.084 7.7 4.85 11.92
4/13/2022 11:15:00 AM 10.45 50.81 0.084 7.66 4.67 11.93
4/13/2022 11:30:00 AM 10.61 51.098 0.083 7.7 4.67 11.94
4/13/2022 11:45:00 AM 10.79 51.422 0.083 7.78 4.72 11.93
4/13/2022 12:00:00 PM 10.96 51.728 0.083 7.79 4.65 11.92
4/13/2022 12:15:00 PM 11.18 52.124 0.083 7.79 4.87 11.9
4/13/2022 12:30:00 PM 11.4 52.52 0.083 7.85 4.73 11.88
4/13/2022 12:45:00 PM 11.52 52.736 0.083 7.84 4.91 11.84
4/13/2022 1:00:00 PM 11.59 52.862 0.083 7.88 4.66 11.8
4/13/2022 1:15:00 PM 11.69 53.042 0.083 7.87 4.59 11.74
4/13/2022 1:30:00 PM 11.69 53.042 0.083 7.78 4.7 11.61
4/13/2022 1:45:00 PM 11.79 53.222 0.082 7.84 5.08 11.61
4/13/2022 2:00:00 PM 11.91 53.438 0.083 7.87 4.88 11.57
4/13/2022 2:15:00 PM 12.04 53.672 0.082 7.88 5.09 11.57
4/13/2022 2:30:00 PM 12.18 53.924 0.082 7.85 5.6 11.57
4/13/2022 2:45:00 PM 12.24 54.032 0.079 7.88 7.89 11.53
4/13/2022 3:00:00 PM 12.34 54.212 0.082 7.95 5 11.51
4/13/2022 3:15:00 PM 12.46 54.428 0.082 7.96 4.99 11.49
4/13/2022 3:30:00 PM 12.56 54.608 0.082 7.88 5.06 11.45
4/13/2022 3:45:00 PM 12.66 54.788 0.082 7.98 4.72 11.43
4/13/2022 4:00:00 PM 12.75 54.95 0.082 7.93 4.68 11.4
4/13/2022 4:15:00 PM 12.82 55.076 0.082 8.01 4.98 11.38
4/13/2022 4:30:00 PM 12.92 55.256 0.081 8.03 4.86 11.34
4/13/2022 4:45:00 PM 13.05 55.49 0.081 8.04 4.98 11.32
4/13/2022 5:00:00 PM 13.2 55.76 0.081 8 4.95 11.28
4/13/2022 5:15:00 PM 13.28 55.904 0.081 8.03 4.89 11.23
4/13/2022 5:30:00 PM 13.37 56.066 0.082 7.96 5.42 11.16
4/13/2022 5:45:00 PM 13.44 56.192 0.081 7.97 4.86 11.07
4/13/2022 6:00:00 PM 13.47 56.246 0.081 7.87 4.9 10.93
4/13/2022 6:15:00 PM 13.51 56.318 0.081 7.78 5.01 10.83
4/13/2022 6:30:00 PM 13.53 56.354 0.081 7.77 5 10.75
4/13/2022 6:45:00 PM 13.51 56.318 0.082 7.72 4.95 10.67
4/13/2022 7:00:00 PM 13.49 56.282 0.082 7.6 4.8 10.61
4/13/2022 7:15:00 PM 13.48 56.264 0.082 7.66 5.3 10.53
4/13/2022 7:30:00 PM 13.45 56.21 0.082 7.61 5.17 10.43
4/13/2022 7:45:00 PM 13.44 56.192 0.082 7.56 5.18 10.34
4/13/2022 8:00:00 PM 13.42 56.156 0.082 7.46 5.05 10.25
4/13/2022 8:15:00 PM 13.4 56.12 0.082 7.49 6.29 10.16
4/13/2022 8:30:00 PM 13.38 56.084 0.082 7.46 5.44 10.1
4/13/2022 8:45:00 PM 13.34 56.012 0.083 7.39 5.35 10.03
4/13/2022 9:00:00 PM 13.32 55.976 0.083 7.34 5.74 9.98
4/13/2022 9:15:00 PM 13.3 55.94 0.083 7.36 5.82 9.94
4/13/2022 9:30:00 PM 13.25 55.85 0.083 7.36 5.71 9.9
4/13/2022 9:45:00 PM 13.22 55.796 0.083 7.3 5.66 9.88
4/13/2022 10:00:00 PM 13.18 55.724 0.083 7.28 6.02 9.87
4/13/2022 10:15:00 PM 13.13 55.634 0.083 7.34 5.59 9.85
4/13/2022 10:30:00 PM 13.09 55.562 0.083 7.25 5.79 9.84
4/13/2022 10:45:00 PM 13.04 55.472 0.084 7.32 6 9.84
4/13/2022 11:00:00 PM 13 55.4 0.084 7.32 6.12 9.84
4/13/2022 11:15:00 PM 12.96 55.328 0.084 7.21 5.62 9.84
4/13/2022 11:30:00 PM 12.92 55.256 0.084 7.31 5.6 9.84
4/13/2022 11:45:00 PM 12.87 55.166 0.084 7.31 5.55 9.84
4/14/2022 12:00:00 AM 12.82 55.076 0.084 7.31 6.19 9.85
4/14/2022 12:15:00 AM 12.76 54.968 0.084 7.3 6.24 9.86
4/14/2022 12:30:00 AM 12.71 54.878 0.084 7.3 5.74 9.87
4/14/2022 12:45:00 AM 12.66 54.788 0.084 7.3 5.85 9.87
4/14/2022 1:00:00 AM 12.6 54.68 0.084 7.3 6.04 9.89
4/14/2022 1:15:00 AM 12.55 54.59 0.084 7.28 5.71 9.89
4/14/2022 1:30:00 AM 12.5 54.5 0.084 7.27 5.86 9.91
4/14/2022 1:45:00 AM 12.46 54.428 0.084 7.23 5.88 9.92
4/14/2022 2:00:00 AM 12.41 54.338 0.085 7.29 5.75 9.93
4/14/2022 2:15:00 AM 12.37 54.266 0.084 7.3 10.85 9.93
4/14/2022 2:30:00 AM 12.32 54.176 0.085 7.29 6.16 9.95
4/14/2022 2:45:00 AM 12.27 54.086 0.085 7.19 5.3 9.96
4/14/2022 3:00:00 AM 12.21 53.978 0.085 7.3 5.16 9.98
4/14/2022 3:15:00 AM 12.15 53.87 0.085 7.28 5.37 9.99
4/14/2022 3:30:00 AM 12.09 53.762 0.085 7.29 5.7 10.01
4/14/2022 3:45:00 AM 12.03 53.654 0.086 7.29 5.38 10.02
4/14/2022 4:00:00 AM 11.96 53.528 0.086 7.29 5.3 10.03
4/14/2022 4:15:00 AM 11.89 53.402 0.086 7.29 5.63 10.06
4/14/2022 4:30:00 AM 11.82 53.276 0.086 7.29 5.72 10.07
4/14/2022 4:45:00 AM 11.75 53.15 0.086 7.29 5.31 10.09
4/14/2022 5:00:00 AM 11.68 53.024 0.086 7.21 5.9 10.1
4/14/2022 5:15:00 AM 11.62 52.916 0.086 7.29 5.27 10.12
4/14/2022 5:30:00 AM 11.55 52.79 0.086 7.29 5.57 10.13
4/14/2022 5:45:00 AM 11.48 52.664 0.086 7.26 5.38 10.16
4/14/2022 6:00:00 AM 11.41 52.538 0.086 7.2 5.22 10.17
4/14/2022 6:15:00 AM 11.33 52.394 0.086 7.28 5.09 10.2
4/14/2022 6:30:00 AM 11.27 52.286 0.087 7.23 5.24 10.2
4/14/2022 6:45:00 AM 11.21 52.178 0.087 7.28 5.33 10.23
4/14/2022 7:00:00 AM 11.15 52.07 0.086 7.3 5.58 10.27
4/14/2022 7:15:00 AM 11.1 51.98 0.086 7.31 5.25 10.31
4/14/2022 7:30:00 AM 11.06 51.908 0.087 7.32 5.32 10.36
4/14/2022 7:45:00 AM 11.04 51.872 0.087 7.33 5.1 10.44
4/14/2022 8:00:00 AM 11.03 51.854 0.087 7.35 5.47 10.54
4/14/2022 8:15:00 AM 11.04 51.872 0.086 7.39 5.32 10.65
4/14/2022 8:30:00 AM 11.05 51.89 0.086 7.4 4.79 10.73
4/14/2022 8:45:00 AM 11.11 51.998 0.086 7.43 4.96 10.84
4/14/2022 9:00:00 AM 11.15 52.07 0.086 7.37 4.72 10.93
4/14/2022 9:15:00 AM 11.22 52.196 0.086 7.5 4.51 11.01
4/14/2022 9:30:00 AM 11.34 52.412 0.086 7.52 4.66 11.09
4/14/2022 9:45:00 AM 11.48 52.664 0.086 7.58 4.49 11.17
4/14/2022 10:00:00 AM 11.61 52.898 0.086 7.57 4.54 11.23
4/14/2022 10:15:00 AM 11.79 53.222 0.086 7.64 4.42 11.28
4/14/2022 10:30:00 AM 11.9 53.42 0.086 7.66 4.71 11.29
4/14/2022 10:45:00 AM 12.02 53.636 0.085 7.69 4.59 11.3
4/14/2022 11:00:00 AM 12.11 53.798 0.085 7.62 4.42 11.28
4/14/2022 11:15:00 AM 12.22 53.996 0.085 7.74 4.79 11.28
4/14/2022 11:30:00 AM 12.3 54.14 0.085 7.71 4.72 11.25
4/14/2022 11:45:00 AM 12.32 54.176 0.085 7.69 4.71 11.19
4/14/2022 12:00:00 PM 12.35 54.23 0.085 7.7 6.12 11.17
4/14/2022 12:15:00 PM 12.39 54.302 0.085 7.75 4.39 11.16
4/14/2022 12:30:00 PM 12.48 54.464 0.085 7.72 4.52 11.2
4/14/2022 12:45:00 PM 12.49 54.482 0.085 7.8 4.53 11.16
4/14/2022 1:00:00 PM 12.52 54.536 0.085 7.77 4.57 11.15
4/14/2022 1:15:00 PM 12.52 54.536 0.085 7.7 4.45 11.06
4/14/2022 1:30:00 PM 12.52 54.536 0.085 7.74 4.18 11.01
4/14/2022 1:45:00 PM 12.52 54.536 0.085 7.65 4.41 10.96
4/14/2022 2:00:00 PM 12.49 54.482 0.085 7.72 4.69 10.94
4/14/2022 2:15:00 PM 12.46 54.428 0.085 7.71 4.63 10.94
4/14/2022 2:30:00 PM 12.43 54.374 0.085 7.73 4.5 10.96
4/14/2022 2:45:00 PM 12.41 54.338 0.084 7.74 4.39 10.97
4/14/2022 3:00:00 PM 12.41 54.338 0.084 7.73 4.35 11.01
4/14/2022 3:15:00 PM 12.41 54.338 0.084 7.78 4.29 11.07
4/14/2022 3:30:00 PM 12.41 54.338 0.084 7.8 4.21 11.1
4/14/2022 3:45:00 PM 12.41 54.338 0.084 7.83 4.48 11.13
4/14/2022 4:00:00 PM 12.43 54.374 0.084 7.84 4.41 11.15
4/14/2022 4:15:00 PM 12.45 54.41 0.084 7.82 4.5 11.16
4/14/2022 4:30:00 PM 12.45 54.41 0.084 7.87 4.49 11.18
4/14/2022 4:45:00 PM 12.49 54.482 0.084 7.86 4.73 11.2
4/14/2022 5:00:00 PM 12.59 54.662 0.084 7.9 4.53 11.22
4/14/2022 5:15:00 PM 12.53 54.554 0.081 7.84 6.67 11.19
4/14/2022 5:30:00 PM 12.52 54.536 0.081 7.84 6.19 11.15
4/14/2022 5:45:00 PM 12.54 54.572 0.083 7.85 4.36 11.12
4/14/2022 6:00:00 PM 12.58 54.644 0.083 7.86 4.52 11.12
4/14/2022 6:15:00 PM 12.56 54.608 0.083 7.81 4.56 11.07
4/14/2022 6:30:00 PM 12.51 54.518 0.083 7.8 4.57 11.01
4/14/2022 6:45:00 PM 12.42 54.356 0.083 7.76 4.57 10.95
4/14/2022 7:00:00 PM 12.34 54.212 0.084 7.7 4.56 10.89
4/14/2022 7:15:00 PM 12.28 54.104 0.083 7.63 4.61 10.82
4/14/2022 7:30:00 PM 12.23 54.014 0.083 7.63 4.74 10.75
4/14/2022 7:45:00 PM 12.17 53.906 0.084 7.52 4.83 10.67
4/14/2022 8:00:00 PM 12.09 53.762 0.084 7.53 4.89 10.6
4/14/2022 8:15:00 PM 11.99 53.582 0.084 7.53 4.85 10.53
4/14/2022 8:30:00 PM 11.88 53.384 0.084 7.49 4.96 10.48
4/14/2022 8:45:00 PM 11.79 53.222 0.084 7.46 4.92 10.43
4/14/2022 9:00:00 PM 11.72 53.096 0.084 7.44 5.08 10.39
4/14/2022 9:15:00 PM 11.63 52.934 0.085 7.37 5.18 10.36
4/14/2022 9:30:00 PM 11.53 52.754 0.085 7.4 5.37 10.35
4/14/2022 9:45:00 PM 11.43 52.574 0.085 7.37 5.33 10.34
4/14/2022 10:00:00 PM 11.32 52.376 0.085 7.34 5.46 10.34
4/14/2022 10:15:00 PM 11.22 52.196 0.085 7.38 5.34 10.35
4/14/2022 10:30:00 PM 11.11 51.998 0.085 7.26 5.38 10.37
4/14/2022 10:45:00 PM 10.99 51.782 0.085 7.28 5.47 10.38
4/14/2022 11:00:00 PM 10.88 51.584 0.085 7.28 5.48 10.4
4/14/2022 11:15:00 PM 10.78 51.404 0.085 7.35 5.75 10.43
4/14/2022 11:30:00 PM 10.68 51.224 0.085 7.3 5.28 10.45
4/14/2022 11:45:00 PM 10.56 51.008 0.085 7.27 5.38 10.48
4/15/2022 12:00:00 AM 10.45 50.81 0.085 7.35 4.92 10.5
4/15/2022 12:15:00 AM 10.34 50.612 0.085 7.27 5.52 10.54
4/15/2022 12:30:00 AM 10.23 50.414 0.085 7.34 5.2 10.56
4/15/2022 12:45:00 AM 10.13 50.234 0.085 7.33 5.32 10.59
4/15/2022 1:00:00 AM 10.01 50.018 0.085 7.33 5.3 10.64
4/15/2022 1:15:00 AM 9.9 49.82 0.085 7.33 5.9 10.66
4/15/2022 1:30:00 AM 9.79 49.622 0.085 7.34 5.13 10.68
4/15/2022 1:45:00 AM 9.68 49.424 0.085 7.33 5.51 10.72
4/15/2022 2:00:00 AM 9.57 49.226 0.085 7.34 5.25 10.75
4/15/2022 2:15:00 AM 9.46 49.028 0.085 7.33 5.58 10.78
4/15/2022 2:30:00 AM 9.35 48.83 0.085 7.34 5.66 10.81
4/15/2022 2:45:00 AM 9.24 48.632 0.085 7.24 5.43 10.84
4/15/2022 3:00:00 AM 9.13 48.434 0.085 7.32 5.37 10.88
4/15/2022 3:15:00 AM 9.03 48.254 0.085 7.32 5.47 10.91
4/15/2022 3:30:00 AM 8.93 48.074 0.085 7.34 5.19 10.94
4/15/2022 3:45:00 AM 8.83 47.894 0.085 7.32 5.18 10.97
4/15/2022 4:00:00 AM 8.73 47.714 0.085 7.34 5.33 11
4/15/2022 4:15:00 AM 8.62 47.516 0.085 7.33 5.33 11.04
4/15/2022 4:30:00 AM 8.52 47.336 0.085 7.34 5.15 11.07
4/15/2022 4:45:00 AM 8.41 47.138 0.086 7.34 5.11 11.1
4/15/2022 5:00:00 AM 8.32 46.976 0.086 7.33 5.02 11.13
4/15/2022 5:15:00 AM 8.22 46.796 0.086 7.34 5.1 11.16
4/15/2022 5:30:00 AM 8.12 46.616 0.086 7.24 5.03 11.19
4/15/2022 5:45:00 AM 8.02 46.436 0.086 7.34 5.51 11.23
4/15/2022 6:00:00 AM 7.92 46.256 0.086 7.33 5.35 11.26
4/15/2022 6:15:00 AM 7.83 46.094 0.086 7.34 5.37 11.29
4/15/2022 6:30:00 AM 7.73 45.914 0.086 7.32 4.95 11.33
4/15/2022 6:45:00 AM 7.64 45.752 0.086 7.35 5.04 11.36
4/15/2022 7:00:00 AM 7.55 45.59 0.086 7.34 5.11 11.42
4/15/2022 7:15:00 AM 7.48 45.464 0.086 7.36 4.85 11.47
4/15/2022 7:30:00 AM 7.41 45.338 0.086 7.37 5.05 11.54
4/15/2022 7:45:00 AM 7.36 45.248 0.086 7.29 4.94 11.63
4/15/2022 8:00:00 AM 7.31 45.158 0.086 7.41 4.9 11.71
4/15/2022 8:15:00 AM 7.28 45.104 0.086 7.42 5.1 11.8
4/15/2022 8:30:00 AM 7.27 45.086 0.086 7.43 4.76 11.89
4/15/2022 8:45:00 AM 7.28 45.104 0.086 7.45 4.92 11.97
4/15/2022 9:00:00 AM 7.31 45.158 0.086 7.39 5.15 12.06
4/15/2022 9:15:00 AM 7.37 45.266 0.086 7.49 5.03 12.14
4/15/2022 9:30:00 AM 7.46 45.428 0.086 7.52 4.88 12.2
4/15/2022 9:45:00 AM 7.59 45.662 0.086 7.54 4.78 12.27
4/15/2022 10:00:00 AM 7.75 45.95 0.086 7.49 4.65 12.32
4/15/2022 10:15:00 AM 7.93 46.274 0.086 7.59 4.86 12.35
4/15/2022 10:30:00 AM 8.14 46.652 0.086 7.61 4.78 12.38
4/15/2022 10:45:00 AM 8.36 47.048 0.085 7.65 4.65 12.38
4/15/2022 11:00:00 AM 8.61 47.498 0.085 7.67 4.9 12.38
4/15/2022 11:15:00 AM 8.87 47.966 0.085 7.69 5.6 12.36
4/15/2022 11:30:00 AM 9.13 48.434 0.085 7.71 4.62 12.35
4/15/2022 11:45:00 AM 9.41 48.938 0.085 7.73 4.57 12.32
4/15/2022 12:00:00 PM 9.69 49.442 0.085 7.71 4.77 12.28
4/15/2022 12:15:00 PM 9.97 49.946 0.085 7.75 4.44 12.23
4/15/2022 12:30:00 PM 10.24 50.432 0.085 7.74 4.5 12.18
4/15/2022 12:45:00 PM 10.47 50.846 0.085 7.78 4.28 12.14
4/15/2022 1:00:00 PM 10.73 51.314 0.085 7.79 4.32 12.08
4/15/2022 1:15:00 PM 10.94 51.692 0.085 7.76 4.45 12.03
4/15/2022 1:30:00 PM 11.18 52.124 0.085 7.81 4.33 11.97
4/15/2022 1:45:00 PM 11.42 52.556 0.085 7.74 4.29 11.93
4/15/2022 2:00:00 PM 11.65 52.97 0.085 7.84 4.27 11.88
4/15/2022 2:15:00 PM 11.88 53.384 0.085 7.85 4.38 11.84
4/15/2022 2:30:00 PM 12.07 53.726 0.084 7.86 4.47 11.78
4/15/2022 2:45:00 PM 12.25 54.05 0.084 7.87 4.35 11.73
4/15/2022 3:00:00 PM 12.37 54.266 0.085 7.79 4.39 11.67
4/15/2022 3:15:00 PM 12.52 54.536 0.084 7.87 4.47 11.63
4/15/2022 3:30:00 PM 12.63 54.734 0.084 7.9 4.28 11.58
4/15/2022 3:45:00 PM 12.73 54.914 0.084 7.81 4.32 11.53
4/15/2022 4:00:00 PM 12.81 55.058 0.084 7.83 4.25 11.48
4/15/2022 4:15:00 PM 12.86 55.148 0.084 7.87 4.34 11.43
4/15/2022 4:30:00 PM 12.88 55.184 0.084 7.88 4.35 11.37
4/15/2022 4:45:00 PM 12.92 55.256 0.084 7.81 4.38 11.3
4/15/2022 5:00:00 PM 12.95 55.31 0.084 7.87 4.56 11.26
4/15/2022 5:15:00 PM 12.95 55.31 0.084 7.85 4.59 11.19
4/15/2022 5:30:00 PM 12.95 55.31 0.084 7.82 4.98 11.14
4/15/2022 5:45:00 PM 12.96 55.328 0.084 7.82 4.58 11.09
4/15/2022 6:00:00 PM 12.95 55.31 0.084 7.79 4.59 11.03
4/15/2022 6:15:00 PM 12.94 55.292 0.082 7.73 6.6 10.98
4/15/2022 6:30:00 PM 12.91 55.238 0.084 7.75 4.84 10.91
4/15/2022 6:45:00 PM 12.85 55.13 0.084 7.71 4.63 10.84
4/15/2022 7:00:00 PM 12.79 55.022 0.084 7.69 4.66 10.78
4/15/2022 7:15:00 PM 12.74 54.932 0.084 7.63 4.68 10.69
4/15/2022 7:30:00 PM 12.7 54.86 0.085 7.62 4.74 10.61
4/15/2022 7:45:00 PM 12.65 54.77 0.085 7.52 4.7 10.52
4/15/2022 8:00:00 PM 12.6 54.68 0.085 7.55 4.88 10.44
4/15/2022 8:15:00 PM 12.55 54.59 0.085 7.51 4.64 10.38
4/15/2022 8:30:00 PM 12.5 54.5 0.085 7.49 4.94 10.31
4/15/2022 8:45:00 PM 12.45 54.41 0.085 7.37 4.92 10.24
4/15/2022 9:00:00 PM 12.39 54.302 0.085 7.44 4.94 10.2
4/15/2022 9:15:00 PM 12.33 54.194 0.085 7.41 5.11 10.17
4/15/2022 9:30:00 PM 12.26 54.068 0.086 7.4 5.15 10.13
4/15/2022 9:45:00 PM 12.19 53.942 0.086 7.36 5.08 10.12
4/15/2022 10:00:00 PM 12.11 53.798 0.086 7.35 5.23 10.12
4/15/2022 10:15:00 PM 12.03 53.654 0.086 7.29 5.26 10.11
4/15/2022 10:30:00 PM 11.95 53.51 0.086 7.33 5.11 10.12
4/15/2022 10:45:00 PM 11.88 53.384 0.086 7.36 5.27 10.12
4/15/2022 11:00:00 PM 11.8 53.24 0.086 7.36 5.14 10.13
4/15/2022 11:15:00 PM 11.72 53.096 0.086 7.36 4.99 10.14
4/15/2022 11:30:00 PM 11.65 52.97 0.086 7.35 5.17 10.16
4/15/2022 11:45:00 PM 11.59 52.862 0.086 7.35 5.37 10.16
4/16/2022 12:00:00 AM 11.51 52.718 0.086 7.35 5.12 10.18
4/16/2022 12:15:00 AM 11.44 52.592 0.086 7.32 5.23 10.2
4/16/2022 12:30:00 AM 11.36 52.448 0.086 7.35 5.06 10.21
4/16/2022 12:45:00 AM 11.29 52.322 0.086 7.33 5.42 10.23
4/16/2022 1:00:00 AM 11.21 52.178 0.086 7.34 5.13 10.25
4/16/2022 1:15:00 AM 11.14 52.052 0.086 7.34 4.89 10.27
4/16/2022 1:30:00 AM 11.07 51.926 0.086 7.33 5.44 10.29
4/16/2022 1:45:00 AM 11 51.8 0.086 7.33 5.16 10.3
4/16/2022 2:00:00 AM 10.94 51.692 0.086 7.33 5.05 10.32
4/16/2022 2:15:00 AM 10.87 51.566 0.087 7.33 5.05 10.34
4/16/2022 2:30:00 AM 10.82 51.476 0.087 7.32 5.25 10.36
4/16/2022 2:45:00 AM 10.76 51.368 0.087 7.33 5.21 10.38
4/16/2022 3:00:00 AM 10.7 51.26 0.087 7.33 5.25 10.39
4/16/2022 3:15:00 AM 10.63 51.134 0.087 7.33 5.31 10.41
4/16/2022 3:30:00 AM 10.57 51.026 0.087 7.32 4.94 10.43
4/16/2022 3:45:00 AM 10.52 50.936 0.087 7.23 5.04 10.44
4/16/2022 4:00:00 AM 10.47 50.846 0.087 7.32 5.4 10.46
4/16/2022 4:15:00 AM 10.41 50.738 0.087 7.23 5.21 10.48
4/16/2022 4:30:00 AM 10.36 50.648 0.087 7.33 5.27 10.49
4/16/2022 4:45:00 AM 10.31 50.558 0.087 7.33 5.01 10.52
4/16/2022 5:00:00 AM 10.26 50.468 0.087 7.32 5.22 10.53
4/16/2022 5:15:00 AM 10.22 50.396 0.087 7.33 5.22 10.54
4/16/2022 5:30:00 AM 10.17 50.306 0.087 7.33 5.25 10.55
4/16/2022 5:45:00 AM 10.13 50.234 0.087 7.28 4.82 10.58
4/16/2022 6:00:00 AM 10.09 50.162 0.087 7.34 5.08 10.58
4/16/2022 6:15:00 AM 10.06 50.108 0.087 7.33 4.91 10.6
4/16/2022 6:30:00 AM 10.04 50.072 0.087 7.35 5.22 10.61
4/16/2022 6:45:00 AM 10.01 50.018 0.087 7.26 5.1 10.63
4/16/2022 7:00:00 AM 9.99 49.982 0.087 7.32 5.01 10.64
4/16/2022 7:15:00 AM 9.97 49.946 0.087 7.3 4.9 10.68
4/16/2022 7:30:00 AM 9.96 49.928 0.087 7.37 5.08 10.71
4/16/2022 7:45:00 AM 9.95 49.91 0.087 7.3 4.98 10.75
4/16/2022 8:00:00 AM 9.94 49.892 0.087 7.4 5.07 10.79
4/16/2022 8:15:00 AM 9.95 49.91 0.087 7.41 4.89 10.85
4/16/2022 8:30:00 AM 9.94 49.892 0.087 7.34 4.58 10.91
4/16/2022 8:45:00 AM 9.94 49.892 0.087 7.38 4.79 10.95
4/16/2022 9:00:00 AM 9.96 49.928 0.087 7.45 4.75 11.02
4/16/2022 9:15:00 AM 10.01 50.018 0.087 7.42 4.81 11.1
4/16/2022 9:30:00 AM 10.09 50.162 0.087 7.51 4.67 11.21
4/16/2022 9:45:00 AM 10.13 50.234 0.087 7.53 4.82 11.28
4/16/2022 10:00:00 AM 10.18 50.324 0.087 7.54 4.72 11.34
4/16/2022 10:15:00 AM 10.21 50.378 0.087 7.57 4.57 11.35
4/16/2022 10:30:00 AM 10.24 50.432 0.087 7.56 4.54 11.36
4/16/2022 10:45:00 AM 10.29 50.522 0.087 7.59 4.56 11.36
4/16/2022 11:00:00 AM 10.32 50.576 0.087 7.59 4.73 11.35
4/16/2022 11:15:00 AM 10.36 50.648 0.087 7.5 4.52 11.35
4/16/2022 11:30:00 AM 10.4 50.72 0.087 7.61 4.36 11.36
4/16/2022 11:45:00 AM 10.43 50.774 0.086 7.52 4.35 11.36
4/16/2022 12:00:00 PM 10.53 50.954 0.086 7.63 4.53 11.42
4/16/2022 12:15:00 PM 10.51 50.918 0.086 7.62 4.38 11.39
4/16/2022 12:30:00 PM 10.51 50.918 0.086 7.63 4.51 11.34
4/16/2022 12:45:00 PM 10.54 50.972 0.086 7.64 4.44 11.37
4/16/2022 1:00:00 PM 10.57 51.026 0.086 7.61 4.41 11.38
4/16/2022 1:15:00 PM 10.59 51.062 0.086 7.65 4.44 11.37
4/16/2022 1:30:00 PM 10.59 51.062 0.086 7.64 4.47 11.34
4/16/2022 1:45:00 PM 10.6 51.08 0.086 7.64 4.37 11.29
4/16/2022 2:00:00 PM 10.59 51.062 0.086 7.52 4.51 11.23
4/16/2022 2:15:00 PM 10.57 51.026 0.086 7.6 4.45 11.19
4/16/2022 2:30:00 PM 10.58 51.044 0.086 7.6 4.44 11.2
4/16/2022 2:45:00 PM 10.58 51.044 0.086 7.59 4.54 11.21
4/16/2022 3:00:00 PM 10.56 51.008 0.086 7.61 4.85 11.2
4/16/2022 3:15:00 PM 10.54 50.972 0.086 7.6 4.71 11.18
4/16/2022 3:30:00 PM 10.55 50.99 0.086 7.52 4.42 11.2
4/16/2022 3:45:00 PM 10.54 50.972 0.087 7.6 4.31 11.16
4/16/2022 4:00:00 PM 10.52 50.936 0.087 7.59 4.65 11.13
4/16/2022 4:15:00 PM 10.51 50.918 0.087 7.56 4.95 11.09
4/16/2022 4:30:00 PM 10.5 50.9 0.087 7.57 4.62 11.08
4/16/2022 4:45:00 PM 10.47 50.846 0.087 7.55 4.82 11.07
4/16/2022 5:00:00 PM 10.45 50.81 0.086 7.47 4.69 11.06
4/16/2022 5:15:00 PM 10.43 50.774 0.086 7.48 4.73 11.08
4/16/2022 5:30:00 PM 10.42 50.756 0.086 7.55 4.48 11.08
4/16/2022 5:45:00 PM 10.39 50.702 0.087 7.54 4.67 11.06
4/16/2022 6:00:00 PM 10.37 50.666 0.087 7.54 4.64 11.07
4/16/2022 6:15:00 PM 10.36 50.648 0.087 7.54 4.42 11.07
4/16/2022 6:30:00 PM 10.34 50.612 0.087 7.54 4.52 11.07
4/16/2022 6:45:00 PM 10.32 50.576 0.087 7.54 4.65 11.07
4/16/2022 7:00:00 PM 10.3 50.54 0.087 7.46 4.43 11.07
4/16/2022 7:15:00 PM 10.27 50.486 0.086 7.53 4.71 11.05
4/16/2022 7:30:00 PM 10.23 50.414 0.087 7.52 4.87 11.02
4/16/2022 7:45:00 PM 10.2 50.36 0.087 7.5 4.69 10.99
4/16/2022 8:00:00 PM 10.16 50.288 0.087 7.48 4.83 10.94
4/16/2022 8:15:00 PM 10.12 50.216 0.087 7.47 4.94 10.92
4/16/2022 8:30:00 PM 10.06 50.108 0.087 7.38 4.99 10.9
4/16/2022 8:45:00 PM 10.01 50.018 0.087 7.43 5.09 10.88
4/16/2022 9:00:00 PM 9.96 49.928 0.087 7.43 5.29 10.84
4/16/2022 9:15:00 PM 9.9 49.82 0.087 7.42 4.92 10.82
4/16/2022 9:30:00 PM 9.83 49.694 0.087 7.41 4.92 10.82
4/16/2022 9:45:00 PM 9.77 49.586 0.087 7.39 5.15 10.81
4/16/2022 10:00:00 PM 9.73 49.514 0.087 7.38 5.05 10.81
4/16/2022 10:15:00 PM 9.67 49.406 0.087 7.37 5.11 10.81
4/16/2022 10:30:00 PM 9.61 49.298 0.088 7.4 5.24 10.81
4/16/2022 10:45:00 PM 9.57 49.226 0.087 7.39 5.46 10.82
4/16/2022 11:00:00 PM 9.52 49.136 0.088 7.37 5.28 10.83
4/16/2022 11:15:00 PM 9.46 49.028 0.088 7.38 5.48 10.84
4/16/2022 11:30:00 PM 9.4 48.92 0.088 7.36 4.94 10.85
4/16/2022 11:45:00 PM 9.35 48.83 0.088 7.33 5.06 10.86
4/17/2022 12:00:00 AM 9.28 48.704 0.088 7.38 5.01 10.87
4/17/2022 12:15:00 AM 9.19 48.542 0.088 7.37 5.13 10.89
4/17/2022 12:30:00 AM 9.11 48.398 0.088 7.29 5.29 10.91
4/17/2022 12:45:00 AM 9.02 48.236 0.088 7.37 4.98 10.93
4/17/2022 1:00:00 AM 8.94 48.092 0.088 7.37 5.08 10.96
4/17/2022 1:15:00 AM 8.86 47.948 0.089 7.36 5.23 10.97
4/17/2022 1:30:00 AM 8.79 47.822 0.088 7.38 5.15 11
4/17/2022 1:45:00 AM 8.7 47.66 0.088 7.28 5.21 11.01
4/17/2022 2:00:00 AM 8.61 47.498 0.088 7.37 5.05 11.04
4/17/2022 2:15:00 AM 8.53 47.354 0.088 7.31 5.15 11.06
4/17/2022 2:30:00 AM 8.44 47.192 0.088 7.37 5.02 11.09
4/17/2022 2:45:00 AM 8.36 47.048 0.088 7.37 5.13 11.11
4/17/2022 3:00:00 AM 8.3 46.94 0.088 7.37 4.99 11.13
4/17/2022 3:15:00 AM 8.21 46.778 0.088 7.36 5.15 11.16
4/17/2022 3:30:00 AM 8.13 46.634 0.088 7.33 5.24 11.18
4/17/2022 3:45:00 AM 8.04 46.472 0.088 7.37 5.23 11.21
4/17/2022 4:00:00 AM 7.97 46.346 0.089 7.37 5.19 11.23
4/17/2022 4:15:00 AM 7.89 46.202 0.088 7.37 5.21 11.26
4/17/2022 4:30:00 AM 7.82 46.076 0.089 7.37 5.17 11.28
4/17/2022 4:45:00 AM 7.73 45.914 0.088 7.35 5.05 11.31
4/17/2022 5:00:00 AM 7.64 45.752 0.089 7.3 5.07 11.34
4/17/2022 5:15:00 AM 7.57 45.626 0.089 7.31 5.28 11.36
4/17/2022 5:30:00 AM 7.51 45.518 0.089 7.37 5.11 11.38
4/17/2022 5:45:00 AM 7.45 45.41 0.089 7.35 5.17 11.41
4/17/2022 6:00:00 AM 7.4 45.32 0.089 7.38 5.01 11.43
4/17/2022 6:15:00 AM 7.34 45.212 0.089 7.38 5.01 11.46
4/17/2022 6:30:00 AM 7.29 45.122 0.089 7.33 5.09 11.48
4/17/2022 6:45:00 AM 7.24 45.032 0.089 7.34 5.05 11.5
4/17/2022 7:00:00 AM 7.2 44.96 0.089 7.37 5.13 11.54
4/17/2022 7:15:00 AM 7.17 44.906 0.089 7.38 5.28 11.58
4/17/2022 7:30:00 AM 7.14 44.852 0.089 7.39 4.82 11.62
4/17/2022 7:45:00 AM 7.11 44.798 0.089 7.4 4.66 11.7
4/17/2022 8:00:00 AM 7.09 44.762 0.089 7.42 4.67 11.77
4/17/2022 8:15:00 AM 7.08 44.744 0.089 7.44 4.77 11.86
4/17/2022 8:30:00 AM 7.08 44.744 0.089 7.46 4.75 11.95
4/17/2022 8:45:00 AM 7.14 44.852 0.089 7.48 4.73 12.05
4/17/2022 9:00:00 AM 7.14 44.852 0.089 7.5 4.57 12.13
4/17/2022 9:15:00 AM 7.29 45.122 0.089 7.5 4.61 12.21
4/17/2022 9:30:00 AM 7.28 45.104 0.088 7.55 4.55 12.27
4/17/2022 9:45:00 AM 7.27 45.086 0.088 7.51 4.64 12.31
4/17/2022 10:00:00 AM 7.34 45.212 0.088 7.59 4.57 12.36
4/17/2022 10:15:00 AM 7.46 45.428 0.088 7.62 4.42 12.41
4/17/2022 10:30:00 AM 7.49 45.482 0.088 7.64 4.47 12.44
4/17/2022 10:45:00 AM 7.47 45.446 0.088 7.65 4.45 12.48
4/17/2022 11:00:00 AM 7.54 45.572 0.088 7.62 4.68 12.51
4/17/2022 11:15:00 AM 7.67 45.806 0.088 7.69 4.53 12.52
4/17/2022 11:30:00 AM 7.74 45.932 0.088 7.68 4.47 12.54
4/17/2022 11:45:00 AM 7.82 46.076 0.088 7.72 4.4 12.55
4/17/2022 12:00:00 PM 7.83 46.094 0.088 7.69 4.36 12.55
4/17/2022 12:15:00 PM 7.98 46.364 0.087 7.74 4.67 12.54
4/17/2022 12:30:00 PM 7.99 46.382 0.087 7.75 4.47 12.55
4/17/2022 12:45:00 PM 8.03 46.454 0.087 7.76 4.35 12.56
4/17/2022 1:00:00 PM 8.13 46.634 0.087 7.77 4.41 12.57
4/17/2022 1:15:00 PM 8.31 46.958 0.087 7.7 4.41 12.55
4/17/2022 1:30:00 PM 8.62 47.516 0.087 7.79 4.37 12.53
4/17/2022 1:45:00 PM 8.81 47.858 0.087 7.78 4.6 12.5
4/17/2022 2:00:00 PM 8.99 48.182 0.087 7.81 4.43 12.46
4/17/2022 2:15:00 PM 9.36 48.848 0.087 7.82 4.26 12.43
4/17/2022 2:30:00 PM 9.45 49.01 0.087 7.81 4.26 12.37
4/17/2022 2:45:00 PM 9.44 48.992 0.087 7.82 4.36 12.33
4/17/2022 3:00:00 PM 9.7 49.46 0.087 7.78 4.27 12.28
4/17/2022 3:15:00 PM 10 50 0.087 7.83 4.48 12.2
4/17/2022 3:30:00 PM 10.3 50.54 0.087 7.82 4.64 12.16
4/17/2022 3:45:00 PM 10.41 50.738 0.087 7.76 4.37 12.1
4/17/2022 4:00:00 PM 10.48 50.864 0.087 7.81 4.46 12.03
4/17/2022 4:15:00 PM 10.43 50.774 0.087 7.8 4.83 11.97
4/17/2022 4:30:00 PM 10.3 50.54 0.087 7.78 4.51 11.91
4/17/2022 4:45:00 PM 10.22 50.396 0.087 7.77 4.46 11.87
4/17/2022 5:00:00 PM 10.18 50.324 0.087 7.76 4.29 11.86
4/17/2022 5:15:00 PM 10.15 50.27 0.087 7.69 4.4 11.84
4/17/2022 5:30:00 PM 10.09 50.162 0.087 7.75 4.42 11.84
4/17/2022 5:45:00 PM 10.09 50.162 0.087 7.75 4.3 11.81
4/17/2022 6:00:00 PM 10.13 50.234 0.087 7.72 4.81 11.78
4/17/2022 6:15:00 PM 10.19 50.342 0.087 7.67 4.6 11.72
4/17/2022 6:30:00 PM 10.21 50.378 0.087 7.72 4.66 11.66
4/17/2022 6:45:00 PM 10.22 50.396 0.087 7.7 4.56 11.59
4/17/2022 7:00:00 PM 10.24 50.432 0.087 7.68 4.51 11.52
4/17/2022 7:15:00 PM 10.23 50.414 0.087 7.65 4.66 11.44
4/17/2022 7:30:00 PM 10.17 50.306 0.087 7.53 4.75 11.37
4/17/2022 7:45:00 PM 10.08 50.144 0.087 7.59 4.93 11.29
4/17/2022 8:00:00 PM 9.97 49.946 0.087 7.57 4.55 11.24
4/17/2022 8:15:00 PM 9.82 49.676 0.087 7.52 4.78 11.21
4/17/2022 8:30:00 PM 9.66 49.388 0.088 7.52 4.89 11.18
4/17/2022 8:45:00 PM 9.5 49.1 0.088 7.49 5.36 11.16
4/17/2022 9:00:00 PM 9.34 48.812 0.088 7.47 4.88 11.14
4/17/2022 9:15:00 PM 9.18 48.524 0.088 7.41 4.91 11.14
4/17/2022 9:30:00 PM 9.03 48.254 0.088 7.43 5.09 11.14
4/17/2022 9:45:00 PM 8.9 48.02 0.088 7.37 5.01 11.15
4/17/2022 10:00:00 PM 8.77 47.786 0.088 7.36 4.83 11.16
4/17/2022 10:15:00 PM 8.64 47.552 0.088 7.41 5.61 11.17
4/17/2022 10:30:00 PM 8.53 47.354 0.088 7.35 5.09 11.19
4/17/2022 10:45:00 PM 8.41 47.138 0.089 7.33 5.38 11.21
4/17/2022 11:00:00 PM 8.29 46.922 0.089 7.39 5.13 11.23
4/17/2022 11:15:00 PM 8.17 46.706 0.089 7.39 4.98 11.26
4/17/2022 11:30:00 PM 8.05 46.49 0.089 7.28 5.07 11.29
4/17/2022 11:45:00 PM 7.94 46.292 0.089 7.38 5.14 11.32
4/18/2022 12:00:00 AM 7.83 46.094 0.089 7.35 5.15 11.35
4/18/2022 12:15:00 AM 7.73 45.914 0.089 7.38 4.98 11.38
4/18/2022 12:30:00 AM 7.63 45.734 0.089 7.38 5.06 11.4
4/18/2022 12:45:00 AM 7.54 45.572 0.089 7.36 5.35 11.43
4/18/2022 1:00:00 AM 7.45 45.41 0.089 7.37 4.97 11.46
4/18/2022 1:15:00 AM 7.36 45.248 0.089 7.35 4.76 11.48
4/18/2022 1:30:00 AM 7.26 45.068 0.089 7.37 5.02 11.51
4/18/2022 1:45:00 AM 7.17 44.906 0.089 7.37 5.44 11.54
4/18/2022 2:00:00 AM 7.07 44.726 0.089 7.28 4.97 11.57
4/18/2022 2:15:00 AM 6.96 44.528 0.089 7.37 5.14 11.6
4/18/2022 2:30:00 AM 6.88 44.384 0.089 7.34 5.04 11.63
4/18/2022 2:45:00 AM 6.78 44.204 0.089 7.37 4.96 11.67
4/18/2022 3:00:00 AM 6.68 44.024 0.089 7.36 5.04 11.7
4/18/2022 3:15:00 AM 6.58 43.844 0.089 7.36 4.84 11.73
4/18/2022 3:30:00 AM 6.49 43.682 0.089 7.36 4.94 11.76
4/18/2022 3:45:00 AM 6.39 43.502 0.089 7.36 5.34 11.79
4/18/2022 4:00:00 AM 6.3 43.34 0.089 7.36 4.78 11.83
4/18/2022 4:15:00 AM 6.21 43.178 0.089 7.36 4.84 11.86
4/18/2022 4:30:00 AM 6.12 43.016 0.089 7.36 4.9 11.89
4/18/2022 4:45:00 AM 6.02 42.836 0.089 7.36 4.86 11.92
4/18/2022 5:00:00 AM 5.94 42.692 0.089 7.36 4.85 11.95
4/18/2022 5:15:00 AM 5.85 42.53 0.089 7.36 4.85 11.98
4/18/2022 5:30:00 AM 5.76 42.368 0.089 7.36 4.89 12.01
4/18/2022 5:45:00 AM 5.67 42.206 0.089 7.25 4.87 12.04
4/18/2022 6:00:00 AM 5.59 42.062 0.089 7.37 4.93 12.07
4/18/2022 6:15:00 AM 5.5 41.9 0.089 7.34 4.76 12.1
4/18/2022 6:30:00 AM 5.42 41.756 0.089 7.37 4.99 12.13
4/18/2022 6:45:00 AM 5.34 41.612 0.09 7.37 4.89 12.18
4/18/2022 7:00:00 AM 5.28 41.504 0.089 7.36 4.81 12.24
4/18/2022 7:15:00 AM 5.23 41.414 0.089 7.38 4.79 12.3
4/18/2022 7:30:00 AM 5.18 41.324 0.089 7.38 4.58 12.37
4/18/2022 7:45:00 AM 5.15 41.27 0.089 7.41 4.84 12.45
4/18/2022 8:00:00 AM 5.13 41.234 0.089 7.41 4.74 12.54
4/18/2022 8:15:00 AM 5.11 41.198 0.089 7.43 4.67 12.61
4/18/2022 8:30:00 AM 5.1 41.18 0.089 7.45 4.65 12.68
4/18/2022 8:45:00 AM 5.1 41.18 0.089 7.46 4.66 12.74
4/18/2022 9:00:00 AM 5.12 41.216 0.089 7.48 4.63 12.81
4/18/2022 9:15:00 AM 5.13 41.234 0.089 7.5 4.6 12.87
4/18/2022 9:30:00 AM 5.16 41.288 0.089 7.51 4.58 12.91
4/18/2022 9:45:00 AM 5.21 41.378 0.089 7.52 4.48 12.96
4/18/2022 10:00:00 AM 5.27 41.486 0.089 7.54 4.61 13
4/18/2022 10:15:00 AM 5.36 41.648 0.089 7.5 4.39 13.03
4/18/2022 10:30:00 AM 5.41 41.738 0.089 7.56 4.56 13.05
4/18/2022 10:45:00 AM 5.42 41.756 0.089 7.53 4.36 13.07
4/18/2022 11:00:00 AM 5.45 41.81 0.089 7.59 4.94 13.07
4/18/2022 11:15:00 AM 5.49 41.882 0.089 7.6 4.47 13.07
4/18/2022 11:30:00 AM 5.55 41.99 0.089 7.6 4.38 13.07
4/18/2022 11:45:00 AM 5.59 42.062 0.089 7.62 4.38 13.08
4/18/2022 12:00:00 PM 5.62 42.116 0.089 7.61 4.44 13.07
4/18/2022 12:15:00 PM 5.66 42.188 0.089 7.62 4.39 13.07
4/18/2022 12:30:00 PM 5.69 42.242 0.089 7.63 4.38 13.06
4/18/2022 12:45:00 PM 5.69 42.242 0.088 7.63 4.38 13.05
4/18/2022 1:00:00 PM 5.7 42.26 0.089 7.63 4.29 13.03
4/18/2022 1:15:00 PM 5.69 42.242 0.089 7.64 4.32 13.02
4/18/2022 1:30:00 PM 5.67 42.206 0.088 7.64 4.41 13
4/18/2022 1:45:00 PM 5.67 42.206 0.088 7.64 4.29 12.98
4/18/2022 2:00:00 PM 5.66 42.188 0.088 7.61 4.59 12.97
4/18/2022 2:15:00 PM 5.65 42.17 0.088 7.63 4.27 12.95
4/18/2022 2:30:00 PM 5.63 42.134 0.088 7.53 4.26 12.93
4/18/2022 2:45:00 PM 5.61 42.098 0.088 7.63 4.22 12.91
4/18/2022 3:00:00 PM 5.59 42.062 0.088 7.57 4.28 12.88
4/18/2022 3:15:00 PM 5.56 42.008 0.088 7.55 4.26 12.86
4/18/2022 3:30:00 PM 5.53 41.954 0.088 7.6 4.23 12.86
4/18/2022 3:45:00 PM 5.52 41.936 0.088 7.6 4.24 12.86
4/18/2022 4:00:00 PM 5.52 41.936 0.088 7.58 4.19 12.84
4/18/2022 4:15:00 PM 5.5 41.9 0.088 7.59 4.2 12.82
4/18/2022 4:30:00 PM 5.48 41.864 0.088 7.59 4.25 12.8
4/18/2022 4:45:00 PM 5.46 41.828 0.088 7.57 4.21 12.78
4/18/2022 5:00:00 PM 5.45 41.81 0.088 7.57 4.3 12.78
4/18/2022 5:15:00 PM 5.43 41.774 0.088 7.49 4.26 12.77
4/18/2022 5:30:00 PM 5.41 41.738 0.088 7.57 4.38 12.75
4/18/2022 5:45:00 PM 5.39 41.702 0.089 7.55 4.3 12.72
4/18/2022 6:00:00 PM 5.37 41.666 0.088 7.55 4.31 12.69
4/18/2022 6:15:00 PM 5.35 41.63 0.089 7.52 4.48 12.66
4/18/2022 6:30:00 PM 5.32 41.576 0.089 7.53 4.37 12.63
4/18/2022 6:45:00 PM 5.29 41.522 0.089 7.51 4.37 12.6
4/18/2022 7:00:00 PM 5.24 41.432 0.089 7.45 4.58 12.57
4/18/2022 7:15:00 PM 5.2 41.36 0.089 7.49 4.47 12.55
4/18/2022 7:30:00 PM 5.16 41.288 0.089 7.49 4.56 12.53
4/18/2022 7:45:00 PM 5.1 41.18 0.089 7.48 4.74 12.5
4/18/2022 8:00:00 PM 5.04 41.072 0.089 7.47 4.63 12.48
4/18/2022 8:15:00 PM 4.96 40.928 0.089 7.45 4.9 12.47
4/18/2022 8:30:00 PM 4.89 40.802 0.089 7.46 5.04 12.46
4/18/2022 8:45:00 PM 4.8 40.64 0.089 7.45 4.91 12.45
4/18/2022 9:00:00 PM 4.72 40.496 0.09 7.44 4.93 12.45
4/18/2022 9:15:00 PM 4.65 40.37 0.09 7.44 5.01 12.45
4/18/2022 9:30:00 PM 4.58 40.244 0.091 7.4 5.03 12.45
4/18/2022 9:45:00 PM 4.51 40.118 0.092 7.43 5.41 12.45
4/18/2022 10:00:00 PM 4.41 39.938 0.094 7.42 5.45 12.47
4/18/2022 10:15:00 PM 4.34 39.812 0.096 7.36 5.62 12.48
4/18/2022 10:30:00 PM 4.28 39.704 0.097 7.43 5.6 12.49
4/18/2022 10:45:00 PM 4.24 39.632 0.097 7.37 5.85 12.5
4/18/2022 11:00:00 PM 4.19 39.542 0.097 7.42 5.76 12.51
4/18/2022 11:15:00 PM 4.15 39.47 0.097 7.42 5.62 12.53
4/18/2022 11:30:00 PM 4.12 39.416 0.097 7.42 5.74 12.54
4/18/2022 11:45:00 PM 4.09 39.362 0.098 7.41 5.75 12.55
4/19/2022 12:00:00 AM 4.07 39.326 0.098 7.41 5.57 12.57
4/19/2022 12:15:00 AM 4.05 39.29 0.098 7.41 5.64 12.57
4/19/2022 12:30:00 AM 4.02 39.236 0.099 7.41 5.71 12.58
4/19/2022 12:45:00 AM 4 39.2 0.099 7.41 5.44 12.59
4/19/2022 1:00:00 AM 3.99 39.182 0.098 7.41 5.57 12.6
4/19/2022 1:15:00 AM 3.98 39.164 0.098 7.41 6 12.61
4/19/2022 1:30:00 AM 3.96 39.128 0.098 7.4 5.57 12.62
4/19/2022 1:45:00 AM 3.91 39.038 0.098 7.35 5.58 12.62
4/19/2022 2:00:00 AM 3.89 39.002 0.098 7.41 5.62 12.63
4/19/2022 2:15:00 AM 3.88 38.984 0.098 7.39 5.74 12.63
4/19/2022 2:30:00 AM 3.87 38.966 0.098 7.33 5.64 12.63
4/19/2022 2:45:00 AM 3.86 38.948 0.098 7.38 5.5 12.64
4/19/2022 3:00:00 AM 3.86 38.948 0.098 7.4 5.63 12.64
4/19/2022 3:15:00 AM 3.85 38.93 0.098 7.37 5.46 12.64
4/19/2022 3:30:00 AM 3.84 38.912 0.098 7.41 5.44 12.65
4/19/2022 3:45:00 AM 3.84 38.912 0.098 7.39 5.39 12.65
4/19/2022 4:00:00 AM 3.85 38.93 0.098 7.4 5.55 12.64
4/19/2022 4:15:00 AM 3.85 38.93 0.098 7.38 5.29 12.65
4/19/2022 4:30:00 AM 3.85 38.93 0.098 7.41 5.6 12.65
4/19/2022 4:45:00 AM 3.85 38.93 0.099 7.41 5.29 12.64
4/19/2022 5:00:00 AM 3.85 38.93 0.098 7.38 5.14 12.64
4/19/2022 5:15:00 AM 3.84 38.912 0.099 7.41 5.33 12.64
4/19/2022 5:30:00 AM 3.83 38.894 0.099 7.41 5.31 12.64
4/19/2022 5:45:00 AM 3.82 38.876 0.099 7.34 5.52 12.64
4/19/2022 6:00:00 AM 3.81 38.858 0.1 7.42 5.75 12.64
4/19/2022 6:15:00 AM 3.79 38.822 0.101 7.41 5.07 12.65
4/19/2022 6:30:00 AM 3.77 38.786 0.101 7.39 5.16 12.65
4/19/2022 6:45:00 AM 3.75 38.75 0.101 7.35 5.03 12.66
4/19/2022 7:00:00 AM 3.74 38.732 0.101 7.42 5.28 12.68
4/19/2022 7:15:00 AM 3.75 38.75 0.101 7.43 5.04 12.72
4/19/2022 7:30:00 AM 3.77 38.786 0.101 7.44 4.98 12.76
4/19/2022 7:45:00 AM 3.8 38.84 0.101 7.37 5.13 12.81
4/19/2022 8:00:00 AM 3.82 38.876 0.101 7.47 5.2 12.85
4/19/2022 8:15:00 AM 3.86 38.948 0.101 7.45 4.96 12.9
4/19/2022 8:30:00 AM 3.91 39.038 0.101 7.49 5.05 12.95
4/19/2022 8:45:00 AM 3.98 39.164 0.101 7.43 4.91 13
4/19/2022 9:00:00 AM 4.05 39.29 0.101 7.52 4.85 13.05
4/19/2022 9:15:00 AM 4.16 39.488 0.101 7.5 4.89 13.08
4/19/2022 9:30:00 AM 4.28 39.704 0.101 7.55 4.94 13.11
4/19/2022 9:45:00 AM 4.43 39.974 0.101 7.56 4.69 13.13
4/19/2022 10:00:00 AM 4.61 40.298 0.102 7.57 4.89 13.14
4/19/2022 10:15:00 AM 4.78 40.604 0.102 7.58 5.01 13.14
4/19/2022 10:30:00 AM 4.87 40.766 0.102 7.61 5 13.15
4/19/2022 10:45:00 AM 5.1 41.18 0.103 7.62 5.1 13.13
4/19/2022 11:00:00 AM 5.17 41.306 0.104 7.59 5.26 13.11
4/19/2022 11:15:00 AM 5.35 41.63 0.105 7.66 5.39 13.11
4/19/2022 11:30:00 AM 5.74 42.332 0.106 7.62 5.47 13.06
4/19/2022 11:45:00 AM 5.95 42.71 0.106 7.68 5.9 13.03
4/19/2022 12:00:00 PM 5.96 42.728 0.106 7.69 5.7 12.99
4/19/2022 12:15:00 PM 6.07 42.926 0.106 7.63 6.13 12.95
4/19/2022 12:30:00 PM 6.28 43.304 0.105 7.7 5.53 12.91
4/19/2022 12:45:00 PM 6.52 43.736 0.105 7.65 5.73 12.85
4/19/2022 1:00:00 PM 6.87 44.366 0.105 7.71 5.46 12.82
4/19/2022 1:15:00 PM 7.01 44.618 0.104 7.72 5.66 12.76
4/19/2022 1:30:00 PM 7.12 44.816 0.104 7.69 5.65 12.72
4/19/2022 1:45:00 PM 7.43 45.374 0.104 7.67 5.68 12.68
4/19/2022 2:00:00 PM 7.56 45.608 0.104 7.74 5.75 12.63
4/19/2022 2:15:00 PM 7.74 45.932 0.104 7.75 5.93 12.59
4/19/2022 2:30:00 PM 7.77 45.986 0.104 7.72 5.53 12.52
4/19/2022 2:45:00 PM 8.01 46.418 0.104 7.71 5.83 12.51
4/19/2022 3:00:00 PM 8.11 46.598 0.103 7.77 5.49 12.48
4/19/2022 3:15:00 PM 7.97 46.346 0.103 7.76 5.39 12.42
4/19/2022 3:30:00 PM 8.04 46.472 0.103 7.69 5.6 12.39
4/19/2022 3:45:00 PM 8.18 46.724 0.103 7.77 5.58 12.37
4/19/2022 4:00:00 PM 8.28 46.904 0.102 7.76 5.7 12.33
4/19/2022 4:15:00 PM 8.35 47.03 0.102 7.77 5.88 12.32
4/19/2022 4:30:00 PM 8.37 47.066 0.102 7.74 5.53 12.28
4/19/2022 4:45:00 PM 8.45 47.21 0.102 7.77 5.56 12.24
4/19/2022 5:00:00 PM 8.44 47.192 0.102 7.76 5.51 12.18
4/19/2022 5:15:00 PM 8.45 47.21 0.102 7.76 5.69 12.15
4/19/2022 5:30:00 PM 8.45 47.21 0.102 7.68 5.4 12.11
4/19/2022 5:45:00 PM 8.44 47.192 0.102 7.74 5.48 12.08
4/19/2022 6:00:00 PM 8.4 47.12 0.102 7.72 7.6 12.03
4/19/2022 6:15:00 PM 8.32 46.976 0.102 7.71 5.84 12.01
4/19/2022 6:30:00 PM 8.24 46.832 0.102 7.66 5.48 11.98
4/19/2022 6:45:00 PM 8.15 46.67 0.102 7.69 5.62 11.96
4/19/2022 7:00:00 PM 8.07 46.526 0.102 7.65 5.8 11.93
4/19/2022 7:15:00 PM 7.97 46.346 0.102 7.66 5.61 11.89
4/19/2022 7:30:00 PM 7.9 46.22 0.102 7.64 5.8 11.85
4/19/2022 7:45:00 PM 7.83 46.094 0.102 7.62 5.67 11.8
4/19/2022 8:00:00 PM 7.76 45.968 0.102 7.59 5.78 11.76
4/19/2022 8:15:00 PM 7.68 45.824 0.102 7.58 5.55 11.71
4/19/2022 8:30:00 PM 7.58 45.644 0.102 7.56 5.84 11.7
4/19/2022 8:45:00 PM 7.48 45.464 0.102 7.48 5.92 11.66
4/19/2022 9:00:00 PM 7.39 45.302 0.102 7.54 6.03 11.66
4/19/2022 9:15:00 PM 7.31 45.158 0.102 7.51 5.78 11.64
4/19/2022 9:30:00 PM 7.24 45.032 0.102 7.51 6.71 11.63
4/19/2022 9:45:00 PM 7.17 44.906 0.102 7.45 5.94 11.63
4/19/2022 10:00:00 PM 7.09 44.762 0.102 7.49 6.04 11.63
4/19/2022 10:15:00 PM 7.02 44.636 0.101 7.4 5.95 11.63
4/19/2022 10:30:00 PM 6.96 44.528 0.101 7.42 5.69 11.64
4/19/2022 10:45:00 PM 6.88 44.384 0.101 7.47 7.9 11.65
4/19/2022 11:00:00 PM 6.82 44.276 0.101 7.46 5.84 11.66
4/19/2022 11:15:00 PM 6.75 44.15 0.101 7.44 5.62 11.68
4/19/2022 11:30:00 PM 6.68 44.024 0.101 7.46 5.68 11.7
4/19/2022 11:45:00 PM 6.62 43.916 0.101 7.45 5.52 11.73
4/20/2022 12:00:00 AM 6.57 43.826 0.101 7.43 6.3 11.75
4/20/2022 12:15:00 AM 6.52 43.736 0.101 7.43 5.78 11.77
4/20/2022 12:30:00 AM 6.48 43.664 0.101 7.44 5.65 11.78
4/20/2022 12:45:00 AM 6.43 43.574 0.101 7.43 5.64 11.8
4/20/2022 1:00:00 AM 6.37 43.466 0.101 7.44 5.86 11.82
4/20/2022 1:15:00 AM 6.31 43.358 0.101 7.43 5.53 11.84
4/20/2022 1:30:00 AM 6.24 43.232 0.101 7.4 5.43 11.87
4/20/2022 1:45:00 AM 6.17 43.106 0.101 7.44 5.63 11.88
4/20/2022 2:00:00 AM 6.11 42.998 0.101 7.43 5.6 11.9
4/20/2022 2:15:00 AM 6.04 42.872 0.101 7.43 5.83 11.93
4/20/2022 2:30:00 AM 5.97 42.746 0.102 7.4 5.73 11.96
4/20/2022 2:45:00 AM 5.91 42.638 0.102 7.43 5.35 11.98
4/20/2022 3:00:00 AM 5.85 42.53 0.102 7.37 5.66 12
4/20/2022 3:15:00 AM 5.79 42.422 0.102 7.41 5.53 12.02
4/20/2022 3:30:00 AM 5.74 42.332 0.102 7.39 5.59 12.04
4/20/2022 3:45:00 AM 5.68 42.224 0.103 7.43 5.56 12.06
4/20/2022 4:00:00 AM 5.63 42.134 0.103 7.43 5.54 12.08
4/20/2022 4:15:00 AM 5.58 42.044 0.103 7.42 5.78 12.11
4/20/2022 4:30:00 AM 5.53 41.954 0.103 7.43 5.52 12.13
4/20/2022 4:45:00 AM 5.48 41.864 0.103 7.42 5.74 12.14
4/20/2022 5:00:00 AM 5.42 41.756 0.104 7.42 5.47 12.16
4/20/2022 5:15:00 AM 5.37 41.666 0.104 7.43 5.38 12.18
4/20/2022 5:30:00 AM 5.32 41.576 0.104 7.43 5.27 12.21
4/20/2022 5:45:00 AM 5.26 41.468 0.104 7.43 5.37 12.23
4/20/2022 6:00:00 AM 5.19 41.342 0.104 7.38 5.25 12.25
4/20/2022 6:15:00 AM 5.13 41.234 0.104 7.42 5.46 12.27
4/20/2022 6:30:00 AM 5.06 41.108 0.104 7.43 5.16 12.3
4/20/2022 6:45:00 AM 5 41 0.104 7.43 5.18 12.34
4/20/2022 7:00:00 AM 4.93 40.874 0.104 7.43 5.08 12.39
4/20/2022 7:15:00 AM 4.88 40.784 0.104 7.43 5.04 12.44
4/20/2022 7:30:00 AM 4.85 40.73 0.104 7.45 4.96 12.49
4/20/2022 7:45:00 AM 4.82 40.676 0.104 7.38 5.14 12.56
4/20/2022 8:00:00 AM 4.82 40.676 0.103 7.47 4.87 12.63
4/20/2022 8:15:00 AM 4.83 40.694 0.103 7.48 5.17 12.7
4/20/2022 8:30:00 AM 4.85 40.73 0.103 7.43 4.99 12.76
4/20/2022 8:45:00 AM 4.9 40.82 0.103 7.51 5.09 12.82
4/20/2022 9:00:00 AM 4.96 40.928 0.103 7.52 4.76 12.88
4/20/2022 9:15:00 AM 5.06 41.108 0.102 7.53 4.88 12.93
4/20/2022 9:30:00 AM 5.18 41.324 0.102 7.55 4.69 12.97
4/20/2022 9:45:00 AM 5.34 41.612 0.102 7.56 4.91 13.01
4/20/2022 10:00:00 AM 5.52 41.936 0.102 7.58 4.68 13.03
4/20/2022 10:15:00 AM 5.73 42.314 0.101 7.59 4.77 13.03
4/20/2022 10:30:00 AM 5.96 42.728 0.101 7.59 4.77 13.04
4/20/2022 10:45:00 AM 6.21 43.178 0.101 7.62 4.73 13.03
4/20/2022 11:00:00 AM 6.48 43.664 0.101 7.64 4.72 13.01
4/20/2022 11:15:00 AM 6.77 44.186 0.101 7.64 4.73 12.98
4/20/2022 11:30:00 AM 7.07 44.726 0.101 7.66 4.71 12.94
4/20/2022 11:45:00 AM 7.37 45.266 0.1 7.66 4.78 12.89
4/20/2022 12:00:00 PM 7.69 45.842 0.1 7.68 4.83 12.85
4/20/2022 12:15:00 PM 7.97 46.346 0.1 7.69 4.89 12.79
4/20/2022 12:30:00 PM 8.3 46.94 0.1 7.69 4.71 12.74
4/20/2022 12:45:00 PM 8.6 47.48 0.1 7.71 4.85 12.68
4/20/2022 1:00:00 PM 8.89 48.002 0.1 7.71 4.55 12.61
4/20/2022 1:15:00 PM 9.14 48.452 0.099 7.74 4.62 12.56
4/20/2022 1:30:00 PM 9.38 48.884 0.1 7.73 4.65 12.51
4/20/2022 1:45:00 PM 9.64 49.352 0.1 7.75 4.65 12.44
4/20/2022 2:00:00 PM 9.89 49.802 0.099 7.72 4.76 12.38
4/20/2022 2:15:00 PM 10.11 50.198 0.099 7.76 4.61 12.31
4/20/2022 2:30:00 PM 10.31 50.558 0.099 7.7 4.61 12.26
4/20/2022 2:45:00 PM 10.49 50.882 0.1 7.77 4.73 12.2
4/20/2022 3:00:00 PM 10.66 51.188 0.099 7.77 4.71 12.15
4/20/2022 3:15:00 PM 10.8 51.44 0.1 7.77 4.56 12.09
4/20/2022 3:30:00 PM 10.92 51.656 0.1 7.78 4.69 12.04
4/20/2022 3:45:00 PM 11.03 51.854 0.1 7.72 4.49 11.98
4/20/2022 4:00:00 PM 11.12 52.016 0.1 7.76 4.9 11.93
4/20/2022 4:15:00 PM 11.19 52.142 0.101 7.78 4.67 11.88
4/20/2022 4:30:00 PM 11.24 52.232 0.101 7.77 4.74 11.82
4/20/2022 4:45:00 PM 11.26 52.268 0.101 7.76 4.83 11.77
4/20/2022 5:00:00 PM 11.27 52.286 0.101 7.72 4.77 11.72
4/20/2022 5:15:00 PM 11.28 52.304 0.101 7.76 4.86 11.67
4/20/2022 5:30:00 PM 11.27 52.286 0.101 7.72 4.84 11.62
4/20/2022 5:45:00 PM 11.25 52.25 0.101 7.67 4.9 11.56
4/20/2022 6:00:00 PM 11.23 52.214 0.101 7.73 4.98 11.51
4/20/2022 6:15:00 PM 11.19 52.142 0.101 7.71 4.86 11.45
4/20/2022 6:30:00 PM 11.13 52.034 0.101 7.62 4.9 11.4
4/20/2022 6:45:00 PM 11.08 51.944 0.1 7.69 4.86 11.34
4/20/2022 7:00:00 PM 11.02 51.836 0.1 7.61 4.76 11.29
4/20/2022 7:15:00 PM 10.95 51.71 0.1 7.64 4.72 11.22
4/20/2022 7:30:00 PM 10.88 51.584 0.1 7.57 4.85 11.17
4/20/2022 7:45:00 PM 10.8 51.44 0.1 7.59 4.65 11.11
4/20/2022 8:00:00 PM 10.72 51.296 0.1 7.58 4.49 11.05
4/20/2022 8:15:00 PM 10.64 51.152 0.099 7.55 4.84 11
4/20/2022 8:30:00 PM 10.56 51.008 0.099 7.51 4.86 10.94
4/20/2022 8:45:00 PM 10.46 50.828 0.099 7.46 4.99 10.91
4/20/2022 9:00:00 PM 10.37 50.666 0.099 7.43 4.72 10.87
4/20/2022 9:15:00 PM 10.28 50.504 0.099 7.48 4.92 10.84
4/20/2022 9:30:00 PM 10.19 50.342 0.099 7.46 4.94 10.83
4/20/2022 9:45:00 PM 10.09 50.162 0.099 7.45 5.07 10.81
4/20/2022 10:00:00 PM 10 50 0.099 7.44 4.94 10.81
4/20/2022 10:15:00 PM 9.89 49.802 0.099 7.43 4.83 10.83
4/20/2022 10:30:00 PM 9.8 49.64 0.099 7.43 5 10.83
4/20/2022 10:45:00 PM 9.7 49.46 0.099 7.42 5.1 10.84
4/20/2022 11:00:00 PM 9.61 49.298 0.099 7.42 4.96 10.86
4/20/2022 11:15:00 PM 9.53 49.154 0.099 7.42 6.29 10.87
4/20/2022 11:30:00 PM 9.44 48.992 0.099 7.41 5.14 10.89
4/20/2022 11:45:00 PM 9.34 48.812 0.099 7.33 5.72 10.92
4/21/2022 12:00:00 AM 9.27 48.686 0.099 7.41 5.07 10.94
4/21/2022 12:15:00 AM 9.19 48.542 0.099 7.29 5.12 10.96
4/21/2022 12:30:00 AM 9.13 48.434 0.099 7.41 4.99 10.98
4/21/2022 12:45:00 AM 9.06 48.308 0.099 7.33 5.24 11
4/21/2022 1:00:00 AM 8.98 48.164 0.099 7.41 4.8 11.03
4/21/2022 1:15:00 AM 8.9 48.02 0.099 7.4 4.88 11.04
4/21/2022 1:30:00 AM 8.82 47.876 0.099 7.38 5.05 11.07
4/21/2022 1:45:00 AM 8.75 47.75 0.099 7.4 4.79 11.09
4/21/2022 2:00:00 AM 8.66 47.588 0.099 7.4 4.8 11.11
4/21/2022 2:15:00 AM 8.57 47.426 0.099 7.39 4.89 11.13
4/21/2022 2:30:00 AM 8.48 47.264 0.099 7.4 4.93 11.16
4/21/2022 2:45:00 AM 8.4 47.12 0.099 7.39 4.71 11.18
4/21/2022 3:00:00 AM 8.32 46.976 0.099 7.39 4.78 11.2
4/21/2022 3:15:00 AM 8.25 46.85 0.099 7.4 4.85 11.23
4/21/2022 3:30:00 AM 8.18 46.724 0.099 7.4 4.92 11.26
4/21/2022 3:45:00 AM 8.1 46.58 0.099 7.39 4.75 11.28
4/21/2022 4:00:00 AM 8.04 46.472 0.099 7.31 4.84 11.3
4/21/2022 4:15:00 AM 7.97 46.346 0.099 7.4 4.9 11.32
4/21/2022 4:30:00 AM 7.91 46.238 0.099 7.39 4.72 11.34
4/21/2022 4:45:00 AM 7.85 46.13 0.099 7.39 4.58 11.36
4/21/2022 5:00:00 AM 7.8 46.04 0.099 7.4 4.82 11.38
4/21/2022 5:15:00 AM 7.75 45.95 0.099 7.39 4.68 11.41
4/21/2022 5:30:00 AM 7.68 45.824 0.099 7.4 4.73 11.42
4/21/2022 5:45:00 AM 7.62 45.716 0.099 7.33 4.74 11.44
4/21/2022 6:00:00 AM 7.56 45.608 0.099 7.39 4.81 11.46
4/21/2022 6:15:00 AM 7.5 45.5 0.099 7.4 4.6 11.47
4/21/2022 6:30:00 AM 7.44 45.392 0.099 7.4 4.74 11.5
4/21/2022 6:45:00 AM 7.38 45.284 0.099 7.38 4.93 11.53
4/21/2022 7:00:00 AM 7.33 45.194 0.099 7.4 4.54 11.57
4/21/2022 7:15:00 AM 7.3 45.14 0.099 7.34 4.65 11.63
4/21/2022 7:30:00 AM 7.27 45.086 0.099 7.4 4.54 11.69
4/21/2022 7:45:00 AM 7.25 45.05 0.099 7.43 4.5 11.74
4/21/2022 8:00:00 AM 7.24 45.032 0.099 7.44 4.57 11.79
4/21/2022 8:15:00 AM 7.26 45.068 0.099 7.46 4.41 11.87
4/21/2022 8:30:00 AM 7.29 45.122 0.098 7.47 4.37 11.94
4/21/2022 8:45:00 AM 7.29 45.122 0.098 7.48 4.46 11.99
4/21/2022 9:00:00 AM 7.3 45.14 0.098 7.41 4.42 12.02
4/21/2022 9:15:00 AM 7.35 45.23 0.098 7.51 4.38 12.07
4/21/2022 9:30:00 AM 7.43 45.374 0.098 7.46 4.3 12.14
4/21/2022 9:45:00 AM 7.5 45.5 0.098 7.55 4.27 12.2
4/21/2022 10:00:00 AM 7.58 45.644 0.098 7.57 4.43 12.25
4/21/2022 10:15:00 AM 7.63 45.734 0.098 7.59 4.38 12.28
4/21/2022 10:30:00 AM 7.68 45.824 0.098 7.59 4.26 12.3
4/21/2022 10:45:00 AM 7.75 45.95 0.098 7.62 4.36 12.32
4/21/2022 11:00:00 AM 7.79 46.022 0.097 7.63 4.4 12.34
4/21/2022 11:15:00 AM 7.83 46.094 0.097 7.62 4.29 12.33
4/21/2022 11:30:00 AM 7.87 46.166 0.097 7.64 4.43 12.33
4/21/2022 11:45:00 AM 7.89 46.202 0.097 7.64 4.19 12.3
4/21/2022 12:00:00 PM 7.93 46.274 0.097 7.64 4.31 12.28
4/21/2022 12:15:00 PM 7.97 46.346 0.097 7.65 4.21 12.28
4/21/2022 12:30:00 PM 8 46.4 0.097 7.65 4.44 12.27
4/21/2022 12:45:00 PM 8.02 46.436 0.097 7.65 4.33 12.24
4/21/2022 1:00:00 PM 8.03 46.454 0.097 7.56 4.38 12.21
4/21/2022 1:15:00 PM 8.04 46.472 0.097 7.64 4.4 12.17
4/21/2022 1:30:00 PM 8.06 46.508 0.097 7.64 4.33 12.16
4/21/2022 1:45:00 PM 8.07 46.526 0.097 7.64 4.26 12.14
4/21/2022 2:00:00 PM 8.08 46.544 0.097 7.62 4.35 12.09
4/21/2022 2:15:00 PM 8.09 46.562 0.097 7.62 4.69 12.07
4/21/2022 2:30:00 PM 8.11 46.598 0.097 7.62 4.4 12.06
4/21/2022 2:45:00 PM 8.12 46.616 0.097 7.62 4.43 12.05
4/21/2022 3:00:00 PM 8.14 46.652 0.097 7.58 4.48 12.05
4/21/2022 3:15:00 PM 8.15 46.67 0.097 7.63 4.54 12.04
4/21/2022 3:30:00 PM 8.18 46.724 0.097 7.54 4.35 12.04
4/21/2022 3:45:00 PM 8.2 46.76 0.097 7.63 4.38 12.04
4/21/2022 4:00:00 PM 8.22 46.796 0.097 7.62 4.48 12.03
4/21/2022 4:15:00 PM 8.25 46.85 0.097 7.63 4.66 12.03
4/21/2022 4:30:00 PM 8.28 46.904 0.097 7.63 4.49 12.04
4/21/2022 4:45:00 PM 8.31 46.958 0.098 7.63 4.24 12.03
4/21/2022 5:00:00 PM 8.33 46.994 0.098 7.64 4.62 12.01
4/21/2022 5:15:00 PM 8.34 47.012 0.098 7.62 4.54 11.98
4/21/2022 5:30:00 PM 8.35 47.03 0.098 7.62 4.62 11.96
4/21/2022 5:45:00 PM 8.37 47.066 0.098 7.61 4.4 11.94
4/21/2022 6:00:00 PM 8.39 47.102 0.098 7.57 4.61 11.93
4/21/2022 6:15:00 PM 8.42 47.156 0.098 7.62 4.52 11.94
4/21/2022 6:30:00 PM 8.43 47.174 0.098 7.61 4.68 11.92
4/21/2022 6:45:00 PM 8.45 47.21 0.099 7.59 4.52 11.9
4/21/2022 7:00:00 PM 8.45 47.21 0.099 7.51 4.65 11.86
4/21/2022 7:15:00 PM 8.46 47.228 0.099 7.59 4.7 11.82
4/21/2022 7:30:00 PM 8.47 47.246 0.099 7.57 4.59 11.78
4/21/2022 7:45:00 PM 8.47 47.246 0.099 7.53 4.75 11.74
4/21/2022 8:00:00 PM 8.44 47.192 0.099 7.54 4.58 11.69
4/21/2022 8:15:00 PM 8.41 47.138 0.099 7.44 4.68 11.64
4/21/2022 8:30:00 PM 8.38 47.084 0.099 7.51 4.83 11.6
4/21/2022 8:45:00 PM 8.34 47.012 0.099 7.5 4.96 11.56
4/21/2022 9:00:00 PM 8.29 46.922 0.099 7.48 4.91 11.53
4/21/2022 9:15:00 PM 8.24 46.832 0.099 7.47 4.73 11.51
4/21/2022 9:30:00 PM 8.18 46.724 0.099 7.44 4.95 11.48
4/21/2022 9:45:00 PM 8.13 46.634 0.099 7.45 4.67 11.47
4/21/2022 10:00:00 PM 8.08 46.544 0.099 7.42 4.87 11.46
4/21/2022 10:15:00 PM 8.03 46.454 0.099 7.44 4.82 11.45
4/21/2022 10:30:00 PM 7.98 46.364 0.099 7.42 4.66 11.45
4/21/2022 10:45:00 PM 7.93 46.274 0.099 7.36 4.89 11.45
4/21/2022 11:00:00 PM 7.89 46.202 0.099 7.42 5.14 11.45
4/21/2022 11:15:00 PM 7.85 46.13 0.099 7.34 4.74 11.45
4/21/2022 11:30:00 PM 7.81 46.058 0.1 7.41 4.87 11.46
4/21/2022 11:45:00 PM 7.78 46.004 0.099 7.41 4.94 11.47
4/22/2022 12:00:00 AM 7.75 45.95 0.1 7.41 4.8 11.48
4/22/2022 12:15:00 AM 7.72 45.896 0.1 7.41 4.81 11.48
4/22/2022 12:30:00 AM 7.69 45.842 0.1 7.41 4.92 11.49
4/22/2022 12:45:00 AM 7.68 45.824 0.1 7.4 4.77 11.5
4/22/2022 1:00:00 AM 7.68 45.824 0.1 7.41 4.62 11.5
4/22/2022 1:15:00 AM 7.65 45.77 0.1 7.33 3.72 11.49
4/22/2022 1:30:00 AM 7.63 45.734 0.1 7.4 3.55 11.51
4/22/2022 1:45:00 AM 7.61 45.698 0.1 7.4 3.4 11.52
4/22/2022 2:00:00 AM 7.59 45.662 0.099 7.38 3.42 11.53
4/22/2022 2:15:00 AM 7.57 45.626 0.1 7.39 3.59 11.53
4/22/2022 2:30:00 AM 7.56 45.608 0.099 7.4 3.4 11.54
4/22/2022 2:45:00 AM 7.53 45.554 0.1 7.39 3.49 11.55
4/22/2022 3:00:00 AM 7.5 45.5 0.099 7.39 3.58 11.55
4/22/2022 3:15:00 AM 7.47 45.446 0.099 7.4 3.52 11.56
4/22/2022 3:30:00 AM 7.44 45.392 0.1 7.39 3.53 11.58
4/22/2022 3:45:00 AM 7.41 45.338 0.099 7.39 3.51 11.58
4/22/2022 4:00:00 AM 7.38 45.284 0.099 7.37 3.35 11.59
4/22/2022 4:15:00 AM 7.34 45.212 0.1 7.39 3.5 11.6
4/22/2022 4:30:00 AM 7.31 45.158 0.1 7.39 3.42 11.61
4/22/2022 4:45:00 AM 7.28 45.104 0.1 7.38 3.6 11.63
4/22/2022 5:00:00 AM 7.25 45.05 0.1 7.39 3.4 11.63
4/22/2022 5:15:00 AM 7.21 44.978 0.1 7.39 3.51 11.65
4/22/2022 5:30:00 AM 7.16 44.888 0.1 7.39 3.39 11.66
4/22/2022 5:45:00 AM 7.12 44.816 0.1 7.39 3.2 11.68
4/22/2022 6:00:00 AM 7.09 44.762 0.1 7.36 3.44 11.69
4/22/2022 6:15:00 AM 7.04 44.672 0.1 7.4 3.28 11.7
4/22/2022 6:30:00 AM 7.01 44.618 0.1 7.4 3.46 11.72
4/22/2022 6:45:00 AM 6.98 44.564 0.1 7.4 3.35 11.74
4/22/2022 7:00:00 AM 6.96 44.528 0.1 7.41 3.46 11.79
4/22/2022 7:15:00 AM 6.94 44.492 0.1 7.41 3.39 11.83
4/22/2022 7:30:00 AM 6.93 44.474 0.1 7.42 3.39 11.88
4/22/2022 7:45:00 AM 6.94 44.492 0.099 7.43 3.29 11.94
4/22/2022 8:00:00 AM 6.96 44.528 0.099 7.45 3.44 12.01
4/22/2022 8:15:00 AM 7.01 44.618 0.099 7.46 3.37 12.07
4/22/2022 8:30:00 AM 7.05 44.69 0.099 7.47 3.21 12.14
4/22/2022 8:45:00 AM 7.1 44.78 0.099 7.49 3.22 12.22
4/22/2022 9:00:00 AM 7.16 44.888 0.099 7.47 3.27 12.29
4/22/2022 9:15:00 AM 7.27 45.086 0.099 7.54 3.2 12.35
4/22/2022 9:30:00 AM 7.42 45.356 0.1 7.57 3.29 12.4
4/22/2022 9:45:00 AM 7.61 45.698 0.1 7.58 3.19 12.44
4/22/2022 10:00:00 AM 7.8 46.04 0.1 7.6 3.18 12.45
4/22/2022 10:15:00 AM 8 46.4 0.1 7.61 3.5 12.47
4/22/2022 10:30:00 AM 8.22 46.796 0.099 7.62 3.19 12.46
4/22/2022 10:45:00 AM 8.48 47.264 0.099 7.6 3.47 12.46
4/22/2022 11:00:00 AM 8.75 47.75 0.098 7.67 3.14 12.44
4/22/2022 11:15:00 AM 9.06 48.308 0.098 7.68 3.31 12.4
4/22/2022 11:30:00 AM 9.38 48.884 0.098 7.69 3.29 12.35
4/22/2022 11:45:00 AM 9.73 49.514 0.098 7.71 3.07 12.3
4/22/2022 12:00:00 PM 10.08 50.144 0.098 7.71 3.24 12.23
4/22/2022 12:15:00 PM 10.44 50.792 0.098 7.68 3.23 12.17
4/22/2022 12:30:00 PM 10.77 51.386 0.098 7.74 3.36 12.11
4/22/2022 12:45:00 PM 11.09 51.962 0.098 7.75 3.16 12.05
4/22/2022 1:00:00 PM 11.42 52.556 0.098 7.76 3.34 11.98
4/22/2022 1:15:00 PM 11.68 53.024 0.098 7.75 3.17 11.92
4/22/2022 1:30:00 PM 11.95 53.51 0.098 7.77 3.29 11.86
4/22/2022 1:45:00 PM 12.23 54.014 0.097 7.8 3.2 11.8
4/22/2022 2:00:00 PM 12.51 54.518 0.097 7.8 3.34 11.74
4/22/2022 2:15:00 PM 12.62 54.716 0.097 7.8 3.25 11.67
4/22/2022 2:30:00 PM 12.81 55.058 0.097 7.81 3.67 11.62
4/22/2022 2:45:00 PM 13.05 55.49 0.097 7.81 3.29 11.56
4/22/2022 3:00:00 PM 13.22 55.796 0.097 7.82 3.4 11.51
4/22/2022 3:15:00 PM 13.36 56.048 0.097 7.82 3.33 11.46
4/22/2022 3:30:00 PM 13.46 56.228 0.097 7.82 3.2 11.41
4/22/2022 3:45:00 PM 13.53 56.354 0.097 7.83 3.84 11.36
4/22/2022 4:00:00 PM 13.62 56.516 0.097 7.84 4.28 11.32
4/22/2022 4:15:00 PM 13.66 56.588 0.097 7.75 3.64 11.28
4/22/2022 4:30:00 PM 13.67 56.606 0.097 7.83 3.57 11.23
4/22/2022 4:45:00 PM 13.72 56.696 0.097 7.83 3.81 11.19
4/22/2022 5:00:00 PM 13.76 56.768 0.097 7.81 3.38 11.14
4/22/2022 5:15:00 PM 13.75 56.75 0.097 7.82 3.88 11.09
4/22/2022 5:30:00 PM 13.71 56.678 0.097 7.79 3.82 11.04
4/22/2022 5:45:00 PM 13.67 56.606 0.097 7.79 3.73 10.99
4/22/2022 6:00:00 PM 13.61 56.498 0.097 7.78 3.72 10.94
4/22/2022 6:15:00 PM 13.57 56.426 0.097 7.73 3.75 10.87
4/22/2022 6:30:00 PM 13.52 56.336 0.097 7.73 3.72 10.82
4/22/2022 6:45:00 PM 13.48 56.264 0.097 7.7 3.84 10.76
4/22/2022 7:00:00 PM 13.44 56.192 0.097 7.68 3.74 10.7
4/22/2022 7:15:00 PM 13.38 56.084 0.097 7.65 3.73 10.63
4/22/2022 7:30:00 PM 13.3 55.94 0.097 7.62 4.23 10.56
4/22/2022 7:45:00 PM 13.21 55.778 0.097 7.6 3.78 10.49
4/22/2022 8:00:00 PM 13.13 55.634 0.097 7.56 3.85 10.42
4/22/2022 8:15:00 PM 13.07 55.526 0.097 7.46 3.87 10.35
4/22/2022 8:30:00 PM 13.01 55.418 0.098 7.5 4.23 10.29
4/22/2022 8:45:00 PM 12.95 55.31 0.098 7.41 4.05 10.25
4/22/2022 9:00:00 PM 12.89 55.202 0.098 7.46 4.05 10.2
4/22/2022 9:15:00 PM 12.82 55.076 0.098 7.45 4.36 10.17
4/22/2022 9:30:00 PM 12.75 54.95 0.098 7.45 4.23 10.14
4/22/2022 9:45:00 PM 12.67 54.806 0.098 7.43 4.16 10.12
4/22/2022 10:00:00 PM 12.59 54.662 0.098 7.4 4.21 10.13
4/22/2022 10:15:00 PM 12.51 54.518 0.098 7.33 4.21 10.12
4/22/2022 10:30:00 PM 12.45 54.41 0.098 7.41 4.32 10.12
4/22/2022 10:45:00 PM 12.38 54.284 0.098 7.35 4.13 10.12
4/22/2022 11:00:00 PM 12.32 54.176 0.099 7.34 4.51 10.12
4/22/2022 11:15:00 PM 12.26 54.068 0.098 7.4 4.51 10.13
4/22/2022 11:30:00 PM 12.19 53.942 0.099 7.3 4.32 10.15
4/22/2022 11:45:00 PM 12.12 53.816 0.099 7.4 4.23 10.17
4/23/2022 12:00:00 AM 12.06 53.708 0.099 7.32 4.23 10.18
4/23/2022 12:15:00 AM 11.99 53.582 0.099 7.32 4.19 10.2
4/23/2022 12:30:00 AM 11.91 53.438 0.098 7.39 4.28 10.22
4/23/2022 12:45:00 AM 11.84 53.312 0.099 7.4 4.32 10.24
4/23/2022 1:00:00 AM 11.78 53.204 0.099 7.4 4.27 10.25
4/23/2022 1:15:00 AM 11.72 53.096 0.099 7.39 4.06 10.26
4/23/2022 1:30:00 AM 11.66 52.988 0.099 7.4 4.31 10.28
4/23/2022 1:45:00 AM 11.6 52.88 0.099 7.39 4.71 10.29
4/23/2022 2:00:00 AM 11.54 52.772 0.099 7.31 4.3 10.3
4/23/2022 2:15:00 AM 11.48 52.664 0.099 7.37 4.23 10.32
4/23/2022 2:30:00 AM 11.43 52.574 0.098 7.39 4.17 10.33
4/23/2022 2:45:00 AM 11.38 52.484 0.099 7.4 4.29 10.35
4/23/2022 3:00:00 AM 11.33 52.394 0.098 7.38 4.3 10.36
4/23/2022 3:15:00 AM 11.28 52.304 0.098 7.4 4.26 10.38
4/23/2022 3:30:00 AM 11.22 52.196 0.098 7.36 4.25 10.39
4/23/2022 3:45:00 AM 11.17 52.106 0.098 7.4 4.18 10.41
4/23/2022 4:00:00 AM 11.12 52.016 0.098 7.4 4.33 10.42
4/23/2022 4:15:00 AM 11.07 51.926 0.098 7.32 4.21 10.43
4/23/2022 4:30:00 AM 11.02 51.836 0.098 7.41 4.31 10.45
4/23/2022 4:45:00 AM 10.97 51.746 0.098 7.41 4.23 10.46
4/23/2022 5:00:00 AM 10.92 51.656 0.098 7.3 4.43 10.48
4/23/2022 5:15:00 AM 10.87 51.566 0.099 7.41 4.29 10.49
4/23/2022 5:30:00 AM 10.82 51.476 0.098 7.41 4.24 10.51
4/23/2022 5:45:00 AM 10.77 51.386 0.098 7.41 4.18 10.52
4/23/2022 6:00:00 AM 10.73 51.314 0.098 7.4 4.25 10.54
4/23/2022 6:15:00 AM 10.68 51.224 0.098 7.33 4.41 10.56
4/23/2022 6:30:00 AM 10.63 51.134 0.098 7.34 4.36 10.58
4/23/2022 6:45:00 AM 10.58 51.044 0.098 7.41 4.3 10.6
4/23/2022 7:00:00 AM 10.55 50.99 0.098 7.41 4.09 10.62
4/23/2022 7:15:00 AM 10.52 50.936 0.098 7.39 4.15 10.66
4/23/2022 7:30:00 AM 10.47 50.846 0.098 7.43 4.04 10.69
4/23/2022 7:45:00 AM 10.44 50.792 0.098 7.44 4.27 10.73
4/23/2022 8:00:00 AM 10.41 50.738 0.098 7.44 3.99 10.79
4/23/2022 8:15:00 AM 10.4 50.72 0.098 7.47 3.85 10.86
4/23/2022 8:30:00 AM 10.37 50.666 0.098 7.47 4.09 10.92
4/23/2022 8:45:00 AM 10.35 50.63 0.098 7.47 4.08 10.95
4/23/2022 9:00:00 AM 10.36 50.648 0.098 7.49 3.92 11.02
4/23/2022 9:15:00 AM 10.36 50.648 0.098 7.51 3.88 11.1
4/23/2022 9:30:00 AM 10.38 50.684 0.097 7.54 3.67 11.16
4/23/2022 9:45:00 AM 10.41 50.738 0.097 7.54 3.83 11.24
4/23/2022 10:00:00 AM 10.45 50.81 0.097 7.57 3.99 11.31
4/23/2022 10:15:00 AM 10.54 50.972 0.097 7.6 4.19 11.38
4/23/2022 10:30:00 AM 10.58 51.044 0.097 7.62 3.72 11.43
4/23/2022 10:45:00 AM 10.59 51.062 0.097 7.63 4.75 11.45
4/23/2022 11:00:00 AM 10.65 51.17 0.097 7.65 3.95 11.49
4/23/2022 11:15:00 AM 10.75 51.35 0.097 7.68 3.84 11.53
4/23/2022 11:30:00 AM 10.88 51.584 0.097 7.69 3.69 11.56
4/23/2022 11:45:00 AM 10.85 51.53 0.096 7.7 4.05 11.53
4/23/2022 12:00:00 PM 10.89 51.602 0.096 7.7 3.76 11.54
4/23/2022 12:15:00 PM 10.93 51.674 0.096 7.71 3.86 11.54
4/23/2022 12:30:00 PM 10.97 51.746 0.096 7.7 3.87 11.52
4/23/2022 12:45:00 PM 11.01 51.818 0.096 7.73 3.78 11.54
4/23/2022 1:00:00 PM 11.07 51.926 0.096 7.75 3.84 11.55
4/23/2022 1:15:00 PM 11.22 52.196 0.096 7.76 3.65 11.57
4/23/2022 1:30:00 PM 11.31 52.358 0.096 7.78 3.59 11.58
4/23/2022 1:45:00 PM 11.34 52.412 0.096 7.79 3.61 11.57
4/23/2022 2:00:00 PM 11.36 52.448 0.096 7.79 3.75 11.54
4/23/2022 2:15:00 PM 11.43 52.574 0.096 7.8 3.67 11.53
4/23/2022 2:30:00 PM 11.54 52.772 0.096 7.81 3.72 11.53
4/23/2022 2:45:00 PM 11.72 53.096 0.095 7.81 3.9 11.53
4/23/2022 3:00:00 PM 11.9 53.42 0.095 7.85 3.91 11.52
4/23/2022 3:15:00 PM 11.88 53.384 0.095 7.83 3.77 11.47
4/23/2022 3:30:00 PM 11.95 53.51 0.095 7.84 3.71 11.44
4/23/2022 3:45:00 PM 12.07 53.726 0.095 7.85 4 11.44
4/23/2022 4:00:00 PM 12.33 54.194 0.095 7.87 4.02 11.43
4/23/2022 4:15:00 PM 12.5 54.5 0.095 7.87 3.69 11.41
4/23/2022 4:30:00 PM 12.64 54.752 0.095 7.87 3.84 11.36
4/23/2022 4:45:00 PM 12.77 54.986 0.095 7.79 3.66 11.32
4/23/2022 5:00:00 PM 12.89 55.202 0.095 7.82 3.78 11.28
4/23/2022 5:15:00 PM 12.98 55.364 0.095 7.87 3.87 11.23
4/23/2022 5:30:00 PM 13.04 55.472 0.095 7.85 3.75 11.18
4/23/2022 5:45:00 PM 13.11 55.598 0.095 7.83 5.94 11.13
4/23/2022 6:00:00 PM 13.19 55.742 0.095 7.75 3.83 11.07
4/23/2022 6:15:00 PM 13.23 55.814 0.095 7.75 4.11 11
4/23/2022 6:30:00 PM 13.22 55.796 0.095 7.8 3.98 10.93
4/23/2022 6:45:00 PM 13.18 55.724 0.095 7.7 3.95 10.86
4/23/2022 7:00:00 PM 13.13 55.634 0.095 7.74 3.79 10.79
4/23/2022 7:15:00 PM 13.08 55.544 0.095 7.71 3.88 10.71
4/23/2022 7:30:00 PM 13.02 55.436 0.095 7.59 3.82 10.64
4/23/2022 7:45:00 PM 12.96 55.328 0.095 7.64 4.14 10.57
4/23/2022 8:00:00 PM 12.9 55.22 0.095 7.61 4.12 10.49
4/23/2022 8:15:00 PM 12.85 55.13 0.095 7.58 4.34 10.41
4/23/2022 8:30:00 PM 12.79 55.022 0.095 7.46 4.23 10.35
4/23/2022 8:45:00 PM 12.73 54.914 0.095 7.53 4.31 10.29
4/23/2022 9:00:00 PM 12.66 54.788 0.096 7.42 4.25 10.23
4/23/2022 9:15:00 PM 12.61 54.698 0.096 7.48 4.31 10.2
4/23/2022 9:30:00 PM 12.55 54.59 0.096 7.46 4.56 10.16
4/23/2022 9:45:00 PM 12.49 54.482 0.096 7.41 4.32 10.13
4/23/2022 10:00:00 PM 12.43 54.374 0.096 7.45 4.31 10.12
4/23/2022 10:15:00 PM 12.36 54.248 0.096 7.34 4.36 10.11
4/23/2022 10:30:00 PM 12.28 54.104 0.096 7.38 4.23 10.11
4/23/2022 10:45:00 PM 12.21 53.978 0.096 7.34 4.52 10.1
4/23/2022 11:00:00 PM 12.14 53.852 0.096 7.41 4.52 10.11
4/23/2022 11:15:00 PM 12.07 53.726 0.096 7.32 4.46 10.12
4/23/2022 11:30:00 PM 12 53.6 0.096 7.41 4.54 10.13
4/23/2022 11:45:00 PM 11.92 53.456 0.096 7.41 4.44 10.15
4/24/2022 12:00:00 AM 11.84 53.312 0.096 7.4 4.41 10.16
4/24/2022 12:15:00 AM 11.76 53.168 0.096 7.4 4.82 10.18
4/24/2022 12:30:00 AM 11.68 53.024 0.096 7.35 4.49 10.2
4/24/2022 12:45:00 AM 11.59 52.862 0.096 7.4 4.59 10.22
4/24/2022 1:00:00 AM 11.51 52.718 0.096 7.37 4.48 10.24
4/24/2022 1:15:00 AM 11.43 52.574 0.096 7.4 4.4 10.26
4/24/2022 1:30:00 AM 11.35 52.43 0.096 7.39 4.31 10.28
4/24/2022 1:45:00 AM 11.28 52.304 0.096 7.39 4.4 10.3
4/24/2022 2:00:00 AM 11.2 52.16 0.096 7.39 4.63 10.32
4/24/2022 2:15:00 AM 11.13 52.034 0.096 7.36 4.58 10.34
4/24/2022 2:30:00 AM 11.05 51.89 0.096 7.38 4.68 10.36
4/24/2022 2:45:00 AM 10.99 51.782 0.096 7.39 4.45 10.38
4/24/2022 3:00:00 AM 10.92 51.656 0.096 7.33 4.31 10.4
4/24/2022 3:15:00 AM 10.85 51.53 0.096 7.39 4.42 10.42
4/24/2022 3:30:00 AM 10.78 51.404 0.096 7.39 4.83 10.43
4/24/2022 3:45:00 AM 10.72 51.296 0.096 7.38 4.64 10.46
4/24/2022 4:00:00 AM 10.66 51.188 0.096 7.31 4.5 10.47
4/24/2022 4:15:00 AM 10.59 51.062 0.096 7.39 4.44 10.5
4/24/2022 4:30:00 AM 10.52 50.936 0.096 7.39 4.34 10.51
4/24/2022 4:45:00 AM 10.45 50.81 0.096 7.38 4.48 10.53
4/24/2022 5:00:00 AM 10.38 50.684 0.096 7.38 4.63 10.55
4/24/2022 5:15:00 AM 10.32 50.576 0.096 7.38 4.31 10.58
4/24/2022 5:30:00 AM 10.24 50.432 0.096 7.39 4.45 10.59
4/24/2022 5:45:00 AM 10.17 50.306 0.096 7.27 4.57 10.61
4/24/2022 6:00:00 AM 10.1 50.18 0.096 7.38 4.42 10.62
4/24/2022 6:15:00 AM 10.04 50.072 0.096 7.39 4.21 10.66
4/24/2022 6:30:00 AM 9.97 49.946 0.096 7.38 4.56 10.68
4/24/2022 6:45:00 AM 9.9 49.82 0.096 7.39 4.41 10.7
4/24/2022 7:00:00 AM 9.85 49.73 0.096 7.37 4.39 10.75
4/24/2022 7:15:00 AM 9.8 49.64 0.096 7.39 4.35 10.8
4/24/2022 7:30:00 AM 9.76 49.568 0.095 7.4 4.23 10.86
4/24/2022 7:45:00 AM 9.71 49.478 0.096 7.42 4.32 10.91
4/24/2022 8:00:00 AM 9.71 49.478 0.095 7.44 4.27 11
4/24/2022 8:15:00 AM 9.72 49.496 0.095 7.46 4.22 11.08
4/24/2022 8:30:00 AM 9.75 49.55 0.095 7.45 4.13 11.15
4/24/2022 8:45:00 AM 9.78 49.604 0.095 7.44 4.24 11.23
4/24/2022 9:00:00 AM 9.84 49.712 0.095 7.51 4.21 11.3
4/24/2022 9:15:00 AM 9.93 49.874 0.095 7.53 4.21 11.36
4/24/2022 9:30:00 AM 10.05 50.09 0.095 7.56 4.27 11.43
4/24/2022 9:45:00 AM 10.19 50.342 0.095 7.58 4.31 11.47
4/24/2022 10:00:00 AM 10.36 50.648 0.095 7.53 4.19 11.52
4/24/2022 10:15:00 AM 10.56 51.008 0.094 7.63 4.04 11.54
4/24/2022 10:30:00 AM 10.79 51.422 0.094 7.65 4.14 11.57
4/24/2022 10:45:00 AM 11.03 51.854 0.094 7.66 4.07 11.57
4/24/2022 11:00:00 AM 11.31 52.358 0.094 7.68 4.24 11.57
4/24/2022 11:15:00 AM 11.62 52.916 0.094 7.7 4.03 11.55
4/24/2022 11:30:00 AM 11.93 53.474 0.094 7.73 4.1 11.52
4/24/2022 11:45:00 AM 12.17 53.906 0.094 7.74 3.97 11.5
4/24/2022 12:00:00 PM 12.38 54.284 0.093 7.77 4.12 11.48
4/24/2022 12:15:00 PM 12.67 54.806 0.094 7.72 4.33 11.44
4/24/2022 12:30:00 PM 13.08 55.544 0.094 7.8 4.1 11.38
4/24/2022 12:45:00 PM 13.41 56.138 0.093 7.79 4.04 11.35
4/24/2022 1:00:00 PM 13.7 56.66 0.093 7.84 4.1 11.3
4/24/2022 1:15:00 PM 14 57.2 0.093 7.84 5.61 11.24
4/24/2022 1:30:00 PM 14.31 57.758 0.093 7.86 4.06 11.2
4/24/2022 1:45:00 PM 14.57 58.226 0.093 7.87 4.14 11.14
4/24/2022 2:00:00 PM 14.83 58.694 0.093 7.88 4.04 11.09
4/24/2022 2:15:00 PM 15.08 59.144 0.093 7.9 4 11.03
4/24/2022 2:30:00 PM 15.35 59.63 0.093 7.86 4.03 10.97
4/24/2022 2:45:00 PM 15.6 60.08 0.093 7.91 4.01 10.9
4/24/2022 3:00:00 PM 15.84 60.512 0.093 7.89 4.06 10.83
4/24/2022 3:15:00 PM 16.05 60.89 0.093 7.93 4.17 10.76
4/24/2022 3:30:00 PM 16.23 61.214 0.093 7.85 4.29 10.69
4/24/2022 3:45:00 PM 16.39 61.502 0.093 7.91 4.22 10.62
4/24/2022 4:00:00 PM 16.53 61.754 0.086 7.88 5.85 10.56
4/24/2022 4:15:00 PM 16.65 61.97 0.093 7.92 4.14 10.49
4/24/2022 4:30:00 PM 16.75 62.15 0.093 7.91 4.38 10.44
4/24/2022 4:45:00 PM 16.84 62.312 0.093 7.89 4.66 10.37
4/24/2022 5:00:00 PM 16.91 62.438 0.093 7.9 4.45 10.3
4/24/2022 5:15:00 PM 16.98 62.564 0.093 7.87 4.17 10.23
4/24/2022 5:30:00 PM 17.03 62.654 0.093 7.78 4.01 10.16
4/24/2022 5:45:00 PM 17.07 62.726 0.093 7.84 4.25 10.09
4/24/2022 6:00:00 PM 17.07 62.726 0.093 7.8 4.43 10.01
4/24/2022 6:15:00 PM 17.06 62.708 0.093 7.77 4.42 9.93
4/24/2022 6:30:00 PM 17.05 62.69 0.093 7.66 4.42 9.85
4/24/2022 6:45:00 PM 17.02 62.636 0.093 7.71 4.56 9.77
4/24/2022 7:00:00 PM 16.99 62.582 0.086 7.63 6.11 9.69
4/24/2022 7:15:00 PM 16.94 62.492 0.093 7.66 4.67 9.61
4/24/2022 7:30:00 PM 16.87 62.366 0.093 7.63 4.49 9.53
4/24/2022 7:45:00 PM 16.81 62.258 0.093 7.58 4.37 9.46
4/24/2022 8:00:00 PM 16.73 62.114 0.093 7.56 4.73 9.37
4/24/2022 8:15:00 PM 16.66 61.988 0.093 7.53 4.65 9.31
4/24/2022 8:30:00 PM 16.59 61.862 0.093 7.5 4.92 9.24
4/24/2022 8:45:00 PM 16.52 61.736 0.093 7.4 4.92 9.19
4/24/2022 9:00:00 PM 16.44 61.592 0.094 7.46 4.72 9.15
4/24/2022 9:15:00 PM 16.37 61.466 0.094 7.44 4.63 9.12
4/24/2022 9:30:00 PM 16.3 61.34 0.094 7.43 4.97 9.1
4/24/2022 9:45:00 PM 16.22 61.196 0.094 7.41 4.91 9.08
4/24/2022 10:00:00 PM 16.15 61.07 0.094 7.41 4.95 9.07
4/24/2022 10:15:00 PM 16.07 60.926 0.094 7.36 5.2 9.06
4/24/2022 10:30:00 PM 16 60.8 0.094 7.39 5.37 9.07
4/24/2022 10:45:00 PM 15.92 60.656 0.094 7.38 5.23 9.08
4/24/2022 11:00:00 PM 15.85 60.53 0.094 7.38 4.76 9.08
4/24/2022 11:15:00 PM 15.77 60.386 0.094 7.38 5.43 9.1
4/24/2022 11:30:00 PM 15.7 60.26 0.094 7.38 5.15 9.11
4/24/2022 11:45:00 PM 15.62 60.116 0.094 7.38 5.19 9.13
4/25/2022 12:00:00 AM 15.55 59.99 0.094 7.37 5.14 9.15
4/25/2022 12:15:00 AM 15.48 59.864 0.095 7.38 5.26 9.16
4/25/2022 12:30:00 AM 15.4 59.72 0.094 7.38 5.47 9.18
4/25/2022 12:45:00 AM 15.33 59.594 0.095 7.37 5.2 9.2
4/25/2022 1:00:00 AM 15.26 59.468 0.095 7.36 5.38 9.22
4/25/2022 1:15:00 AM 15.18 59.324 0.095 7.38 5.09 9.24
4/25/2022 1:30:00 AM 15.1 59.18 0.095 7.37 5.16 9.25
4/25/2022 1:45:00 AM 15.01 59.018 0.095 7.28 5.12 9.27
4/25/2022 2:00:00 AM 14.93 58.874 0.095 7.32 5.05 9.29
4/25/2022 2:15:00 AM 14.85 58.73 0.095 7.36 5.44 9.31
4/25/2022 2:30:00 AM 14.76 58.568 0.095 7.36 5.35 9.34
4/25/2022 2:45:00 AM 14.68 58.424 0.095 7.37 5.21 9.36
4/25/2022 3:00:00 AM 14.6 58.28 0.095 7.38 5.29 9.37
4/25/2022 3:15:00 AM 14.52 58.136 0.095 7.36 5.04 9.4
4/25/2022 3:30:00 AM 14.44 57.992 0.094 7.38 5.29 9.42
4/25/2022 3:45:00 AM 14.35 57.83 0.094 7.35 5.38 9.44
4/25/2022 4:00:00 AM 14.27 57.686 0.095 7.38 5.24 9.46
4/25/2022 4:15:00 AM 14.19 57.542 0.094 7.38 5.17 9.48
4/25/2022 4:30:00 AM 14.11 57.398 0.095 7.37 5.36 9.5
4/25/2022 4:45:00 AM 14.04 57.272 0.094 7.29 5.43 9.53
4/25/2022 5:00:00 AM 13.96 57.128 0.094 7.29 5.25 9.55
4/25/2022 5:15:00 AM 13.87 56.966 0.094 7.38 5.24 9.57
4/25/2022 5:30:00 AM 13.78 56.804 0.095 7.35 5.7 9.59
4/25/2022 5:45:00 AM 13.69 56.642 0.095 7.26 5.35 9.62
4/25/2022 6:00:00 AM 13.6 56.48 0.095 7.34 5.36 9.64
4/25/2022 6:15:00 AM 13.52 56.336 0.095 7.37 5.38 9.66
4/25/2022 6:30:00 AM 13.44 56.192 0.094 7.28 5 9.69
4/25/2022 6:45:00 AM 13.36 56.048 0.094 7.38 5.47 9.73
4/25/2022 7:00:00 AM 13.29 55.922 0.094 7.38 5.23 9.78
4/25/2022 7:15:00 AM 13.23 55.814 0.094 7.4 5.26 9.84
4/25/2022 7:30:00 AM 13.18 55.724 0.094 7.35 5.06 9.92
4/25/2022 7:45:00 AM 13.13 55.634 0.094 7.41 4.76 10
4/25/2022 8:00:00 AM 13.1 55.58 0.094 7.46 4.86 10.08
4/25/2022 8:15:00 AM 13.08 55.544 0.094 7.47 4.78 10.17
4/25/2022 8:30:00 AM 13.09 55.562 0.094 7.5 4.67 10.26
4/25/2022 8:45:00 AM 13.11 55.598 0.094 7.51 4.36 10.35
4/25/2022 9:00:00 AM 13.16 55.688 0.094 7.54 4.59 10.43
4/25/2022 9:15:00 AM 13.21 55.778 0.094 7.57 4.36 10.51
4/25/2022 9:30:00 AM 13.31 55.958 0.093 7.6 4.43 10.58
4/25/2022 9:45:00 AM 13.43 56.174 0.093 7.62 4.34 10.64
4/25/2022 10:00:00 AM 13.57 56.426 0.093 7.65 4.34 10.69
4/25/2022 10:15:00 AM 13.74 56.732 0.093 7.65 4.16 10.73
4/25/2022 10:30:00 AM 13.93 57.074 0.093 7.64 4.27 10.77
4/25/2022 10:45:00 AM 14.15 57.47 0.093 7.72 4.62 10.78
4/25/2022 11:00:00 AM 14.39 57.902 0.093 7.76 4.38 10.79
4/25/2022 11:15:00 AM 14.65 58.37 0.092 7.77 4.22 10.8
4/25/2022 11:30:00 AM 14.91 58.838 0.093 7.8 4.19 10.79
4/25/2022 11:45:00 AM 15.19 59.342 0.092 7.82 3.99 10.77
4/25/2022 12:00:00 PM 15.47 59.846 0.092 7.85 4.46 10.75
4/25/2022 12:15:00 PM 15.77 60.386 0.092 7.87 4.17 10.71
4/25/2022 12:30:00 PM 16.07 60.926 0.092 7.8 4.46 10.68
4/25/2022 12:45:00 PM 16.36 61.448 0.088 7.87 6.31 10.63
4/25/2022 1:00:00 PM 16.65 61.97 0.092 7.92 4.48 10.59
4/25/2022 1:15:00 PM 16.92 62.456 0.092 7.86 4.57 10.53
4/25/2022 1:30:00 PM 17.18 62.924 0.092 7.97 4.53 10.48
4/25/2022 1:45:00 PM 17.43 63.374 0.092 7.88 4.48 10.44
4/25/2022 2:00:00 PM 17.66 63.788 0.086 7.94 5.79 10.39
4/25/2022 2:15:00 PM 17.86 64.148 0.092 8 4.27 10.34
4/25/2022 2:30:00 PM 18.05 64.49 0.092 7.99 4.26 10.29
4/25/2022 2:45:00 PM 18.23 64.814 0.092 8.01 4.37 10.25
4/25/2022 3:00:00 PM 18.38 65.084 0.085 7.97 5.92 10.2
4/25/2022 3:15:00 PM 18.5 65.3 0.092 7.95 4.15 10.15
4/25/2022 3:30:00 PM 18.61 65.498 0.092 8 4.36 10.11
4/25/2022 3:45:00 PM 18.68 65.624 0.092 7.99 4.44 10.06
4/25/2022 4:00:00 PM 18.74 65.732 0.089 7.97 6.89 10.01
4/25/2022 4:15:00 PM 18.76 65.768 0.092 8 4.47 9.96
4/25/2022 4:30:00 PM 18.79 65.82201 0.091 7.99 4.39 9.91
4/25/2022 4:45:00 PM 18.8 65.84 0.092 7.97 4.61 9.87
4/25/2022 5:00:00 PM 18.73 65.714 0.091 7.94 4.49 9.81
4/25/2022 5:15:00 PM 18.66 65.588 0.091 7.91 4.43 9.74
4/25/2022 5:30:00 PM 18.64 65.552 0.091 7.88 4.38 9.71
4/25/2022 5:45:00 PM 18.57 65.426 0.091 7.79 4.33 9.64
4/25/2022 6:00:00 PM 18.48 65.264 0.092 7.82 4.47 9.55
4/25/2022 6:15:00 PM 18.41 65.138 0.091 7.79 4.57 9.52
4/25/2022 6:30:00 PM 18.36 65.048 0.091 7.79 4.3 9.5
4/25/2022 6:45:00 PM 18.26 64.868 0.091 7.71 4.41 9.45
4/25/2022 7:00:00 PM 18.13 64.634 0.085 7.65 6.49 9.4
4/25/2022 7:15:00 PM 18.02 64.436 0.092 7.68 4.56 9.38
4/25/2022 7:30:00 PM 17.89 64.202 0.092 7.67 4.7 9.31
4/25/2022 7:45:00 PM 17.79 64.022 0.089 7.57 6.24 9.23
4/25/2022 8:00:00 PM 17.7 63.86 0.092 7.56 4.72 9.17
4/25/2022 8:15:00 PM 17.62 63.716 0.092 7.56 4.91 9.1
4/25/2022 8:30:00 PM 17.55 63.59 0.092 7.54 5.33 9.04
4/25/2022 8:45:00 PM 17.44 63.392 0.092 7.52 4.64 8.98
4/25/2022 9:00:00 PM 17.34 63.212 0.092 7.48 4.99 8.91
4/25/2022 9:15:00 PM 17.24 63.032 0.092 7.47 5.18 8.91
4/25/2022 9:30:00 PM 17.13 62.834 0.093 7.45 5.35 8.89
4/25/2022 9:45:00 PM 17.03 62.654 0.093 7.45 5.32 8.87
4/25/2022 10:00:00 PM 16.95 62.51 0.093 7.43 5.29 8.86
4/25/2022 10:15:00 PM 16.87 62.366 0.093 7.36 5.41 8.86
4/25/2022 10:30:00 PM 16.79 62.222 0.093 7.42 5.77 8.86
4/25/2022 10:45:00 PM 16.71 62.078 0.091 7.42 7.53 8.87
4/25/2022 11:00:00 PM 16.62 61.916 0.093 7.4 5.42 8.88
4/25/2022 11:15:00 PM 16.52 61.736 0.093 7.41 5.12 8.89
4/25/2022 11:30:00 PM 16.43 61.574 0.093 7.4 5.58 8.9
4/25/2022 11:45:00 PM 16.34 61.412 0.093 7.41 5.22 8.91
4/26/2022 12:00:00 AM 16.25 61.25 0.093 7.4 5.71 8.93
4/26/2022 12:15:00 AM 16.17 61.106 0.093 7.4 6.02 8.95
4/26/2022 12:30:00 AM 16.1 60.98 0.093 7.4 5.87 8.97
4/26/2022 12:45:00 AM 16.03 60.854 0.093 7.36 5.03 8.99
4/26/2022 1:00:00 AM 15.97 60.746 0.093 7.4 5.22 9.01
4/26/2022 1:15:00 AM 15.92 60.656 0.093 7.37 5.4 9.03
4/26/2022 1:30:00 AM 15.86 60.548 0.093 7.4 5.46 9.04
4/26/2022 1:45:00 AM 15.81 60.458 0.093 7.4 5.38 9.06
4/26/2022 2:00:00 AM 15.74 60.332 0.093 7.39 5.8 9.06
4/26/2022 2:15:00 AM 15.68 60.224 0.093 7.39 6.03 9.08
4/26/2022 2:30:00 AM 15.62 60.116 0.093 7.39 5.5 9.1
4/26/2022 2:45:00 AM 15.57 60.026 0.093 7.39 5.9 9.11
4/26/2022 3:00:00 AM 15.51 59.918 0.093 7.33 5.78 9.13
4/26/2022 3:15:00 AM 15.46 59.828 0.093 7.39 5.74 9.14
4/26/2022 3:30:00 AM 15.4 59.72 0.093 7.32 5.72 9.16
4/26/2022 3:45:00 AM 15.35 59.63 0.093 7.39 5.82 9.17
4/26/2022 4:00:00 AM 15.3 59.54 0.093 7.38 5.44 9.19
4/26/2022 4:15:00 AM 15.25 59.45 0.093 7.33 5.38 9.19
4/26/2022 4:30:00 AM 15.2 59.36 0.093 7.39 5.65 9.21
4/26/2022 4:45:00 AM 15.15 59.27 0.093 7.31 6.03 9.23
4/26/2022 5:00:00 AM 15.09 59.162 0.093 7.33 5.54 9.24
4/26/2022 5:15:00 AM 15.04 59.072 0.093 7.39 5.63 9.26
4/26/2022 5:30:00 AM 14.98 58.964 0.093 7.38 5.52 9.28
4/26/2022 5:45:00 AM 14.93 58.874 0.093 7.38 6.13 9.29
4/26/2022 6:00:00 AM 14.87 58.766 0.093 7.38 5.72 9.31
4/26/2022 6:15:00 AM 14.82 58.676 0.093 7.39 5.69 9.33
4/26/2022 6:30:00 AM 14.77 58.586 0.093 7.39 5.45 9.34
4/26/2022 6:45:00 AM 14.72 58.496 0.094 7.4 5.57 9.36
4/26/2022 7:00:00 AM 14.66 58.388 0.094 7.31 5.8 9.39
4/26/2022 7:15:00 AM 14.62 58.316 0.094 7.38 5.11 9.42
4/26/2022 7:30:00 AM 14.57 58.226 0.094 7.41 5.27 9.45
4/26/2022 7:45:00 AM 14.52 58.136 0.094 7.41 5.51 9.47
4/26/2022 8:00:00 AM 14.47 58.046 0.093 7.42 5.31 9.51
4/26/2022 8:15:00 AM 14.42 57.956 0.093 7.42 5.29 9.55
4/26/2022 8:30:00 AM 14.39 57.902 0.093 7.43 5.43 9.6
4/26/2022 8:45:00 AM 14.36 57.848 0.093 7.45 5.38 9.66
4/26/2022 9:00:00 AM 14.33 57.794 0.093 7.46 4.9 9.72
4/26/2022 9:15:00 AM 14.32 57.776 0.093 7.48 5.19 9.8
4/26/2022 9:30:00 AM 14.3 57.74 0.093 7.42 5.01 9.88
4/26/2022 9:45:00 AM 14.29 57.722 0.092 7.48 5.49 9.95
4/26/2022 10:00:00 AM 14.28 57.704 0.092 7.53 4.89 10.02
4/26/2022 10:15:00 AM 14.28 57.704 0.092 7.55 5.14 10.08
4/26/2022 10:30:00 AM 14.27 57.686 0.092 7.56 4.93 10.12
4/26/2022 10:45:00 AM 14.26 57.668 0.092 7.58 5.04 10.16
4/26/2022 11:00:00 AM 14.27 57.686 0.092 7.6 5.06 10.22
4/26/2022 11:15:00 AM 14.28 57.704 0.092 7.61 5.14 10.27
4/26/2022 11:30:00 AM 14.29 57.722 0.089 7.58 6.7 10.3
4/26/2022 11:45:00 AM 14.3 57.74 0.091 7.65 5.2 10.35
4/26/2022 12:00:00 PM 14.34 57.812 0.091 7.66 5.03 10.39
4/26/2022 12:15:00 PM 14.35 57.83 0.091 7.62 5.22 10.42
4/26/2022 12:30:00 PM 14.36 57.848 0.091 7.64 4.9 10.44
4/26/2022 12:45:00 PM 14.38 57.884 0.091 7.66 4.65 10.46
4/26/2022 1:00:00 PM 14.4 57.92 0.091 7.73 4.92 10.48
4/26/2022 1:15:00 PM 14.41 57.938 0.091 7.72 4.96 10.49
4/26/2022 1:30:00 PM 14.41 57.938 0.091 7.75 5.14 10.47
4/26/2022 1:45:00 PM 14.41 57.938 0.091 7.75 4.79 10.47
4/26/2022 2:00:00 PM 14.4 57.92 0.091 7.75 5.64 10.46
4/26/2022 2:15:00 PM 14.4 57.92 0.091 7.74 5.1 10.46
4/26/2022 2:30:00 PM 14.39 57.902 0.091 7.76 4.99 10.45
4/26/2022 2:45:00 PM 14.4 57.92 0.091 7.76 4.99 10.45
4/26/2022 3:00:00 PM 14.39 57.902 0.091 7.76 5.22 10.46
4/26/2022 3:15:00 PM 14.37 57.866 0.091 7.75 4.87 10.44
4/26/2022 3:30:00 PM 14.34 57.812 0.091 7.75 5.76 10.4
4/26/2022 3:45:00 PM 14.31 57.758 0.091 7.66 7.28 10.35
4/26/2022 4:00:00 PM 14.27 57.686 0.091 7.7 4.59 10.31
4/26/2022 4:15:00 PM 14.22 57.596 0.091 7.65 4.87 10.26
4/26/2022 4:30:00 PM 14.19 57.542 0.091 7.66 5.07 10.25
4/26/2022 4:45:00 PM 14.15 57.47 0.091 7.58 4.98 10.22
4/26/2022 5:00:00 PM 14.1 57.38 0.091 7.64 4.84 10.19
4/26/2022 5:15:00 PM 14.06 57.308 0.091 7.63 4.92 10.17
4/26/2022 5:30:00 PM 14.03 57.254 0.091 7.63 5.25 10.22
4/26/2022 5:45:00 PM 14.02 57.236 0.091 7.61 5.03 10.27
4/26/2022 6:00:00 PM 13.98 57.164 0.091 7.66 4.75 10.29
4/26/2022 6:15:00 PM 13.95 57.11 0.091 7.64 4.54 10.29
4/26/2022 6:30:00 PM 13.9 57.02 0.091 7.66 4.89 10.29
4/26/2022 6:45:00 PM 13.86 56.948 0.091 7.64 4.79 10.27
4/26/2022 7:00:00 PM 13.82 56.876 0.091 7.63 4.57 10.27
4/26/2022 7:15:00 PM 13.77 56.786 0.091 7.63 4.76 10.24
4/26/2022 7:30:00 PM 13.69 56.642 0.091 7.61 5.48 10.22
4/26/2022 7:45:00 PM 13.61 56.498 0.091 7.6 5.49 10.17
4/26/2022 8:00:00 PM 13.53 56.354 0.091 7.57 5.39 10.14
4/26/2022 8:15:00 PM 13.45 56.21 0.091 7.55 4.76 10.1
4/26/2022 8:30:00 PM 13.37 56.066 0.091 7.49 4.91 10.05
4/26/2022 8:45:00 PM 13.27 55.886 0.091 7.49 5.47 10.03
4/26/2022 9:00:00 PM 13.17 55.706 0.092 7.51 5.54 10
4/26/2022 9:15:00 PM 13.08 55.544 0.092 7.5 5.45 9.98
4/26/2022 9:30:00 PM 12.98 55.364 0.092 7.49 5.07 9.97
4/26/2022 9:45:00 PM 12.89 55.202 0.092 7.46 5.21 9.96
4/26/2022 10:00:00 PM 12.8 55.04 0.092 7.47 5.48 9.95
4/26/2022 10:15:00 PM 12.71 54.878 0.092 7.46 6.03 9.96
4/26/2022 10:30:00 PM 12.64 54.752 0.092 7.46 5.83 9.96
4/26/2022 10:45:00 PM 12.56 54.608 0.092 7.45 5.41 9.99
4/26/2022 11:00:00 PM 12.48 54.464 0.092 7.45 4.97 9.98
4/26/2022 11:15:00 PM 12.4 54.32 0.092 7.45 6.09 10
4/26/2022 11:30:00 PM 12.31 54.158 0.092 7.44 5.53 10.03
4/26/2022 11:45:00 PM 12.22 53.996 0.092 7.44 5.47 10.04
4/27/2022 12:00:00 AM 12.15 53.87 0.092 7.43 5.41 10.06
4/27/2022 12:15:00 AM 12.06 53.708 0.092 7.42 5.45 10.08
4/27/2022 12:30:00 AM 11.99 53.582 0.092 7.44 5.48 10.1
4/27/2022 12:45:00 AM 11.91 53.438 0.093 7.37 5.31 10.12
4/27/2022 1:00:00 AM 11.84 53.312 0.093 7.44 6.7 10.14
4/27/2022 1:15:00 AM 11.76 53.168 0.093 7.44 6.65 10.16
4/27/2022 1:30:00 AM 11.67 53.006 0.093 7.44 5.88 10.18
4/27/2022 1:45:00 AM 11.58 52.844 0.093 7.43 5.97 10.21
4/27/2022 2:00:00 AM 11.51 52.718 0.093 7.43 5.55 10.23
4/27/2022 2:15:00 AM 11.43 52.574 0.092 7.35 5.46 10.25
4/27/2022 2:30:00 AM 11.35 52.43 0.092 7.44 4.98 10.27
4/27/2022 2:45:00 AM 11.27 52.286 0.093 7.44 5.34 10.29
4/27/2022 3:00:00 AM 11.2 52.16 0.092 7.44 5.1 10.31
4/27/2022 3:15:00 AM 11.11 51.998 0.093 7.44 5.93 10.33
4/27/2022 3:30:00 AM 11.03 51.854 0.092 7.44 5.16 10.36
4/27/2022 3:45:00 AM 10.95 51.71 0.092 7.44 5.39 10.37
4/27/2022 4:00:00 AM 10.88 51.584 0.093 7.43 5.68 10.39
4/27/2022 4:15:00 AM 10.81 51.458 0.092 7.43 4.96 10.42
4/27/2022 4:30:00 AM 10.72 51.296 0.092 7.44 5.4 10.43
4/27/2022 4:45:00 AM 10.64 51.152 0.093 7.44 4.87 10.46
4/27/2022 5:00:00 AM 10.55 50.99 0.092 7.43 4.98 10.48
4/27/2022 5:15:00 AM 10.43 50.774 0.092 7.44 5.47 10.51
4/27/2022 5:30:00 AM 10.32 50.576 0.092 7.43 5.17 10.53
4/27/2022 5:45:00 AM 10.2 50.36 0.093 7.44 5.26 10.55
4/27/2022 6:00:00 AM 10.1 50.18 0.092 7.38 5.04 10.6
4/27/2022 6:15:00 AM 9.99 49.982 0.092 7.45 5.23 10.61
4/27/2022 6:30:00 AM 9.88 49.784 0.088 7.38 6.71 10.66
4/27/2022 6:45:00 AM 9.79 49.622 0.092 7.45 5.12 10.7
4/27/2022 7:00:00 AM 9.7 49.46 0.092 7.46 4.64 10.76
4/27/2022 7:15:00 AM 9.62 49.316 0.093 7.47 5.35 10.82
4/27/2022 7:30:00 AM 9.53 49.154 0.092 7.41 4.79 10.88
4/27/2022 7:45:00 AM 9.44 48.992 0.092 7.49 4.83 10.95
4/27/2022 8:00:00 AM 9.39 48.902 0.092 7.5 5.31 11.02
4/27/2022 8:15:00 AM 9.37 48.866 0.092 7.52 4.53 11.1
4/27/2022 8:30:00 AM 9.38 48.884 0.092 7.53 4.45 11.19
4/27/2022 8:45:00 AM 9.37 48.866 0.092 7.56 4.81 11.28
4/27/2022 9:00:00 AM 9.35 48.83 0.092 7.55 4.56 11.35
4/27/2022 9:15:00 AM 9.37 48.866 0.092 7.59 4.61 11.42
4/27/2022 9:30:00 AM 9.38 48.884 0.091 7.61 4.49 11.49
4/27/2022 9:45:00 AM 9.36 48.848 0.091 7.63 4.61 11.52
4/27/2022 10:00:00 AM 9.35 48.83 0.091 7.64 5.03 11.57
4/27/2022 10:15:00 AM 9.42 48.956 0.091 7.66 4.9 11.63
4/27/2022 10:30:00 AM 9.47 49.046 0.091 7.67 4.57 11.66
4/27/2022 10:45:00 AM 9.48 49.064 0.091 7.69 4.39 11.67
4/27/2022 11:00:00 AM 9.49 49.082 0.091 7.64 4.3 11.7
4/27/2022 11:15:00 AM 9.54 49.172 0.091 7.72 4.16 11.72
4/27/2022 11:30:00 AM 9.5 49.1 0.091 7.7 4.47 11.73
4/27/2022 11:45:00 AM 9.57 49.226 0.091 7.73 4.53 11.74
4/27/2022 12:00:00 PM 9.69 49.442 0.091 7.68 4.43 11.78
4/27/2022 12:15:00 PM 9.62 49.316 0.09 7.76 4.13 11.78
4/27/2022 12:30:00 PM 9.59 49.262 0.09 7.76 4.42 11.78
4/27/2022 12:45:00 PM 9.66 49.388 0.09 7.78 4.15 11.8
4/27/2022 1:00:00 PM 9.66 49.388 0.09 7.77 4.14 11.79
4/27/2022 1:15:00 PM 9.64 49.352 0.09 7.77 4.12 11.76
4/27/2022 1:30:00 PM 9.62 49.316 0.09 7.71 4.37 11.74
4/27/2022 1:45:00 PM 9.62 49.316 0.09 7.76 4.43 11.74
4/27/2022 2:00:00 PM 9.6 49.28 0.09 7.71 4.31 11.74
4/27/2022 2:15:00 PM 9.66 49.388 0.09 7.76 4.2 11.75
4/27/2022 2:30:00 PM 9.68 49.424 0.09 7.78 4.32 11.77
4/27/2022 2:45:00 PM 9.59 49.262 0.09 7.77 4.33 11.75
4/27/2022 3:00:00 PM 9.57 49.226 0.09 7.77 4.5 11.74
4/27/2022 3:15:00 PM 9.65 49.37 0.09 7.78 4.48 11.77
4/27/2022 3:30:00 PM 9.68 49.424 0.09 7.79 4.35 11.78
4/27/2022 3:45:00 PM 9.66 49.388 0.09 7.79 5.68 11.77
4/27/2022 4:00:00 PM 9.63 49.334 0.09 7.78 5.27 11.76
4/27/2022 4:15:00 PM 9.61 49.298 0.09 7.78 4.59 11.74
4/27/2022 4:30:00 PM 9.64 49.352 0.089 7.78 4.3 11.73
4/27/2022 4:45:00 PM 9.66 49.388 0.089 7.79 4.34 11.74
4/27/2022 5:00:00 PM 9.58 49.244 0.089 7.77 4.28 11.7
4/27/2022 5:15:00 PM 9.5 49.1 0.089 7.71 4.29 11.68
4/27/2022 5:30:00 PM 9.45 49.01 0.089 7.69 4.17 11.67
4/27/2022 5:45:00 PM 9.39 48.902 0.089 7.74 4.16 11.66
4/27/2022 6:00:00 PM 9.32 48.776 0.089 7.72 4 11.63
4/27/2022 6:15:00 PM 9.23 48.614 0.089 7.7 4.36 11.62
4/27/2022 6:30:00 PM 9.14 48.452 0.089 7.69 4.22 11.6
4/27/2022 6:45:00 PM 9.08 48.344 0.089 7.67 4.41 11.58
4/27/2022 7:00:00 PM 8.99 48.182 0.089 7.63 4.41 11.55
4/27/2022 7:15:00 PM 8.9 48.02 0.09 7.63 4.27 11.52
4/27/2022 7:30:00 PM 8.81 47.858 0.09 7.61 4.25 11.5
4/27/2022 7:45:00 PM 8.71 47.678 0.09 7.6 4.51 11.47
4/27/2022 8:00:00 PM 8.63 47.534 0.09 7.58 4.28 11.43
4/27/2022 8:15:00 PM 8.54 47.372 0.09 7.56 4.17 11.41
4/27/2022 8:30:00 PM 8.47 47.246 0.09 7.51 4.11 11.38
4/27/2022 8:45:00 PM 8.38 47.084 0.09 7.5 4.32 11.36
4/27/2022 9:00:00 PM 8.29 46.922 0.09 7.48 4.62 11.36
4/27/2022 9:15:00 PM 8.21 46.778 0.09 7.46 4.48 11.35
4/27/2022 9:30:00 PM 8.13 46.634 0.09 7.5 4.72 11.35
4/27/2022 9:45:00 PM 8.05 46.49 0.09 7.48 4.47 11.35
4/27/2022 10:00:00 PM 7.99 46.382 0.09 7.48 4.47 11.35
4/27/2022 10:15:00 PM 7.93 46.274 0.09 7.47 4.63 11.36
4/27/2022 10:30:00 PM 7.86 46.148 0.09 7.46 4.44 11.37
4/27/2022 10:45:00 PM 7.8 46.04 0.09 7.47 4.45 11.39
4/27/2022 11:00:00 PM 7.75 45.95 0.09 7.46 4.52 11.4
4/27/2022 11:15:00 PM 7.69 45.842 0.09 7.46 4.67 11.42
4/27/2022 11:30:00 PM 7.63 45.734 0.09 7.46 4.92 11.44
4/27/2022 11:45:00 PM 7.56 45.608 0.09 7.46 4.43 11.45
4/28/2022 12:00:00 AM 7.5 45.5 0.09 7.45 5.26 11.47
4/28/2022 12:15:00 AM 7.44 45.392 0.091 7.42 4.58 11.48
4/28/2022 12:30:00 AM 7.39 45.302 0.09 7.45 5.05 11.5
4/28/2022 12:45:00 AM 7.34 45.212 0.09 7.45 4.28 11.52
4/28/2022 1:00:00 AM 7.28 45.104 0.09 7.45 4.6 11.54
4/28/2022 1:15:00 AM 7.22 44.996 0.09 7.45 4.64 11.56
4/28/2022 1:30:00 AM 7.16 44.888 0.09 7.45 4.67 11.58
4/28/2022 1:45:00 AM 7.09 44.762 0.09 7.44 5.55 11.6
4/28/2022 2:00:00 AM 7.04 44.672 0.091 7.44 4.65 11.61
4/28/2022 2:15:00 AM 6.97 44.546 0.091 7.45 4.58 11.64
4/28/2022 2:30:00 AM 6.92 44.456 0.09 7.44 4.73 11.65
4/28/2022 2:45:00 AM 6.85 44.33 0.091 7.44 4.78 11.67
4/28/2022 3:00:00 AM 6.79 44.222 0.09 7.39 4.5 11.69
4/28/2022 3:15:00 AM 6.74 44.132 0.09 7.45 4.4 11.71
4/28/2022 3:30:00 AM 6.69 44.042 0.09 7.45 4.29 11.73
4/28/2022 3:45:00 AM 6.65 43.97 0.091 7.44 4.62 11.74
4/28/2022 4:00:00 AM 6.61 43.898 0.091 7.44 4.45 11.76
4/28/2022 4:15:00 AM 6.57 43.826 0.091 7.42 4.27 11.78
4/28/2022 4:30:00 AM 6.53 43.754 0.09 7.44 4.45 11.79
4/28/2022 4:45:00 AM 6.5 43.7 0.09 7.44 4.39 11.81
4/28/2022 5:00:00 AM 6.46 43.628 0.09 7.37 4.12 11.82
4/28/2022 5:15:00 AM 6.42 43.556 0.09 7.45 4.43 11.83
4/28/2022 5:30:00 AM 6.38 43.484 0.09 7.44 4.33 11.84
4/28/2022 5:45:00 AM 6.34 43.412 0.09 7.44 4.39 11.86
4/28/2022 6:00:00 AM 6.3 43.34 0.09 7.44 4.39 11.87
4/28/2022 6:15:00 AM 6.26 43.268 0.09 7.43 4.2 11.89
4/28/2022 6:30:00 AM 6.22 43.196 0.09 7.44 4.35 11.91
4/28/2022 6:45:00 AM 6.18 43.124 0.09 7.43 4.35 11.92
4/28/2022 7:00:00 AM 6.14 43.052 0.091 7.45 4.49 11.96
4/28/2022 7:15:00 AM 6.11 42.998 0.09 7.46 3.93 12
4/28/2022 7:30:00 AM 6.09 42.962 0.09 7.46 4.22 12.05
4/28/2022 7:45:00 AM 6.08 42.944 0.09 7.48 4.06 12.12
4/28/2022 8:00:00 AM 6.12 43.016 0.09 7.49 3.93 12.2
4/28/2022 8:15:00 AM 6.13 43.034 0.09 7.51 4.25 12.27
4/28/2022 8:30:00 AM 6.13 43.034 0.09 7.53 3.94 12.33
4/28/2022 8:45:00 AM 6.18 43.124 0.09 7.46 4.06 12.4
4/28/2022 9:00:00 AM 6.24 43.232 0.09 7.56 4.2 12.45
4/28/2022 9:15:00 AM 6.32 43.376 0.09 7.58 4.1 12.51
4/28/2022 9:30:00 AM 6.42 43.556 0.089 7.59 4.19 12.55
4/28/2022 9:45:00 AM 6.53 43.754 0.089 7.61 4.1 12.59
4/28/2022 10:00:00 AM 6.67 44.006 0.089 7.62 4.03 12.61
4/28/2022 10:15:00 AM 6.83 44.294 0.089 7.63 4.28 12.62
4/28/2022 10:30:00 AM 7.01 44.618 0.089 7.64 4.19 12.62
4/28/2022 10:45:00 AM 7.21 44.978 0.089 7.59 4.14 12.62
4/28/2022 11:00:00 AM 7.43 45.374 0.089 7.66 3.87 12.6
4/28/2022 11:15:00 AM 7.69 45.842 0.089 7.68 3.93 12.57
4/28/2022 11:30:00 AM 7.97 46.346 0.089 7.68 4.01 12.53
4/28/2022 11:45:00 AM 8.28 46.904 0.089 7.69 3.84 12.48
4/28/2022 12:00:00 PM 8.6 47.48 0.088 7.68 3.88 12.43
4/28/2022 12:15:00 PM 8.95 48.11 0.088 7.71 3.65 12.35
4/28/2022 12:30:00 PM 9.3 48.74 0.088 7.71 3.8 12.3
4/28/2022 12:45:00 PM 9.65 49.37 0.088 7.72 3.9 12.22
4/28/2022 1:00:00 PM 9.98 49.964 0.088 7.73 3.97 12.15
4/28/2022 1:15:00 PM 10.31 50.558 0.089 7.74 3.93 12.08
4/28/2022 1:30:00 PM 10.62 51.116 0.083 7.69 5.46 12.01
4/28/2022 1:45:00 PM 10.91 51.638 0.089 7.68 3.9 11.94
4/28/2022 2:00:00 PM 11.17 52.106 0.089 7.77 4.02 11.87
4/28/2022 2:15:00 PM 11.41 52.538 0.089 7.7 3.89 11.81
4/28/2022 2:30:00 PM 11.63 52.934 0.088 7.78 3.84 11.75
4/28/2022 2:45:00 PM 11.82 53.276 0.089 7.78 3.83 11.69
4/28/2022 3:00:00 PM 12 53.6 0.088 7.79 4 11.63
4/28/2022 3:15:00 PM 12.12 53.816 0.088 7.79 3.89 11.59
4/28/2022 3:30:00 PM 12.23 54.014 0.088 7.79 4.27 11.53
4/28/2022 3:45:00 PM 12.33 54.194 0.088 7.81 3.94 11.49
4/28/2022 4:00:00 PM 12.36 54.248 0.088 7.81 3.94 11.45
4/28/2022 4:15:00 PM 12.39 54.302 0.088 7.81 4.04 11.41
4/28/2022 4:30:00 PM 12.39 54.302 0.088 7.8 4.15 11.37
4/28/2022 4:45:00 PM 12.38 54.284 0.088 7.8 3.68 11.34
4/28/2022 5:00:00 PM 12.34 54.212 0.088 7.81 3.79 11.3
4/28/2022 5:15:00 PM 12.29 54.122 0.088 7.8 4.03 11.27
4/28/2022 5:30:00 PM 12.25 54.05 0.088 7.79 4.13 11.24
4/28/2022 5:45:00 PM 12.18 53.924 0.088 7.79 4.1 11.21
4/28/2022 6:00:00 PM 12.1 53.78 0.088 7.77 4.14 11.16
4/28/2022 6:15:00 PM 12.01 53.618 0.088 7.76 3.73 11.13
4/28/2022 6:30:00 PM 11.91 53.438 0.088 7.74 4.07 11.09
4/28/2022 6:45:00 PM 11.8 53.24 0.088 7.67 3.84 11.05
4/28/2022 7:00:00 PM 11.69 53.042 0.088 7.71 3.93 11.01
4/28/2022 7:15:00 PM 11.59 52.862 0.088 7.68 4.15 10.97
4/28/2022 7:30:00 PM 11.48 52.664 0.088 7.67 3.95 10.93
4/28/2022 7:45:00 PM 11.36 52.448 0.088 7.64 4.02 10.89
4/28/2022 8:00:00 PM 11.24 52.232 0.088 7.62 4.25 10.84
4/28/2022 8:15:00 PM 11.13 52.034 0.088 7.6 4.12 10.8
4/28/2022 8:30:00 PM 11.03 51.854 0.088 7.58 4.03 10.76
4/28/2022 8:45:00 PM 10.93 51.674 0.089 7.55 4.47 10.71
4/28/2022 9:00:00 PM 10.82 51.476 0.089 7.54 4.78 10.69
4/28/2022 9:15:00 PM 10.73 51.314 0.089 7.52 4.15 10.67
4/28/2022 9:30:00 PM 10.63 51.134 0.089 7.5 4.43 10.65
4/28/2022 9:45:00 PM 10.52 50.936 0.089 7.45 4.66 10.64
4/28/2022 10:00:00 PM 10.42 50.756 0.089 7.46 4.79 10.63
4/28/2022 10:15:00 PM 10.32 50.576 0.089 7.47 4.73 10.62
4/28/2022 10:30:00 PM 10.21 50.378 0.089 7.45 4.63 10.64
4/28/2022 10:45:00 PM 10.09 50.162 0.089 7.46 4.42 10.66
4/28/2022 11:00:00 PM 9.97 49.946 0.089 7.45 4.32 10.68
4/28/2022 11:15:00 PM 9.85 49.73 0.089 7.45 4.8 10.71
4/28/2022 11:30:00 PM 9.74 49.532 0.09 7.44 4.68 10.72
4/28/2022 11:45:00 PM 9.61 49.298 0.09 7.44 4.59 10.75
4/29/2022 12:00:00 AM 9.5 49.1 0.09 7.42 4.74 10.78
4/29/2022 12:15:00 AM 9.38 48.884 0.09 7.44 4.66 10.81
4/29/2022 12:30:00 AM 9.27 48.686 0.09 7.44 4.91 10.84
4/29/2022 12:45:00 AM 9.14 48.452 0.09 7.42 4.21 10.87
4/29/2022 1:00:00 AM 9.02 48.236 0.09 7.43 4.33 10.91
4/29/2022 1:15:00 AM 8.91 48.038 0.09 7.36 4.92 10.94
4/29/2022 1:30:00 AM 8.8 47.84 0.09 7.43 4.62 10.97
4/29/2022 1:45:00 AM 8.69 47.642 0.09 7.43 4.7 11
4/29/2022 2:00:00 AM 8.57 47.426 0.09 7.43 4.43 11.04
4/29/2022 2:15:00 AM 8.46 47.228 0.09 7.43 5.06 11.07
4/29/2022 2:30:00 AM 8.35 47.03 0.09 7.35 4.38 11.1
4/29/2022 2:45:00 AM 8.24 46.832 0.09 7.42 4.65 11.14
4/29/2022 3:00:00 AM 8.13 46.634 0.09 7.42 4.68 11.17
4/29/2022 3:15:00 AM 8.02 46.436 0.09 7.42 4.41 11.2
4/29/2022 3:30:00 AM 7.91 46.238 0.09 7.42 4.42 11.24
4/29/2022 3:45:00 AM 7.8 46.04 0.09 7.42 4.45 11.27
4/29/2022 4:00:00 AM 7.69 45.842 0.09 7.42 4.46 11.31
4/29/2022 4:15:00 AM 7.59 45.662 0.09 7.42 4.35 11.33
4/29/2022 4:30:00 AM 7.49 45.482 0.09 7.42 4.52 11.38
4/29/2022 4:45:00 AM 7.38 45.284 0.09 7.36 4.51 11.41
4/29/2022 5:00:00 AM 7.29 45.122 0.09 7.42 4.71 11.43
4/29/2022 5:15:00 AM 7.19 44.942 0.09 7.42 4.55 11.48
4/29/2022 5:30:00 AM 7.09 44.762 0.09 7.42 4.5 11.51
4/29/2022 5:45:00 AM 6.99 44.582 0.09 7.42 4.65 11.54
4/29/2022 6:00:00 AM 6.89 44.402 0.09 7.42 4.4 11.57
4/29/2022 6:15:00 AM 6.79 44.222 0.09 7.42 4.36 11.62
4/29/2022 6:30:00 AM 6.7 44.06 0.09 7.42 4.44 11.65
4/29/2022 6:45:00 AM 6.62 43.916 0.09 7.42 4.37 11.72
4/29/2022 7:00:00 AM 6.54 43.772 0.09 7.4 4.31 11.78
4/29/2022 7:15:00 AM 6.48 43.664 0.09 7.45 4.25 11.85
4/29/2022 7:30:00 AM 6.44 43.592 0.09 7.42 4.18 11.92
4/29/2022 7:45:00 AM 6.4 43.52 0.09 7.47 3.93 12
4/29/2022 8:00:00 AM 6.38 43.484 0.09 7.48 4.01 12.07
4/29/2022 8:15:00 AM 6.38 43.484 0.09 7.49 4.14 12.14
4/29/2022 8:30:00 AM 6.39 43.502 0.089 7.44 4.3 12.23
4/29/2022 8:45:00 AM 6.42 43.556 0.09 7.53 4.06 12.29
4/29/2022 9:00:00 AM 6.48 43.664 0.089 7.55 4.31 12.36
4/29/2022 9:15:00 AM 6.57 43.826 0.089 7.53 4.15 12.42
4/29/2022 9:30:00 AM 6.69 44.042 0.089 7.58 4.16 12.46
4/29/2022 9:45:00 AM 6.83 44.294 0.089 7.6 4.12 12.5
4/29/2022 10:00:00 AM 6.97 44.546 0.089 7.6 4.08 12.52
4/29/2022 10:15:00 AM 7.19 44.942 0.089 7.63 3.95 12.54
4/29/2022 10:30:00 AM 7.44 45.392 0.089 7.64 4.29 12.54
4/29/2022 10:45:00 AM 7.71 45.878 0.089 7.65 4.12 12.53
4/29/2022 11:00:00 AM 7.93 46.274 0.088 7.68 3.84 12.51
4/29/2022 11:15:00 AM 8.22 46.796 0.088 7.69 3.95 12.49
4/29/2022 11:30:00 AM 8.55 47.39 0.088 7.7 3.87 12.45
4/29/2022 11:45:00 AM 8.9 48.02 0.088 7.71 3.71 12.4
4/29/2022 12:00:00 PM 9.24 48.632 0.088 7.66 4.86 12.35
4/29/2022 12:15:00 PM 9.58 49.244 0.088 7.75 3.59 12.29
4/29/2022 12:30:00 PM 9.93 49.874 0.088 7.75 3.68 12.23
4/29/2022 12:45:00 PM 10.27 50.486 0.088 7.75 3.7 12.16
4/29/2022 1:00:00 PM 10.64 51.152 0.088 7.77 3.91 12.08
4/29/2022 1:15:00 PM 10.96 51.728 0.088 7.78 3.77 12.02
4/29/2022 1:30:00 PM 11.27 52.286 0.088 7.79 3.49 11.95
4/29/2022 1:45:00 PM 11.57 52.826 0.088 7.81 3.71 11.88
4/29/2022 2:00:00 PM 11.84 53.312 0.088 7.73 3.79 11.8
4/29/2022 2:15:00 PM 12.11 53.798 0.088 7.82 3.5 11.74
4/29/2022 2:30:00 PM 12.38 54.284 0.085 7.77 5.91 11.67
4/29/2022 2:45:00 PM 12.59 54.662 0.088 7.84 3.72 11.62
4/29/2022 3:00:00 PM 12.79 55.022 0.087 7.86 3.9 11.55
4/29/2022 3:15:00 PM 12.96 55.328 0.087 7.84 3.91 11.49
4/29/2022 3:30:00 PM 13.09 55.562 0.087 7.86 3.95 11.43
4/29/2022 3:45:00 PM 13.23 55.814 0.087 7.87 3.8 11.38
4/29/2022 4:00:00 PM 13.31 55.958 0.088 7.8 3.99 11.34
4/29/2022 4:15:00 PM 13.38 56.084 0.088 7.87 3.8 11.29
4/29/2022 4:30:00 PM 13.39 56.102 0.088 7.83 3.82 11.23
4/29/2022 4:45:00 PM 13.41 56.138 0.088 7.86 3.74 11.19
4/29/2022 5:00:00 PM 13.4 56.12 0.087 7.86 3.99 11.15
4/29/2022 5:15:00 PM 13.37 56.066 0.088 7.84 3.68 11.1
4/29/2022 5:30:00 PM 13.36 56.048 0.088 7.84 3.9 11.05
4/29/2022 5:45:00 PM 13.3 55.94 0.087 7.84 3.85 11.01
4/29/2022 6:00:00 PM 13.24 55.832 0.088 7.81 3.86 10.97
4/29/2022 6:15:00 PM 13.15 55.67 0.085 7.78 5.77 10.92
4/29/2022 6:30:00 PM 13.06 55.508 0.088 7.77 4.21 10.87
4/29/2022 6:45:00 PM 12.99 55.382 0.088 7.76 3.99 10.82
4/29/2022 7:00:00 PM 12.91 55.238 0.088 7.7 4.05 10.77
4/29/2022 7:15:00 PM 12.81 55.058 0.088 7.71 4.17 10.71
4/29/2022 7:30:00 PM 12.71 54.878 0.088 7.68 4.72 10.66
4/29/2022 7:45:00 PM 12.62 54.716 0.088 7.65 4 10.59
4/29/2022 8:00:00 PM 12.5 54.5 0.088 7.63 3.97 10.54
4/29/2022 8:15:00 PM 12.4 54.32 0.088 7.57 4.84 10.49
4/29/2022 8:30:00 PM 12.28 54.104 0.088 7.58 4.32 10.44
4/29/2022 8:45:00 PM 12.16 53.888 0.088 7.55 4.35 10.39
4/29/2022 9:00:00 PM 12.06 53.708 0.088 7.53 4.17 10.36
4/29/2022 9:15:00 PM 11.95 53.51 0.089 7.51 4.23 10.33
4/29/2022 9:30:00 PM 11.83 53.294 0.083 7.44 6.97 10.31
4/29/2022 9:45:00 PM 11.73 53.114 0.089 7.48 4.54 10.28
4/29/2022 10:00:00 PM 11.61 52.898 0.089 7.46 4.83 10.27
4/29/2022 10:15:00 PM 11.48 52.664 0.089 7.45 4.77 10.27
4/29/2022 10:30:00 PM 11.36 52.448 0.089 7.44 4.55 10.28
4/29/2022 10:45:00 PM 11.24 52.232 0.089 7.44 4.54 10.3
4/29/2022 11:00:00 PM 11.12 52.016 0.089 7.43 4.66 10.31
4/29/2022 11:15:00 PM 11.01 51.818 0.089 7.43 4.35 10.34
4/29/2022 11:30:00 PM 10.88 51.584 0.089 7.42 4.79 10.36
4/29/2022 11:45:00 PM 10.75 51.35 0.09 7.39 4.96 10.4
4/30/2022 12:00:00 AM 10.63 51.134 0.09 7.43 4.59 10.43
4/30/2022 12:15:00 AM 10.5 50.9 0.09 7.42 4.63 10.46
4/30/2022 12:30:00 AM 10.36 50.648 0.09 7.42 4.81 10.5
4/30/2022 12:45:00 AM 10.24 50.432 0.09 7.42 4.69 10.52
4/30/2022 1:00:00 AM 10.12 50.216 0.09 7.41 4.61 10.55
4/30/2022 1:15:00 AM 10 50 0.09 7.42 4.36 10.58
4/30/2022 1:30:00 AM 9.86 49.748 0.09 7.42 4.45 10.62
4/30/2022 1:45:00 AM 9.74 49.532 0.09 7.41 4.69 10.65
4/30/2022 2:00:00 AM 9.62 49.316 0.088 7.37 5.97 10.7
4/30/2022 2:15:00 AM 9.5 49.1 0.09 7.41 4.65 10.72
4/30/2022 2:30:00 AM 9.37 48.866 0.09 7.41 5.03 10.77
4/30/2022 2:45:00 AM 9.26 48.668 0.09 7.42 4.44 10.8
4/30/2022 3:00:00 AM 9.14 48.452 0.09 7.41 4.56 10.83
4/30/2022 3:15:00 AM 9.01 48.218 0.09 7.42 4.6 10.88
4/30/2022 3:30:00 AM 8.9 48.02 0.09 7.42 4.79 10.91
4/30/2022 3:45:00 AM 8.79 47.822 0.09 7.42 4.4 10.94
4/30/2022 4:00:00 AM 8.67 47.606 0.09 7.42 4.43 10.98
4/30/2022 4:15:00 AM 8.56 47.408 0.09 7.42 4.32 11.01
4/30/2022 4:30:00 AM 8.45 47.21 0.09 7.42 4.54 11.05
4/30/2022 4:45:00 AM 8.34 47.012 0.09 7.42 4.61 11.08
4/30/2022 5:00:00 AM 8.23 46.814 0.09 7.42 4.55 11.11
4/30/2022 5:15:00 AM 8.12 46.616 0.09 7.42 4.5 11.15
4/30/2022 5:30:00 AM 8.01 46.418 0.09 7.42 4.46 11.19
4/30/2022 5:45:00 AM 7.9 46.22 0.09 7.42 4.68 11.22
4/30/2022 6:00:00 AM 7.8 46.04 0.09 7.39 4.45 11.25
4/30/2022 6:15:00 AM 7.68 45.824 0.09 7.43 4.45 11.3
4/30/2022 6:30:00 AM 7.58 45.644 0.09 7.43 4.23 11.35
4/30/2022 6:45:00 AM 7.49 45.482 0.09 7.43 4.48 11.4
4/30/2022 7:00:00 AM 7.41 45.338 0.09 7.44 4.55 11.47
4/30/2022 7:15:00 AM 7.34 45.212 0.09 7.44 4.47 11.54
4/30/2022 7:30:00 AM 7.28 45.104 0.09 7.46 4.47 11.61
4/30/2022 7:45:00 AM 7.24 45.032 0.09 7.47 4.25 11.69
4/30/2022 8:00:00 AM 7.22 44.996 0.09 7.49 4.13 11.78
4/30/2022 8:15:00 AM 7.21 44.978 0.09 7.5 4.22 11.86
4/30/2022 8:30:00 AM 7.22 44.996 0.09 7.52 4.32 11.94
4/30/2022 8:45:00 AM 7.24 45.032 0.09 7.53 4.24 12.01
4/30/2022 9:00:00 AM 7.3 45.14 0.09 7.56 4.12 12.08
4/30/2022 9:15:00 AM 7.39 45.302 0.09 7.57 4.14 12.14
4/30/2022 9:30:00 AM 7.51 45.518 0.089 7.53 4.26 12.2
4/30/2022 9:45:00 AM 7.67 45.806 0.089 7.61 4.2 12.24
4/30/2022 10:00:00 AM 7.85 46.13 0.089 7.63 3.93 12.28
4/30/2022 10:15:00 AM 8.06 46.508 0.089 7.65 4.19 12.3
4/30/2022 10:30:00 AM 8.31 46.958 0.089 7.67 4.23 12.31
4/30/2022 10:45:00 AM 8.56 47.408 0.089 7.69 3.98 12.31
4/30/2022 11:00:00 AM 8.85 47.93 0.088 7.7 4.15 12.3
4/30/2022 11:15:00 AM 9.15 48.47 0.088 7.72 4.05 12.27
4/30/2022 11:30:00 AM 9.46 49.028 0.088 7.74 3.91 12.24
4/30/2022 11:45:00 AM 9.78 49.604 0.088 7.76 3.73 12.2
4/30/2022 12:00:00 PM 10.15 50.27 0.088 7.77 3.9 12.16
4/30/2022 12:15:00 PM 10.5 50.9 0.088 7.78 4.13 12.09
4/30/2022 12:30:00 PM 10.83 51.494 0.088 7.81 4.11 12.04
4/30/2022 12:45:00 PM 11.2 52.16 0.088 7.81 4.37 11.97
4/30/2022 1:00:00 PM 11.58 52.844 0.088 7.84 3.9 11.9
4/30/2022 1:15:00 PM 11.96 53.528 0.088 7.85 4.1 11.82
4/30/2022 1:30:00 PM 12.28 54.104 0.088 7.87 4.1 11.77
4/30/2022 1:45:00 PM 12.6 54.68 0.088 7.88 3.84 11.69
4/30/2022 2:00:00 PM 12.92 55.256 0.085 7.76 5.62 11.62
4/30/2022 2:15:00 PM 13.2 55.76 0.088 7.92 4.25 11.57
4/30/2022 2:30:00 PM 13.47 56.246 0.082 7.87 5.67 11.5
4/30/2022 2:45:00 PM 13.69 56.642 0.088 7.94 4.04 11.43
4/30/2022 3:00:00 PM 13.91 57.038 0.084 7.87 5.91 11.36
4/30/2022 3:15:00 PM 14.1 57.38 0.082 7.9 5.58 11.29
4/30/2022 3:30:00 PM 14.25 57.65 0.082 7.92 5.76 11.24
4/30/2022 3:45:00 PM 14.37 57.866 0.082 7.92 5.65 11.19
4/30/2022 4:00:00 PM 14.47 58.046 0.082 7.93 5.54 11.14
4/30/2022 4:15:00 PM 14.53 58.154 0.082 7.91 5.71 11.08
4/30/2022 4:30:00 PM 14.53 58.154 0.082 7.93 5.69 11.03
4/30/2022 4:45:00 PM 14.55 58.19 0.082 7.92 6.18 10.98
4/30/2022 5:00:00 PM 14.55 58.19 0.082 7.9 5.79 10.94
4/30/2022 5:15:00 PM 14.52 58.136 0.082 7.92 5.75 10.9
4/30/2022 5:30:00 PM 14.48 58.064 0.082 7.89 5.75 10.84
4/30/2022 5:45:00 PM 14.4 57.92 0.088 7.92 4.32 10.78
4/30/2022 6:00:00 PM 14.34 57.812 0.083 7.83 6.05 10.73
4/30/2022 6:15:00 PM 14.28 57.704 0.085 7.83 5.88 10.7
4/30/2022 6:30:00 PM 14.21 57.578 0.084 7.81 5.83 10.66
4/30/2022 6:45:00 PM 14.13 57.434 0.086 7.78 5.69 10.59
4/30/2022 7:00:00 PM 14.06 57.308 0.086 7.76 5.88 10.52
4/30/2022 7:15:00 PM 13.98 57.164 0.085 7.72 5.82 10.45
4/30/2022 7:30:00 PM 13.89 57.002 0.088 7.72 4.25 10.39
4/30/2022 7:45:00 PM 13.77 56.786 0.085 7.66 5.78 10.33
4/30/2022 8:00:00 PM 13.66 56.588 0.086 7.63 6.03 10.26
4/30/2022 8:15:00 PM 13.53 56.354 0.088 7.61 4.43 10.2
4/30/2022 8:30:00 PM 13.41 56.138 0.086 7.58 6.34 10.14
4/30/2022 8:45:00 PM 13.31 55.958 0.088 7.55 4.92 10.08
4/30/2022 9:00:00 PM 13.21 55.778 0.089 7.53 4.8 10.04
4/30/2022 9:15:00 PM 13.09 55.562 0.089 7.5 4.6 10
4/30/2022 9:30:00 PM 12.99 55.382 0.089 7.49 5.78 9.97
4/30/2022 9:45:00 PM 12.88 55.184 0.089 7.47 5.05 9.95
4/30/2022 10:00:00 PM 12.78 55.004 0.089 7.46 4.85 9.93
4/30/2022 10:15:00 PM 12.67 54.806 0.089 7.45 4.48 9.93
4/30/2022 10:30:00 PM 12.55 54.59 0.09 7.4 4.81 9.94
4/30/2022 10:45:00 PM 12.44 54.392 0.084 7.39 7.25 9.94
4/30/2022 11:00:00 PM 12.32 54.176 0.09 7.43 5.15 9.96
4/30/2022 11:15:00 PM 12.2 53.96 0.084 7.37 6.25 9.98
4/30/2022 11:30:00 PM 12.07 53.726 0.09 7.42 4.82 10.01
4/30/2022 11:45:00 PM 11.95 53.51 0.09 7.42 5.01 10.03
5/1/2022 12:00:00 AM 11.84 53.312 0.09 7.42 4.94 10.05
5/1/2022 12:15:00 AM 11.72 53.096 0.09 7.39 4.92 10.08
5/1/2022 12:30:00 AM 11.59 52.862 0.09 7.42 4.76 10.11
5/1/2022 12:45:00 AM 11.48 52.664 0.09 7.41 4.88 10.14
5/1/2022 1:00:00 AM 11.35 52.43 0.09 7.41 4.74 10.17
5/1/2022 1:15:00 AM 11.23 52.214 0.09 7.41 4.78 10.21
5/1/2022 1:30:00 AM 11.11 51.998 0.09 7.42 4.61 10.24
5/1/2022 1:45:00 AM 10.97 51.746 0.09 7.33 4.72 10.28
5/1/2022 2:00:00 AM 10.84 51.512 0.09 7.42 4.76 10.32
5/1/2022 2:15:00 AM 10.72 51.296 0.09 7.41 4.87 10.34
5/1/2022 2:30:00 AM 10.59 51.062 0.091 7.41 4.96 10.38
5/1/2022 2:45:00 AM 10.46 50.828 0.088 7.38 6.53 10.41
5/1/2022 3:00:00 AM 10.35 50.63 0.091 7.41 4.98 10.44
5/1/2022 3:15:00 AM 10.25 50.45 0.091 7.41 4.94 10.47
5/1/2022 3:30:00 AM 10.13 50.234 0.091 7.41 4.97 10.51
5/1/2022 3:45:00 AM 10.02 50.036 0.091 7.41 4.69 10.55
5/1/2022 4:00:00 AM 9.92 49.856 0.091 7.41 4.88 10.58
5/1/2022 4:15:00 AM 9.83 49.694 0.091 7.38 5.49 10.6
5/1/2022 4:30:00 AM 9.73 49.514 0.091 7.41 4.4 10.62
5/1/2022 4:45:00 AM 9.64 49.352 0.091 7.41 4.79 10.66
5/1/2022 5:00:00 AM 9.55 49.19 0.091 7.41 4.89 10.68
5/1/2022 5:15:00 AM 9.47 49.046 0.091 7.42 4.92 10.71
5/1/2022 5:30:00 AM 9.38 48.884 0.091 7.41 4.55 10.74
5/1/2022 5:45:00 AM 9.3 48.74 0.091 7.41 4.56 10.77
5/1/2022 6:00:00 AM 9.22 48.596 0.091 7.42 5.06 10.8
5/1/2022 6:15:00 AM 9.14 48.452 0.091 7.41 4.39 10.83
5/1/2022 6:30:00 AM 9.08 48.344 0.091 7.39 4.83 10.88
5/1/2022 6:45:00 AM 9.02 48.236 0.091 7.44 4.64 10.95
5/1/2022 7:00:00 AM 8.97 48.146 0.091 7.43 4.45 11.01
5/1/2022 7:15:00 AM 8.92 48.056 0.091 7.46 4.59 11.07
5/1/2022 7:30:00 AM 8.88 47.984 0.09 7.47 4.34 11.15
5/1/2022 7:45:00 AM 8.85 47.93 0.09 7.48 4.61 11.23
5/1/2022 8:00:00 AM 8.85 47.93 0.09 7.5 4.2 11.31
5/1/2022 8:15:00 AM 8.88 47.984 0.09 7.53 4.23 11.41
5/1/2022 8:30:00 AM 8.92 48.056 0.09 7.46 4.98 11.5
5/1/2022 8:45:00 AM 8.92 48.056 0.09 7.57 4.02 11.57
5/1/2022 9:00:00 AM 8.94 48.092 0.09 7.58 4.42 11.63
5/1/2022 9:15:00 AM 8.96 48.128 0.09 7.6 4.25 11.69
5/1/2022 9:30:00 AM 9 48.2 0.09 7.63 4.36 11.74
5/1/2022 9:45:00 AM 9.03 48.254 0.09 7.65 4.69 11.77
5/1/2022 10:00:00 AM 9.08 48.344 0.089 7.66 4.4 11.79
5/1/2022 10:15:00 AM 9.17 48.506 0.089 7.68 4.25 11.85
5/1/2022 10:30:00 AM 9.29 48.722 0.089 7.72 4.18 11.89
5/1/2022 10:45:00 AM 9.43 48.974 0.083 7.67 5.99 11.92
5/1/2022 11:00:00 AM 9.59 49.262 0.089 7.77 4.19 11.95
5/1/2022 11:15:00 AM 9.66 49.388 0.089 7.77 4.24 11.94
5/1/2022 11:30:00 AM 9.72 49.496 0.089 7.79 4.02 11.94
5/1/2022 11:45:00 AM 9.78 49.604 0.088 7.8 4.5 11.91
5/1/2022 12:00:00 PM 9.86 49.748 0.083 7.81 5.95 11.88
5/1/2022 12:15:00 PM 9.91 49.838 0.088 7.81 4.23 11.85
5/1/2022 12:30:00 PM 9.98 49.964 0.088 7.81 3.92 11.83
5/1/2022 12:45:00 PM 10.04 50.072 0.083 7.77 5.68 11.81
5/1/2022 1:00:00 PM 10.08 50.144 0.086 7.76 5.7 11.77
5/1/2022 1:15:00 PM 10.09 50.162 0.088 7.72 4.02 11.7
5/1/2022 1:30:00 PM 10.13 50.234 0.083 7.76 5.88 11.68
5/1/2022 1:45:00 PM 10.15 50.27 0.088 7.79 4.11 11.67
5/1/2022 2:00:00 PM 10.15 50.27 0.088 7.78 3.82 11.62
5/1/2022 2:15:00 PM 10.15 50.27 0.088 7.68 3.97 11.58
5/1/2022 2:30:00 PM 10.16 50.288 0.088 7.76 4.31 11.55
5/1/2022 2:45:00 PM 10.2 50.36 0.088 7.76 4.6 11.58
5/1/2022 3:00:00 PM 10.24 50.432 0.088 7.78 4.14 11.59
5/1/2022 3:15:00 PM 10.23 50.414 0.088 7.76 3.99 11.54
5/1/2022 3:30:00 PM 10.22 50.396 0.088 7.75 4.78 11.49
5/1/2022 3:45:00 PM 10.23 50.414 0.087 7.71 4.27 11.48
5/1/2022 4:00:00 PM 10.25 50.45 0.087 7.74 4.03 11.49
5/1/2022 4:15:00 PM 10.27 50.486 0.087 7.73 4.18 11.45
5/1/2022 4:30:00 PM 10.28 50.504 0.087 7.72 4.29 11.43
5/1/2022 4:45:00 PM 10.29 50.522 0.087 7.72 4.56 11.41
5/1/2022 5:00:00 PM 10.3 50.54 0.088 7.71 4.47 11.38
5/1/2022 5:15:00 PM 10.32 50.576 0.088 7.71 4.66 11.37
5/1/2022 5:30:00 PM 10.32 50.576 0.088 7.7 4.29 11.33
5/1/2022 5:45:00 PM 10.31 50.558 0.088 7.68 4.44 11.26
5/1/2022 6:00:00 PM 10.31 50.558 0.088 7.67 4.42 11.23
5/1/2022 6:15:00 PM 10.31 50.558 0.089 7.66 5.03 11.22
5/1/2022 6:30:00 PM 10.31 50.558 0.089 7.59 4.97 11.19
5/1/2022 6:45:00 PM 10.31 50.558 0.089 7.64 5.25 11.15
5/1/2022 7:00:00 PM 10.3 50.54 0.09 7.63 5.13 11.1
5/1/2022 7:15:00 PM 10.29 50.522 0.084 7.62 6.72 11.07
5/1/2022 7:30:00 PM 10.27 50.486 0.09 7.6 5.16 11.03
5/1/2022 7:45:00 PM 10.26 50.468 0.09 7.59 4.92 10.99
5/1/2022 8:00:00 PM 10.24 50.432 0.09 7.57 5.27 10.95
5/1/2022 8:15:00 PM 10.22 50.396 0.088 7.57 6.77 10.92
5/1/2022 8:30:00 PM 10.21 50.378 0.088 7.56 6.69 10.89
5/1/2022 8:45:00 PM 10.19 50.342 0.09 7.53 5.19 10.86
5/1/2022 9:00:00 PM 10.18 50.324 0.09 7.52 5.2 10.82
5/1/2022 9:15:00 PM 10.16 50.288 0.09 7.51 5.34 10.8
5/1/2022 9:30:00 PM 10.15 50.27 0.091 7.5 5.36 10.79
5/1/2022 9:45:00 PM 10.14 50.252 0.092 7.49 5.21 10.77
5/1/2022 10:00:00 PM 10.13 50.234 0.094 7.48 5.34 10.76
5/1/2022 10:15:00 PM 10.12 50.216 0.095 7.48 5.74 10.73
5/1/2022 10:30:00 PM 10.11 50.198 0.096 7.48 5.76 10.73
5/1/2022 10:45:00 PM 10.1 50.18 0.096 7.47 6.1 10.73
5/1/2022 11:00:00 PM 10.09 50.162 0.096 7.47 6.07 10.72
5/1/2022 11:15:00 PM 10.08 50.144 0.095 7.47 5.86 10.71
5/1/2022 11:30:00 PM 10.07 50.126 0.095 7.46 5.49 10.72
5/1/2022 11:45:00 PM 10.08 50.144 0.093 7.46 6.15 10.72
5/2/2022 12:00:00 AM 10.09 50.162 0.092 7.46 6.23 10.71
5/2/2022 12:15:00 AM 10.08 50.144 0.092 7.45 5.87 10.71
5/2/2022 12:30:00 AM 10.08 50.144 0.093 7.44 6 10.71
5/2/2022 12:45:00 AM 10.07 50.126 0.094 7.45 6.23 10.69
5/2/2022 1:00:00 AM 10.07 50.126 0.094 7.45 6.67 10.7
5/2/2022 1:15:00 AM 10.07 50.126 0.095 7.46 7 10.68
5/2/2022 1:30:00 AM 10.07 50.126 0.095 7.45 8.51 10.67
5/2/2022 1:45:00 AM 10.07 50.126 0.095 7.46 9.14 10.67
5/2/2022 2:00:00 AM 10.06 50.108 0.096 7.37 10.28 10.68
5/2/2022 2:15:00 AM 10.05 50.09 0.097 7.46 11.79 10.68
5/2/2022 2:30:00 AM 10.05 50.09 0.097 7.46 11.93 10.68
5/2/2022 2:45:00 AM 10.04 50.072 0.097 7.46 11.53 10.69
5/2/2022 3:00:00 AM 10.04 50.072 0.097 7.46 10.74 10.69
5/2/2022 3:15:00 AM 10.03 50.054 0.097 7.46 9.79 10.67
5/2/2022 3:30:00 AM 10.03 50.054 0.098 7.43 9.89 10.67
5/2/2022 3:45:00 AM 10.03 50.054 0.099 7.46 9.57 10.67
5/2/2022 4:00:00 AM 10.03 50.054 0.101 7.46 9.53 10.69
5/2/2022 4:15:00 AM 10.03 50.054 0.102 7.46 10.15 10.68
5/2/2022 4:30:00 AM 10.03 50.054 0.101 7.46 10.01 10.68
5/2/2022 4:45:00 AM 10.03 50.054 0.1 7.46 9.53 10.69
5/2/2022 5:00:00 AM 10.03 50.054 0.099 7.47 9.57 10.69
5/2/2022 5:15:00 AM 10.02 50.036 0.099 7.47 9.3 10.7
5/2/2022 5:30:00 AM 10.02 50.036 0.1 7.45 11.51 10.68
5/2/2022 5:45:00 AM 10.02 50.036 0.101 7.49 11.61 10.68
5/2/2022 6:00:00 AM 10.01 50.018 0.101 7.49 11.45 10.69
5/2/2022 6:15:00 AM 10.01 50.018 0.101 7.44 11.05 10.69
5/2/2022 6:30:00 AM 10.01 50.018 0.101 7.48 11.96 10.71
5/2/2022 6:45:00 AM 10 50 0.1 7.47 10.53 10.72
5/2/2022 7:00:00 AM 10 50 0.1 7.47 10 10.73
5/2/2022 7:15:00 AM 10 50 0.1 7.46 9.59 10.73
5/2/2022 7:30:00 AM 10.01 50.018 0.1 7.47 9.12 10.75
5/2/2022 7:45:00 AM 10.02 50.036 0.1 7.48 8.81 10.79
5/2/2022 8:00:00 AM 10.04 50.072 0.1 7.49 8.76 10.85
5/2/2022 8:15:00 AM 10.08 50.144 0.1 7.48 9.06 10.89
5/2/2022 8:30:00 AM 10.11 50.198 0.1 7.53 8.92 10.95
5/2/2022 8:45:00 AM 10.15 50.27 0.1 7.54 8.93 11.02
5/2/2022 9:00:00 AM 10.17 50.306 0.1 7.55 8.78 11.04
5/2/2022 9:15:00 AM 10.22 50.396 0.1 7.57 8.06 11.12
5/2/2022 9:30:00 AM 10.3 50.54 0.099 7.6 7.96 11.18
5/2/2022 9:45:00 AM 10.4 50.72 0.096 7.58 8.89 11.25
5/2/2022 10:00:00 AM 10.48 50.864 0.098 7.65 7.82 11.32
5/2/2022 10:15:00 AM 10.59 51.062 0.098 7.68 7.45 11.38
5/2/2022 10:30:00 AM 10.62 51.116 0.097 7.69 7.05 11.38
5/2/2022 10:45:00 AM 10.7 51.26 0.097 7.71 6.75 11.42
5/2/2022 11:00:00 AM 10.79 51.422 0.097 7.73 6.42 11.44
5/2/2022 11:15:00 AM 11.03 51.854 0.097 7.76 6.64 11.48
5/2/2022 11:30:00 AM 11.2 52.16 0.097 7.78 6.38 11.49
5/2/2022 11:45:00 AM 11.18 52.124 0.094 7.74 7.84 11.44
5/2/2022 12:00:00 PM 11.25 52.25 0.097 7.79 6.52 11.43
5/2/2022 12:15:00 PM 11.38 52.484 0.097 7.81 6.27 11.45
5/2/2022 12:30:00 PM 11.73 53.114 0.097 7.85 6.16 11.47
5/2/2022 12:45:00 PM 12.12 53.816 0.094 7.87 7.79 11.46
5/2/2022 1:00:00 PM 12.23 54.014 0.097 7.88 5.74 11.47
5/2/2022 1:15:00 PM 12.38 54.284 0.097 7.91 5.89 11.47
5/2/2022 1:30:00 PM 12.47 54.446 0.096 7.94 5.7 11.46
5/2/2022 1:45:00 PM 12.76 54.968 0.096 7.97 5.84 11.44
5/2/2022 2:00:00 PM 13.2 55.76 0.09 7.94 7.13 11.42
5/2/2022 2:15:00 PM 13.65 56.57 0.09 7.98 7.12 11.38
5/2/2022 2:30:00 PM 13.99 57.182 0.09 8.01 7.18 11.32
5/2/2022 2:45:00 PM 14.42 57.956 0.089 8.05 7.09 11.27
5/2/2022 3:00:00 PM 14.76 58.568 0.096 8.13 5.68 11.21
5/2/2022 3:15:00 PM 15.06 59.108 0.093 8.04 6.97 11.14
5/2/2022 3:30:00 PM 15.33 59.594 0.094 8.15 7.19 11.1
5/2/2022 3:45:00 PM 15.5 59.9 0.089 8.15 7.02 11.02
5/2/2022 4:00:00 PM 15.65 60.17 0.09 8.13 7.33 10.94
5/2/2022 4:15:00 PM 15.69 60.242 0.09 8.15 7.11 10.88
5/2/2022 4:30:00 PM 15.66 60.188 0.09 8.17 7.2 10.84
5/2/2022 4:45:00 PM 15.62 60.116 0.09 8.13 7.36 10.81
5/2/2022 5:00:00 PM 15.63 60.134 0.097 8.15 5.77 10.76
5/2/2022 5:15:00 PM 15.67 60.206 0.092 8.13 7.25 10.71
5/2/2022 5:30:00 PM 15.7 60.26 0.094 8.1 6.99 10.64
5/2/2022 5:45:00 PM 15.7 60.26 0.095 8.06 7.18 10.57
5/2/2022 6:00:00 PM 15.72 60.296 0.098 8.07 5.5 10.52
5/2/2022 6:15:00 PM 15.71 60.278 0.091 8 7.19 10.45
5/2/2022 6:30:00 PM 15.69 60.242 0.091 7.96 6.97 10.39
5/2/2022 6:45:00 PM 15.62 60.116 0.095 7.91 7.04 10.31
5/2/2022 7:00:00 PM 15.55 59.99 0.098 7.83 5.49 10.23
5/2/2022 7:15:00 PM 15.47 59.846 0.094 7.85 6.92 10.15
5/2/2022 7:30:00 PM 15.37 59.666 0.095 7.79 7.48 10.07
5/2/2022 7:45:00 PM 15.26 59.468 0.091 7.71 7.16 9.99
5/2/2022 8:00:00 PM 15.15 59.27 0.091 7.67 7.37 9.93
5/2/2022 8:15:00 PM 15.03 59.054 0.091 7.62 7.14 9.86
5/2/2022 8:30:00 PM 14.91 58.838 0.091 7.59 7.57 9.79
5/2/2022 8:45:00 PM 14.8 58.64 0.092 7.61 7.47 9.74
5/2/2022 9:00:00 PM 14.68 58.424 0.092 7.53 7.41 9.69
5/2/2022 9:15:00 PM 14.56 58.208 0.092 7.51 7.16 9.66
5/2/2022 9:30:00 PM 14.44 57.992 0.093 7.53 7.18 9.62
5/2/2022 9:45:00 PM 14.32 57.776 0.092 7.47 7.31 9.6
5/2/2022 10:00:00 PM 14.21 57.578 0.096 7.46 7.69 9.59
5/2/2022 10:15:00 PM 14.09 57.362 0.1 7.48 5.95 9.58
5/2/2022 10:30:00 PM 13.98 57.164 0.098 7.43 7.57 9.57
5/2/2022 10:45:00 PM 13.86 56.948 0.1 7.46 6.3 9.59
5/2/2022 11:00:00 PM 13.75 56.75 0.093 7.4 7.47 9.6
5/2/2022 11:15:00 PM 13.63 56.534 0.094 7.4 7.7 9.61
5/2/2022 11:30:00 PM 13.51 56.318 0.1 7.44 6.24 9.63
5/2/2022 11:45:00 PM 13.39 56.102 0.094 7.44 8.11 9.66
5/3/2022 12:00:00 AM 13.27 55.886 0.096 7.4 7.67 9.68
5/3/2022 12:15:00 AM 13.15 55.67 0.096 7.39 8.43 9.7
5/3/2022 12:30:00 AM 13.02 55.436 0.1 7.43 5.85 9.74
5/3/2022 12:45:00 AM 12.9 55.22 0.1 7.43 6.02 9.77
5/3/2022 1:00:00 AM 12.77 54.986 0.1 7.43 5.4 9.79
5/3/2022 1:15:00 AM 12.65 54.77 0.1 7.43 5.75 9.84
5/3/2022 1:30:00 AM 12.53 54.554 0.1 7.43 6.02 9.86
5/3/2022 1:45:00 AM 12.42 54.356 0.1 7.43 5.87 9.89
5/3/2022 2:00:00 AM 12.31 54.158 0.1 7.43 6.13 9.92
5/3/2022 2:15:00 AM 12.2 53.96 0.1 7.43 5.63 9.95
5/3/2022 2:30:00 AM 12.09 53.762 0.1 7.43 5.67 9.98
5/3/2022 2:45:00 AM 11.99 53.582 0.1 7.43 5.95 10
5/3/2022 3:00:00 AM 11.89 53.402 0.1 7.43 5.56 10.03
5/3/2022 3:15:00 AM 11.79 53.222 0.1 7.43 6.01 10.06
5/3/2022 3:30:00 AM 11.68 53.024 0.1 7.43 5.74 10.09
5/3/2022 3:45:00 AM 11.58 52.844 0.1 7.41 5.69 10.12
5/3/2022 4:00:00 AM 11.48 52.664 0.1 7.43 5.65 10.14
5/3/2022 4:15:00 AM 11.38 52.484 0.1 7.43 5.33 10.17
5/3/2022 4:30:00 AM 11.28 52.304 0.1 7.43 5.45 10.21
5/3/2022 4:45:00 AM 11.18 52.124 0.1 7.43 5.16 10.23
5/3/2022 5:00:00 AM 11.07 51.926 0.1 7.42 5.24 10.26
5/3/2022 5:15:00 AM 10.97 51.746 0.1 7.35 5.59 10.28
5/3/2022 5:30:00 AM 10.86 51.548 0.095 7.4 7.16 10.32
5/3/2022 5:45:00 AM 10.76 51.368 0.1 7.43 5.28 10.35
5/3/2022 6:00:00 AM 10.67 51.206 0.1 7.42 5.33 10.38
5/3/2022 6:15:00 AM 10.57 51.026 0.1 7.43 5.24 10.41
5/3/2022 6:30:00 AM 10.48 50.864 0.1 7.43 5.38 10.46
5/3/2022 6:45:00 AM 10.4 50.72 0.1 7.44 5.22 10.52
5/3/2022 7:00:00 AM 10.34 50.612 0.1 7.45 5.18 10.57
5/3/2022 7:15:00 AM 10.28 50.504 0.1 7.46 5.01 10.66
5/3/2022 7:30:00 AM 10.24 50.432 0.1 7.48 5.06 10.75
5/3/2022 7:45:00 AM 10.22 50.396 0.1 7.5 4.83 10.84
5/3/2022 8:00:00 AM 10.2 50.36 0.1 7.52 4.97 10.93
5/3/2022 8:15:00 AM 10.22 50.396 0.1 7.54 4.71 11.04
5/3/2022 8:30:00 AM 10.21 50.378 0.1 7.57 5.6 11.13
5/3/2022 8:45:00 AM 10.24 50.432 0.099 7.59 5.01 11.24
5/3/2022 9:00:00 AM 10.28 50.504 0.099 7.62 4.76 11.33
5/3/2022 9:15:00 AM 10.33 50.594 0.099 7.64 4.85 11.41
5/3/2022 9:30:00 AM 10.38 50.684 0.099 7.68 4.85 11.47
5/3/2022 9:45:00 AM 10.43 50.774 0.098 7.71 4.71 11.54
5/3/2022 10:00:00 AM 10.49 50.882 0.098 7.72 4.93 11.57
5/3/2022 10:15:00 AM 10.59 51.062 0.098 7.76 4.67 11.62
5/3/2022 10:30:00 AM 10.75 51.35 0.098 7.8 4.71 11.67
5/3/2022 10:45:00 AM 10.89 51.602 0.098 7.84 4.56 11.71
5/3/2022 11:00:00 AM 11.06 51.908 0.098 7.85 4.41 11.72
5/3/2022 11:15:00 AM 11.3 52.34 0.097 7.9 4.62 11.75
5/3/2022 11:30:00 AM 11.41 52.538 0.097 7.92 4.5 11.75
5/3/2022 11:45:00 AM 11.56 52.808 0.097 7.96 4.67 11.75
5/3/2022 12:00:00 PM 11.72 53.096 0.097 7.98 4.35 11.76
5/3/2022 12:15:00 PM 11.88 53.384 0.091 7.96 6.76 11.73
5/3/2022 12:30:00 PM 12.04 53.672 0.094 8.01 6.07 11.71
5/3/2022 12:45:00 PM 12.23 54.014 0.091 8.03 5.98 11.68
5/3/2022 1:00:00 PM 12.4 54.32 0.091 8.05 5.88 11.67
5/3/2022 1:15:00 PM 12.62 54.716 0.09 8.1 6.26 11.65
5/3/2022 1:30:00 PM 12.94 55.292 0.09 8.11 6.25 11.61
5/3/2022 1:45:00 PM 13.22 55.796 0.09 8.16 5.87 11.57
5/3/2022 2:00:00 PM 13.41 56.138 0.09 8.18 5.84 11.53
5/3/2022 2:15:00 PM 13.54 56.372 0.09 8.22 5.82 11.5
5/3/2022 2:30:00 PM 13.62 56.516 0.09 8.23 5.47 11.44
5/3/2022 2:45:00 PM 13.65 56.57 0.09 8.21 5.81 11.34
5/3/2022 3:00:00 PM 13.71 56.678 0.09 8.17 5.9 11.24
5/3/2022 3:15:00 PM 13.78 56.804 0.096 8.18 4.27 11.17
5/3/2022 3:30:00 PM 13.86 56.948 0.092 8.16 5.68 11.12
5/3/2022 3:45:00 PM 13.93 57.074 0.089 8.15 6.15 11.08
5/3/2022 4:00:00 PM 13.98 57.164 0.089 8.14 6.1 11.04
5/3/2022 4:15:00 PM 14 57.2 0.089 8.13 6.26 10.98
5/3/2022 4:30:00 PM 14.02 57.236 0.09 8.1 6.25 10.95
5/3/2022 4:45:00 PM 14.02 57.236 0.09 8.06 6.65 10.93
5/3/2022 5:00:00 PM 14.04 57.272 0.09 8.07 6.42 10.91
5/3/2022 5:15:00 PM 14.05 57.29 0.089 8.06 6.38 10.9
5/3/2022 5:30:00 PM 14.05 57.29 0.096 8.08 49.33 10.86
5/3/2022 5:45:00 PM 14.05 57.29 0.09 8 5.84 10.81
5/3/2022 6:00:00 PM 14.07 57.326 0.093 7.99 6.47 10.78
5/3/2022 6:15:00 PM 14.08 57.344 0.093 7.97 5.79 10.72
5/3/2022 6:30:00 PM 14.08 57.344 0.093 7.94 5.9 10.68
5/3/2022 6:45:00 PM 14.07 57.326 0.093 7.89 5.67 10.6
5/3/2022 7:00:00 PM 14.05 57.29 0.093 7.83 5.59 10.53
5/3/2022 7:15:00 PM 14.03 57.254 0.09 7.79 5.72 10.45
5/3/2022 7:30:00 PM 14.01 57.218 0.09 7.75 5.76 10.38
5/3/2022 7:45:00 PM 13.98 57.164 0.089 7.72 5.66 10.3
5/3/2022 8:00:00 PM 13.94 57.092 0.089 7.68 5.78 10.19
5/3/2022 8:15:00 PM 13.89 57.002 0.09 7.62 5.99 10.12
5/3/2022 8:30:00 PM 13.84 56.912 0.091 7.57 5.95 10.05
5/3/2022 8:45:00 PM 13.8 56.84 0.096 7.6 4.19 10
5/3/2022 9:00:00 PM 13.76 56.768 0.091 7.54 6.22 9.93
5/3/2022 9:15:00 PM 13.72 56.696 0.096 7.56 4.44 9.89
5/3/2022 9:30:00 PM 13.68 56.624 0.094 7.51 6.1 9.84
5/3/2022 9:45:00 PM 13.63 56.534 0.097 7.51 4.49 9.79
5/3/2022 10:00:00 PM 13.59 56.462 0.094 7.47 6.41 9.76
5/3/2022 10:15:00 PM 13.55 56.39 0.094 7.45 5.65 9.75
5/3/2022 10:30:00 PM 13.51 56.318 0.095 7.33 6.18 9.73
5/3/2022 10:45:00 PM 13.46 56.228 0.095 7.45 6 9.71
5/3/2022 11:00:00 PM 13.42 56.156 0.095 7.42 7.81 9.71
5/3/2022 11:15:00 PM 13.38 56.084 0.097 7.45 4.6 9.71
5/3/2022 11:30:00 PM 13.36 56.048 0.094 7.45 6.63 9.7
5/3/2022 11:45:00 PM 13.32 55.976 0.097 7.44 4.86 9.71
5/4/2022 12:00:00 AM 13.29 55.922 0.095 7.41 6.48 9.7
5/4/2022 12:15:00 AM 13.26 55.868 0.098 7.44 4.78 9.71
5/4/2022 12:30:00 AM 13.23 55.814 0.095 7.3 6.93 9.72
5/4/2022 12:45:00 AM 13.2 55.76 0.098 7.44 5.08 9.72
5/4/2022 1:00:00 AM 13.17 55.706 0.099 7.4 5.31 9.73
5/4/2022 1:15:00 AM 13.14 55.652 0.096 7.41 7.13 9.72
5/4/2022 1:30:00 AM 13.1 55.58 0.1 7.45 5.68 9.74
5/4/2022 1:45:00 AM 13.07 55.526 0.1 7.45 5.68 9.74
5/4/2022 2:00:00 AM 13.04 55.472 0.098 7.42 7.67 9.75
5/4/2022 2:15:00 AM 13 55.4 0.098 7.42 7.48 9.77
5/4/2022 2:30:00 AM 12.96 55.328 0.101 7.45 5.71 9.77
5/4/2022 2:45:00 AM 12.92 55.256 0.099 7.42 7.78 9.79
5/4/2022 3:00:00 AM 12.89 55.202 0.098 7.42 7.73 9.79
5/4/2022 3:15:00 AM 12.85 55.13 0.102 7.45 6.48 9.8
5/4/2022 3:30:00 AM 12.82 55.076 0.1 7.42 8.78 9.82
5/4/2022 3:45:00 AM 12.79 55.022 0.1 7.42 7.91 9.82
5/4/2022 4:00:00 AM 12.76 54.968 0.104 7.45 6.2 9.83
5/4/2022 4:15:00 AM 12.73 54.914 0.105 7.45 6.05 9.83
5/4/2022 4:30:00 AM 12.7 54.86 0.106 7.46 6.54 9.84
5/4/2022 4:45:00 AM 12.67 54.806 0.106 7.46 6.31 9.86
5/4/2022 5:00:00 AM 12.64 54.752 0.106 7.46 6.52 9.86
5/4/2022 5:15:00 AM 12.62 54.716 0.105 7.46 6.23 9.88
5/4/2022 5:30:00 AM 12.59 54.662 0.105 7.46 6.48 9.89
5/4/2022 5:45:00 AM 12.57 54.626 0.104 7.46 6.05 9.89
5/4/2022 6:00:00 AM 12.54 54.572 0.101 7.43 7.62 9.9
5/4/2022 6:15:00 AM 12.51 54.518 0.104 7.46 6.35 9.91
5/4/2022 6:30:00 AM 12.49 54.482 0.104 7.46 6.6 9.92
5/4/2022 6:45:00 AM 12.47 54.446 0.104 7.46 6.64 9.93
5/4/2022 7:00:00 AM 12.44 54.392 0.104 7.46 6.22 9.95
5/4/2022 7:15:00 AM 12.42 54.356 0.105 7.47 6.53 9.96
5/4/2022 7:30:00 AM 12.4 54.32 0.105 7.47 6.89 9.99
5/4/2022 7:45:00 AM 12.38 54.284 0.105 7.48 5.94 10.02
5/4/2022 8:00:00 AM 12.36 54.248 0.105 7.48 6.95 10.04
5/4/2022 8:15:00 AM 12.35 54.23 0.105 7.49 6.97 10.09
5/4/2022 8:30:00 AM 12.35 54.23 0.105 7.51 6.99 10.13
5/4/2022 8:45:00 AM 12.34 54.212 0.105 7.52 6.73 10.18
5/4/2022 9:00:00 AM 12.33 54.194 0.105 7.53 6.93 10.21
5/4/2022 9:15:00 AM 12.32 54.176 0.106 7.54 6.82 10.26
5/4/2022 9:30:00 AM 12.33 54.194 0.106 7.55 6.78 10.33
5/4/2022 9:45:00 AM 12.35 54.23 0.104 7.53 8.08 10.39
5/4/2022 10:00:00 AM 12.37 54.266 0.099 7.55 8.94 10.46
5/4/2022 10:15:00 AM 12.39 54.302 0.106 7.61 7.26 10.54
5/4/2022 10:30:00 AM 12.42 54.356 0.105 7.64 6.95 10.61
5/4/2022 10:45:00 AM 12.46 54.428 0.105 7.67 6.93 10.67
5/4/2022 11:00:00 AM 12.5 54.5 0.105 7.69 7.65 10.73
5/4/2022 11:15:00 AM 12.58 54.644 0.097 7.69 8.82 10.82
5/4/2022 11:30:00 AM 12.63 54.734 0.105 7.76 7.01 10.87
5/4/2022 11:45:00 AM 12.71 54.878 0.105 7.79 6.97 10.92
5/4/2022 12:00:00 PM 12.78 55.004 0.105 7.82 7.57 10.96
5/4/2022 12:15:00 PM 12.88 55.184 0.105 7.85 7.95 11.01
5/4/2022 12:30:00 PM 13.1 55.58 0.104 7.9 7.94 11.06
5/4/2022 12:45:00 PM 13.25 55.85 0.105 7.93 7.3 11.08
5/4/2022 1:00:00 PM 13.47 56.246 0.104 7.97 7.73 11.11
5/4/2022 1:15:00 PM 13.61 56.498 0.104 8.01 7.87 11.12
5/4/2022 1:30:00 PM 13.85 56.93 0.104 8.03 8.38 11.12
5/4/2022 1:45:00 PM 14.13 57.434 0.104 7.99 9.34 11.12
5/4/2022 2:00:00 PM 14.14 57.452 0.104 8.07 9.63 11.06
5/4/2022 2:15:00 PM 14.16 57.488 0.104 8.04 9.59 10.96
5/4/2022 2:30:00 PM 14.36 57.848 0.098 8.02 10.65 10.95
5/4/2022 2:45:00 PM 14.58 58.244 0.096 8.04 10.7 10.94
5/4/2022 3:00:00 PM 14.67 58.406 0.096 8.05 9.88 10.9
5/4/2022 3:15:00 PM 14.68 58.424 0.095 8.05 9.91 10.84
5/4/2022 3:30:00 PM 14.7 58.46 0.095 8.01 9.9 10.77
5/4/2022 3:45:00 PM 14.72 58.496 0.103 8.01 8.43 10.69
5/4/2022 4:00:00 PM 14.77 58.586 0.097 7.93 8.96 10.6
5/4/2022 4:15:00 PM 14.82 58.676 0.1 7.9 8.97 10.51
5/4/2022 4:30:00 PM 14.86 58.748 0.102 7.9 8.15 10.44
5/4/2022 4:45:00 PM 14.81 58.658 0.102 7.86 2903.13 10.36
5/4/2022 5:00:00 PM 14.72 58.496 0.103 7.82 7.11 10.32
5/4/2022 5:15:00 PM 14.65 58.37 0.098 7.76 8.73 10.26
5/4/2022 5:30:00 PM 14.66 58.388 0.1 7.75 8.63 10.25
5/4/2022 5:45:00 PM 14.71 58.478 0.096 7.75 8.69 10.25
5/4/2022 6:00:00 PM 14.72 58.496 0.103 7.77 6.53 10.21
5/4/2022 6:15:00 PM 14.74 58.532 0.097 7.73 8.63 10.21
5/4/2022 6:30:00 PM 14.74 58.532 0.099 7.73 8.2 10.19
5/4/2022 6:45:00 PM 14.72 58.496 0.103 7.74 6.87 10.16
5/4/2022 7:00:00 PM 14.69 58.442 0.103 7.73 6.8 10.12
5/4/2022 7:15:00 PM 14.65 58.37 0.1 7.68 8.17 10.09
5/4/2022 7:30:00 PM 14.6 58.28 0.1 7.66 8.58 10.06
5/4/2022 7:45:00 PM 14.54 58.172 0.1 7.64 8.45 10.01
5/4/2022 8:00:00 PM 14.47 58.046 0.103 7.65 7.14 9.95
5/4/2022 8:15:00 PM 14.39 57.902 0.101 7.59 9.17 9.9
5/4/2022 8:30:00 PM 14.32 57.776 0.101 7.56 9.01 9.86
5/4/2022 8:45:00 PM 14.24 57.632 0.101 7.55 9.53 9.82
5/4/2022 9:00:00 PM 14.17 57.506 0.101 7.53 8.8 9.78
5/4/2022 9:15:00 PM 14.11 57.398 0.104 7.55 7.33 9.76
5/4/2022 9:30:00 PM 14.04 57.272 0.104 7.53 7.78 9.74
5/4/2022 9:45:00 PM 13.98 57.164 0.104 7.53 8.07 9.72
5/4/2022 10:00:00 PM 13.92 57.056 0.104 7.51 7.51 9.72
5/4/2022 10:15:00 PM 13.86 56.948 0.104 7.51 7.6 9.72
5/4/2022 10:30:00 PM 13.8 56.84 0.104 7.5 7.46 9.72
5/4/2022 10:45:00 PM 13.74 56.732 0.104 7.49 7.48 9.73
5/4/2022 11:00:00 PM 13.68 56.624 0.104 7.49 8.08 9.73
5/4/2022 11:15:00 PM 13.63 56.534 0.105 7.49 7.24 9.74
5/4/2022 11:30:00 PM 13.58 56.444 0.105 7.48 7.37 9.75
5/4/2022 11:45:00 PM 13.53 56.354 0.105 7.48 8.27 9.76
5/5/2022 12:00:00 AM 13.49 56.282 0.105 7.48 7.6 9.77
5/5/2022 12:15:00 AM 13.45 56.21 0.104 7.48 7.54 9.78
5/5/2022 12:30:00 AM 13.4 56.12 0.104 7.47 7.25 9.79
5/5/2022 12:45:00 AM 13.35 56.03 0.105 7.47 7.97 9.8
5/5/2022 1:00:00 AM 13.31 55.958 0.104 7.48 7.24 9.81
5/5/2022 1:15:00 AM 13.27 55.886 0.104 7.47 7.6 9.82
5/5/2022 1:30:00 AM 13.23 55.814 0.104 7.47 7.53 9.83
5/5/2022 1:45:00 AM 13.19 55.742 0.104 7.47 7.4 9.84
5/5/2022 2:00:00 AM 13.16 55.688 0.104 7.46 7.56 9.85
5/5/2022 2:15:00 AM 13.12 55.616 0.104 7.46 7.24 9.86
5/5/2022 2:30:00 AM 13.08 55.544 0.104 7.47 7.19 9.87
5/5/2022 2:45:00 AM 13.04 55.472 0.104 7.46 7.37 9.88
5/5/2022 3:00:00 AM 13.01 55.418 0.099 7.42 9.03 9.89
5/5/2022 3:15:00 AM 12.98 55.364 0.104 7.46 7.16 9.89
5/5/2022 3:30:00 AM 12.94 55.292 0.104 7.46 7.1 9.91
5/5/2022 3:45:00 AM 12.91 55.238 0.104 7.45 6.98 9.92
5/5/2022 4:00:00 AM 12.87 55.166 0.104 7.45 7.07 9.93
5/5/2022 4:15:00 AM 12.83 55.094 0.104 7.46 6.23 9.93
5/5/2022 4:30:00 AM 12.78 55.004 0.104 7.46 7.03 9.95
5/5/2022 4:45:00 AM 12.71 54.878 0.104 7.46 7.02 9.95
5/5/2022 5:00:00 AM 12.65 54.77 0.104 7.45 7.27 9.97
5/5/2022 5:15:00 AM 12.58 54.644 0.104 7.45 6.55 9.97
5/5/2022 5:30:00 AM 12.5 54.5 0.104 7.45 6.76 9.99
5/5/2022 5:45:00 AM 12.42 54.356 0.104 7.45 6.7 10.01
5/5/2022 6:00:00 AM 12.33 54.194 0.104 7.36 6.37 10.04
5/5/2022 6:15:00 AM 12.24 54.032 0.104 7.46 6.64 10.06
5/5/2022 6:30:00 AM 12.16 53.888 0.104 7.46 6.36 10.09
5/5/2022 6:45:00 AM 12.08 53.744 0.104 7.46 6.37 10.14
5/5/2022 7:00:00 AM 12.02 53.636 0.096 7.39 8.02 10.2
5/5/2022 7:15:00 AM 11.97 53.546 0.096 7.44 7.64 10.27
5/5/2022 7:30:00 AM 11.93 53.474 0.103 7.5 6.31 10.34
5/5/2022 7:45:00 AM 11.91 53.438 0.103 7.52 5.92 10.43
5/5/2022 8:00:00 AM 11.89 53.402 0.103 7.53 6.02 10.51
5/5/2022 8:15:00 AM 11.89 53.402 0.103 7.56 5.93 10.6
5/5/2022 8:30:00 AM 11.89 53.402 0.1 7.55 7.19 10.7
5/5/2022 8:45:00 AM 11.96 53.528 0.1 7.58 7.14 10.8
5/5/2022 9:00:00 AM 12.01 53.618 0.102 7.65 5.51 10.9
5/5/2022 9:15:00 AM 12.11 53.798 0.095 7.63 6.95 10.99
5/5/2022 9:30:00 AM 12.21 53.978 0.095 7.67 6.99 11.07
5/5/2022 9:45:00 AM 12.3 54.14 0.095 7.71 7.02 11.14
5/5/2022 10:00:00 AM 12.4 54.32 0.095 7.75 6.82 11.19
5/5/2022 10:15:00 AM 12.51 54.518 0.095 7.79 6.85 11.24
5/5/2022 10:30:00 AM 12.62 54.716 0.095 7.83 6.84 11.27
5/5/2022 10:45:00 AM 12.83 55.094 0.094 7.87 6.91 11.31
5/5/2022 11:00:00 AM 13.07 55.526 0.094 7.92 6.89 11.34
5/5/2022 11:15:00 AM 13.35 56.03 0.093 7.98 6.53 11.35
5/5/2022 11:30:00 AM 13.65 56.57 0.094 8.02 6.63 11.35
5/5/2022 11:45:00 AM 13.92 57.056 0.092 8.05 6.64 11.33
5/5/2022 12:00:00 PM 14.17 57.506 0.092 8.11 6.56 11.32
5/5/2022 12:15:00 PM 14.44 57.992 0.092 8.16 6.65 11.31
5/5/2022 12:30:00 PM 14.72 58.496 0.092 8.2 6.52 11.28
5/5/2022 12:45:00 PM 14.98 58.964 0.092 8.25 6.56 11.25
5/5/2022 1:00:00 PM 15.18 59.324 0.091 8.29 6.42 11.21
5/5/2022 1:15:00 PM 15.37 59.666 0.098 8.38 4.77 11.18
5/5/2022 1:30:00 PM 15.6 60.08 0.098 8.42 4.85 11.14
5/5/2022 1:45:00 PM 15.79 60.422 0.098 8.45 5.05 11.09
5/5/2022 2:00:00 PM 15.92 60.656 0.098 8.49 5.09 11.05
5/5/2022 2:15:00 PM 16.07 60.926 0.097 8.51 4.84 11.02
5/5/2022 2:30:00 PM 16.19 61.142 0.097 8.53 5.19 10.98
5/5/2022 2:45:00 PM 16.3 61.34 0.097 8.56 5.2 10.94
5/5/2022 3:00:00 PM 16.48 61.664 0.097 8.6 5.58 10.91
5/5/2022 3:15:00 PM 16.62 61.916 0.097 8.6 5.68 10.86
5/5/2022 3:30:00 PM 16.74 62.132 0.097 8.62 5.57 10.81
5/5/2022 3:45:00 PM 16.83 62.294 0.096 8.62 5.73 10.77
5/5/2022 4:00:00 PM 16.87 62.366 0.096 8.63 5.49 10.71
5/5/2022 4:15:00 PM 16.93 62.474 0.096 8.6 5.5 10.66
5/5/2022 4:30:00 PM 16.97 62.546 0.096 8.61 5.21 10.61
5/5/2022 4:45:00 PM 16.98 62.564 0.096 8.6 5.3 10.55
5/5/2022 5:00:00 PM 17.02 62.636 0.096 8.56 5.12 10.49
5/5/2022 5:15:00 PM 17.02 62.636 0.096 8.55 5.34 10.43
5/5/2022 5:30:00 PM 17 62.6 0.096 8.51 5.34 10.39
5/5/2022 5:45:00 PM 16.97 62.546 0.096 8.46 5.72 10.34
5/5/2022 6:00:00 PM 16.89 62.402 0.096 8.38 5.94 10.27
5/5/2022 6:15:00 PM 16.82 62.276 0.096 8.29 5.76 10.19
5/5/2022 6:30:00 PM 16.77 62.186 0.095 8.21 5.71 10.13
5/5/2022 6:45:00 PM 16.73 62.114 0.095 8.13 5.51 10.05
5/5/2022 7:00:00 PM 16.69 62.042 0.095 8.04 6.52 9.96
5/5/2022 7:15:00 PM 16.64 61.952 0.095 7.95 5.48 9.88
5/5/2022 7:30:00 PM 16.58 61.844 0.095 7.88 8.16 9.8
5/5/2022 7:45:00 PM 16.49 61.682 0.096 7.75 5.21 9.71
5/5/2022 8:00:00 PM 16.42 61.556 0.096 7.74 5.41 9.61
5/5/2022 8:15:00 PM 16.35 61.43 0.096 7.68 5.74 9.53
5/5/2022 8:30:00 PM 16.28 61.304 0.096 7.63 5.43 9.45
5/5/2022 8:45:00 PM 16.2 61.16 0.096 7.59 5.88 9.38
5/5/2022 9:00:00 PM 16.12 61.016 0.096 7.55 5.72 9.32
5/5/2022 9:15:00 PM 16.04 60.872 0.096 7.53 6.14 9.28
5/5/2022 9:30:00 PM 15.95 60.71 0.096 7.5 5.82 9.24
5/5/2022 9:45:00 PM 15.87 60.566 0.097 7.5 5.82 9.22
5/5/2022 10:00:00 PM 15.78 60.404 0.097 7.48 6.31 9.2
5/5/2022 10:15:00 PM 15.7 60.26 0.097 7.47 6.45 9.2
5/5/2022 10:30:00 PM 15.62 60.116 0.097 7.46 6.58 9.2
5/5/2022 10:45:00 PM 15.54 59.972 0.096 7.45 6.13 9.2
5/5/2022 11:00:00 PM 15.47 59.846 0.097 7.44 6.21 9.21
5/5/2022 11:15:00 PM 15.41 59.738 0.097 7.43 6.55 9.22
5/5/2022 11:30:00 PM 15.35 59.63 0.097 7.41 6.57 9.22
5/5/2022 11:45:00 PM 15.28 59.504 0.096 7.37 6.48 9.23
5/6/2022 12:00:00 AM 15.22 59.396 0.096 7.42 6.54 9.25
5/6/2022 12:15:00 AM 15.15 59.27 0.096 7.43 6.4 9.27
5/6/2022 12:30:00 AM 15.08 59.144 0.096 7.42 6.41 9.28
5/6/2022 12:45:00 AM 15.01 59.018 0.096 7.43 6.63 9.29
5/6/2022 1:00:00 AM 14.95 58.91 0.096 7.42 6.43 9.31
5/6/2022 1:15:00 AM 14.88 58.784 0.096 7.41 6.92 9.32
5/6/2022 1:30:00 AM 14.81 58.658 0.096 7.41 6.73 9.34
5/6/2022 1:45:00 AM 14.74 58.532 0.096 7.41 6.84 9.35
5/6/2022 2:00:00 AM 14.67 58.406 0.096 7.42 6.63 9.38
5/6/2022 2:15:00 AM 14.6 58.28 0.096 7.42 6.85 9.39
5/6/2022 2:30:00 AM 14.53 58.154 0.096 7.42 6.46 9.41
5/6/2022 2:45:00 AM 14.45 58.01 0.096 7.42 6.75 9.43
5/6/2022 3:00:00 AM 14.39 57.902 0.095 7.42 6.1 9.44
5/6/2022 3:15:00 AM 14.31 57.758 0.095 7.42 6.66 9.47
5/6/2022 3:30:00 AM 14.24 57.632 0.095 7.42 6.58 9.49
5/6/2022 3:45:00 AM 14.17 57.506 0.095 7.42 6.59 9.5
5/6/2022 4:00:00 AM 14.1 57.38 0.095 7.42 6.88 9.52
5/6/2022 4:15:00 AM 14.03 57.254 0.095 7.42 6.92 9.53
5/6/2022 4:30:00 AM 13.96 57.128 0.095 7.43 6.95 9.56
5/6/2022 4:45:00 AM 13.89 57.002 0.095 7.43 6.43 9.58
5/6/2022 5:00:00 AM 13.82 56.876 0.095 7.43 6.22 9.59
5/6/2022 5:15:00 AM 13.76 56.768 0.095 7.42 6.61 9.61
5/6/2022 5:30:00 AM 13.69 56.642 0.094 7.43 6.52 9.62
5/6/2022 5:45:00 AM 13.63 56.534 0.095 7.42 7.18 9.64
5/6/2022 6:00:00 AM 13.56 56.408 0.094 7.43 6.41 9.66
5/6/2022 6:15:00 AM 13.49 56.282 0.094 7.43 7.03 9.68
5/6/2022 6:30:00 AM 13.42 56.156 0.094 7.42 12.17 9.7
5/6/2022 6:45:00 AM 13.35 56.03 0.094 7.43 6.55 9.73
5/6/2022 7:00:00 AM 13.29 55.922 0.094 7.43 6.6 9.75
5/6/2022 7:15:00 AM 13.22 55.796 0.094 7.44 6.83 9.78
5/6/2022 7:30:00 AM 13.16 55.688 0.093 7.45 6.32 9.82
5/6/2022 7:45:00 AM 13.09 55.562 0.093 7.46 6.66 9.86
5/6/2022 8:00:00 AM 13.03 55.454 0.093 7.46 6.23 9.9
5/6/2022 8:15:00 AM 12.96 55.328 0.093 7.47 6.59 9.94
5/6/2022 8:30:00 AM 12.91 55.238 0.091 7.44 8.9 10
5/6/2022 8:45:00 AM 12.86 55.148 0.087 7.46 8.08 10.07
5/6/2022 9:00:00 AM 12.8 55.04 0.093 7.43 6.71 10.11
5/6/2022 9:15:00 AM 12.75 54.95 0.093 7.52 6.66 10.16
5/6/2022 9:30:00 AM 12.7 54.86 0.093 7.53 7.6 10.21
5/6/2022 9:45:00 AM 12.66 54.788 0.093 7.55 7.69 10.26
5/6/2022 10:00:00 AM 12.62 54.716 0.093 7.56 9.16 10.3
5/6/2022 10:15:00 AM 12.59 54.662 0.094 7.58 8.35 10.38
5/6/2022 10:30:00 AM 12.56 54.608 0.094 7.59 8.09 10.43
5/6/2022 10:45:00 AM 12.52 54.536 0.088 7.56 9.52 10.46
5/6/2022 11:00:00 AM 12.49 54.482 0.088 7.54 10.22 10.52
5/6/2022 11:15:00 AM 12.45 54.41 0.094 7.53 11.21 10.55
5/6/2022 11:30:00 AM 12.43 54.374 0.09 7.61 10.8 10.59
5/6/2022 11:45:00 AM 12.4 54.32 0.096 7.65 10.31 10.61
5/6/2022 12:00:00 PM 12.37 54.266 0.098 7.66 10.46 10.61
5/6/2022 12:15:00 PM 12.35 54.23 0.093 7.61 14.43 10.6
5/6/2022 12:30:00 PM 12.31 54.158 0.094 7.62 16.87 10.6
5/6/2022 12:45:00 PM 12.28 54.104 0.096 7.62 18.16 10.59
5/6/2022 1:00:00 PM 12.25 54.05 0.099 7.61 21.91 10.58
5/6/2022 1:15:00 PM 12.21 53.978 0.106 7.64 23.24 10.55
5/6/2022 1:30:00 PM 12.19 53.942 0.107 7.62 30.16 10.53
5/6/2022 1:45:00 PM 12.17 53.906 0.108 7.59 44.29 10.48
5/6/2022 2:00:00 PM 12.15 53.87 0.105 7.55 54.4 10.43
5/6/2022 2:15:00 PM 12.13 53.834 0.104 7.52 63.95 10.38
5/6/2022 2:30:00 PM 12.11 53.798 0.097 7.46 72.62 10.34
5/6/2022 2:45:00 PM 12.09 53.762 0.103 7.49 75.99 10.31
5/6/2022 3:00:00 PM 12.08 53.744 0.102 7.47 80.52 10.29
5/6/2022 3:15:00 PM 12.06 53.708 0.094 7.41 94.04 10.27
5/6/2022 3:30:00 PM 12.03 53.654 0.098 7.44 104.71 10.25
5/6/2022 3:45:00 PM 11.98 53.564 0.091 7.38 104.75 10.23
5/6/2022 4:00:00 PM 11.93 53.474 0.093 7.39 113.15 10.23
5/6/2022 4:15:00 PM 11.88 53.384 0.089 7.37 134.12 10.22
5/6/2022 4:30:00 PM 11.85 53.33 0.088 7.36 135.26 10.22
5/6/2022 4:45:00 PM 11.82 53.276 0.088 7.36 122.64 10.21
5/6/2022 5:00:00 PM 11.77 53.186 0.087 7.35 133.42 10.21
5/6/2022 5:15:00 PM 11.74 53.132 0.085 7.33 133.85 10.22
5/6/2022 5:30:00 PM 11.7 53.06 0.083 7.33 135.14 10.22
5/6/2022 5:45:00 PM 11.68 53.024 0.083 7.32 155.83 10.23
5/6/2022 6:00:00 PM 11.65 52.97 0.082 7.31 130.52 10.23
5/6/2022 6:15:00 PM 11.63 52.934 0.085 7.19 144.26 10.23
5/6/2022 6:30:00 PM 11.6 52.88 0.081 7.27 131 10.24
5/6/2022 6:45:00 PM 11.57 52.826 0.086 7.3 129.13 10.24
5/6/2022 7:00:00 PM 11.53 52.754 0.081 7.28 124.98 10.24
5/6/2022 7:15:00 PM 11.5 52.7 0.08 7.29 128.72 10.25
5/6/2022 7:30:00 PM 11.46 52.628 0.083 7.25 127.41 10.25
5/6/2022 7:45:00 PM 11.42 52.556 0.085 7.3 116.79 10.26
5/6/2022 8:00:00 PM 11.39 52.502 0.077 7.29 111.94 10.27
5/6/2022 8:15:00 PM 11.35 52.43 0.085 7.32 121.72 10.28
5/6/2022 8:30:00 PM 11.31 52.358 0.083 7.22 113.46 10.29
5/6/2022 8:45:00 PM 11.27 52.286 0.083 7.25 110.7 10.31
5/6/2022 9:00:00 PM 11.24 52.232 0.08 7.22 100.32 10.31
5/6/2022 9:15:00 PM 11.2 52.16 0.079 7.23 98 10.32
5/6/2022 9:30:00 PM 11.17 52.106 0.079 7.24 88.75 10.33
5/6/2022 9:45:00 PM 11.13 52.034 0.079 7.25 91.76 10.34
5/6/2022 10:00:00 PM 11.1 51.98 0.083 7.28 95.95 10.36
5/6/2022 10:15:00 PM 11.06 51.908 0.082 7.27 93.06 10.37
5/6/2022 10:30:00 PM 11.03 51.854 0.077 7.08 87.17 10.37
5/6/2022 10:45:00 PM 11 51.8 0.079 7.24 89.3 10.38
5/6/2022 11:00:00 PM 10.96 51.728 0.066 7.27 96.24 10.39
5/6/2022 11:15:00 PM 10.92 51.656 0.064 7.26 99.56 10.4
5/6/2022 11:30:00 PM 10.88 51.584 0.064 7.27 97.08 10.41
5/6/2022 11:45:00 PM 10.85 51.53 0.078 7.26 92.62 10.41
5/7/2022 12:00:00 AM 10.81 51.458 0.08 7.27 96.12 10.42
5/7/2022 12:15:00 AM 10.77 51.386 0.074 7.21 93.35 10.44
5/7/2022 12:30:00 AM 10.73 51.314 0.077 7.27 90.63 10.45
5/7/2022 12:45:00 AM 10.7 51.26 0.074 7.22 94.06 10.46
5/7/2022 1:00:00 AM 10.67 51.206 0.077 7.3 91.37 10.47
5/7/2022 1:15:00 AM 10.63 51.134 0.073 7.29 90.96 10.48
5/7/2022 1:30:00 AM 10.6 51.08 0.073 7.26 94.58 10.5
5/7/2022 1:45:00 AM 10.58 51.044 0.073 7.26 91.72 10.5
5/7/2022 2:00:00 AM 10.54 50.972 0.072 7.26 93.31 10.52
5/7/2022 2:15:00 AM 10.51 50.918 0.077 7.27 98 10.52
5/7/2022 2:30:00 AM 10.49 50.882 0.058 7.22 98.06 10.53
5/7/2022 2:45:00 AM 10.46 50.828 0.057 7.23 99.48 10.54
5/7/2022 3:00:00 AM 10.43 50.774 0.066 7.27 102.4 10.56
5/7/2022 3:15:00 AM 10.41 50.738 0.061 7.27 103.44 10.57
5/7/2022 3:30:00 AM 10.38 50.684 0.076 7.25 102.07 10.57
5/7/2022 3:45:00 AM 10.36 50.648 0.074 7.3 96.91 10.57
5/7/2022 4:00:00 AM 10.34 50.612 0.075 7.25 94.13 10.59
5/7/2022 4:15:00 AM 10.31 50.558 0.074 7.29 93.63 10.6
5/7/2022 4:30:00 AM 10.3 50.54 0.074 7.25 90.44 10.6
5/7/2022 4:45:00 AM 10.27 50.486 0.076 7.27 88.35 10.6
5/7/2022 5:00:00 AM 10.26 50.468 0.076 7.27 89.86 10.6
5/7/2022 5:15:00 AM 10.23 50.414 0.075 7.26 88.38 10.62
5/7/2022 5:30:00 AM 10.22 50.396 0.074 7.27 84.39 10.61
5/7/2022 5:45:00 AM 10.21 50.378 0.074 7.22 77.63 10.61
5/7/2022 6:00:00 AM 10.19 50.342 0.071 7.2 80.09 10.62
5/7/2022 6:15:00 AM 10.17 50.306 0.075 7.24 83.49 10.63
5/7/2022 6:30:00 AM 10.16 50.288 0.073 7.18 84.19 10.63
5/7/2022 6:45:00 AM 10.14 50.252 0.074 7.22 82.66 10.63
5/7/2022 7:00:00 AM 10.12 50.216 0.074 7.21 82.05 10.64
5/7/2022 7:15:00 AM 10.1 50.18 0.074 7.2 85.83 10.64
5/7/2022 7:30:00 AM 10.09 50.162 0.073 7.19 85.03 10.66
5/7/2022 7:45:00 AM 10.08 50.144 0.071 6.99 197.78 10.67
5/7/2022 8:00:00 AM 10.08 50.144 0.073 7.18 92.81 10.67
5/7/2022 8:15:00 AM 10.07 50.126 0.069 7.08 96.08 10.67
5/7/2022 8:30:00 AM 10.06 50.108 0.073 7.15 103.44 10.67
5/7/2022 8:45:00 AM 10.06 50.108 0.073 7.13 109.66 10.67
5/7/2022 9:00:00 AM 10.08 50.144 0.061 7.01 122.68 10.67
5/7/2022 9:15:00 AM 10.07 50.126 0.073 7.12 129.63 10.68
5/7/2022 9:30:00 AM 10.08 50.144 0.073 7.11 139.32 10.67
5/7/2022 9:45:00 AM 10.1 50.18 0.069 7.15 138.52 10.67
5/7/2022 10:00:00 AM 10.08 50.144 0.073 6.98 154.3 10.68